Provisional Data: Chemung River at West Elmira, NY


Please select a monitoring station.
Please select start date.
Please select start date.

Toggle Unit: C/F Toggle Unit: C/F
Sample Time Temperature (C) Temperature (F) Specific Conductivity (mS/cm) pH   Turbidity (NTU+) DO (mg/L)
10/22/2021 12:00:00 AM 14.48 58.064 0.295 7.92 32.09 0.32
10/22/2021 12:15:00 AM 14.48 58.064 0.296 7.92 33.84 0.32
10/22/2021 12:30:00 AM 14.47 58.046 0.294 7.91 33.87 0.32
10/22/2021 12:45:00 AM 14.46 58.028 0.296 7.9 34.54 0.32
10/22/2021 1:00:00 AM 14.44 57.992 0.294 7.89 33.61 0.32
10/22/2021 1:15:00 AM 14.43 57.974 0.293 7.88 35.71 0.32
10/22/2021 1:30:00 AM 14.42 57.956 0.293 7.88 35.41 0.32
10/22/2021 1:45:00 AM 14.41 57.938 0.292 7.87 34.08 0.32
10/22/2021 2:00:00 AM 14.4 57.92 0.292 7.88 34.29 0.32
10/22/2021 2:15:00 AM 14.4 57.92 0.292 7.88 35.55 0.32
10/22/2021 2:30:00 AM 14.4 57.92 0.288 7.87 33.98 0.32
10/22/2021 2:45:00 AM 14.4 57.92 0.297 7.87 35.54 0.32
10/22/2021 3:00:00 AM 14.39 57.902 0.301 7.87 34.99 0.32
10/22/2021 3:15:00 AM 14.39 57.902 0.297 7.87 35.36 0.32
10/22/2021 3:30:00 AM 14.38 57.884 0.292 7.87 35.71 0.32
10/22/2021 3:45:00 AM 14.38 57.884 0.287 7.87 36.67 0.32
10/22/2021 4:00:00 AM 14.37 57.866 0.289 7.87 36.85 0.32
10/22/2021 4:15:00 AM 14.36 57.848 0.289 7.87 33.43 0.32
10/22/2021 4:30:00 AM 14.35 57.83 0.288 7.87 34.44 0.32
10/22/2021 4:45:00 AM 14.34 57.812 0.296 7.87 36.15 0.32
10/22/2021 5:00:00 AM 14.34 57.812 0.291 7.86 37.82 0.32
10/22/2021 5:15:00 AM 14.33 57.794 0.296 7.85 34.46 0.32
10/22/2021 5:30:00 AM 14.32 57.776 0.293 7.85 35.8 0.32
10/22/2021 5:45:00 AM 14.32 57.776 0.297 7.85 36.36 0.32
10/22/2021 6:00:00 AM 14.32 57.776 0.297 7.84 34.95 0.32
10/22/2021 6:15:00 AM 14.32 57.776 0.291 7.83 36.25 0.32
10/22/2021 6:30:00 AM 14.31 57.758 0.291 7.82 34.44 0.32
10/22/2021 6:45:00 AM 14.31 57.758 0.283 7.82 36.16 0.32
10/22/2021 7:00:00 AM 14.3 57.74 0.288 7.81 37.06 0.32
10/22/2021 7:15:00 AM 14.3 57.74 0.289 7.79 36.54 0.32
10/22/2021 7:30:00 AM 14.29 57.722 0.286 7.79 37.16 0.32
10/22/2021 7:45:00 AM 14.28 57.704 0.285 7.77 37.57 0.32
10/22/2021 8:00:00 AM 14.27 57.686 0.297 7.76 38.47 0.32
10/22/2021 8:15:00 AM 14.26 57.668 0.288 7.73 62.81 0.32
10/22/2021 8:30:00 AM 14.24 57.632 0.293 7.72 41.84 0.32
10/22/2021 8:45:00 AM 14.23 57.614 0.291 7.72 39.9 0.32
10/22/2021 9:00:00 AM 14.22 57.596 0.285 7.72 34.06 0.32
10/22/2021 9:15:00 AM 14.21 57.578 0.293 7.72 40.56 0.32
10/22/2021 9:30:00 AM 14.2 57.56 0.297 7.72 45.22 0.32
10/22/2021 9:45:00 AM 14.19 57.542 0.29 7.7 47.41 0.32
10/22/2021 10:00:00 AM 14.19 57.542 0.292 7.71 40.15 0.32
10/22/2021 10:15:00 AM 14.18 57.524 0.292 7.7 45.03 0.32
10/22/2021 10:30:00 AM 14.18 57.524 0.294 7.71 42.83 0.32
10/22/2021 10:45:00 AM 14.18 57.524 0.295 7.72 38.81 0.32
10/22/2021 11:00:00 AM 14.18 57.524 0.298 7.72 37.64 0.32
10/22/2021 11:15:00 AM 14.17 57.506 0.304 7.72 41.33 0.32
10/22/2021 11:30:00 AM 14.17 57.506 0.299 7.73 52.79 0.32
10/22/2021 11:45:00 AM 14.18 57.524 0.298 7.73 40.93 0.32
10/22/2021 12:00:00 PM 14.19 57.542 0.305 7.72 37.96 0.32
10/22/2021 12:15:00 PM 14.21 57.578 0.302 7.74 40.45 0.32
10/22/2021 12:30:00 PM 14.23 57.614 0.3 7.74 126.14 0.32
10/22/2021 12:45:00 PM 14.25 57.65 0.308 7.74 39.98 0.32
10/22/2021 1:00:00 PM 14.28 57.704 0.308 7.75 38.99 0.32
10/22/2021 1:15:00 PM 14.3 57.74 0.303 7.75 38.41 0.32
10/22/2021 1:30:00 PM 14.33 57.794 0.299 7.76 41.42 0.32
10/22/2021 1:45:00 PM 14.36 57.848 0.301 7.75 42.38 0.32
10/22/2021 2:00:00 PM 14.39 57.902 0.301 7.77 38.92 0.32
10/22/2021 2:15:00 PM 14.4 57.92 0.307 7.76 45.57 0.32
10/22/2021 2:30:00 PM 14.41 57.938 0.297 7.76 44.31 0.32
10/22/2021 2:45:00 PM 14.42 57.956 0.303 7.74 79.94 0.32
10/22/2021 3:00:00 PM 14.4 57.92 0.311 7.72 48.94 0.32
10/22/2021 3:15:00 PM 14.36 57.848 0.308 7.69 126.82 0.32
10/22/2021 3:30:00 PM 14.33 57.794 0.31 7.67 57.24 0.32
10/22/2021 3:45:00 PM 14.29 57.722 0.312 7.66 71.29 0.32
10/22/2021 4:00:00 PM 14.24 57.632 0.307 7.64 68.66 0.32
10/22/2021 4:15:00 PM 14.21 57.578 0.308 7.62 88.69 0.32
10/22/2021 4:30:00 PM 14.18 57.524 0.308 7.62 72.11 0.32
10/22/2021 4:45:00 PM 14.17 57.506 0.324 7.6 111.46 0.32
10/22/2021 5:00:00 PM 14.16 57.488 0.339 7.61 176.26 0.32
10/22/2021 5:15:00 PM 14.16 57.488 0.35 7.62 88.3 0.32
10/22/2021 5:30:00 PM 14.15 57.47 0.355 7.62 101.94 0.32
10/22/2021 5:45:00 PM 14.15 57.47 0.361 7.62 242.84 0.32
10/22/2021 6:00:00 PM 14.14 57.452 0.372 7.62 91.58 0.32
10/22/2021 6:15:00 PM 14.12 57.416 0.376 7.61 166.22 0.32
10/22/2021 6:30:00 PM 14.11 57.398 0.378 7.61 167.46 0.32
10/22/2021 6:45:00 PM 14.1 57.38 0.38 7.61 181.79 0.32
10/22/2021 7:00:00 PM 14.09 57.362 0.382 7.61 157.57 0.32
10/22/2021 7:15:00 PM 14.09 57.362 0.385 7.61 162.37 0.32
10/22/2021 7:30:00 PM 14.09 57.362 0.389 7.61 183.13 0.32
10/22/2021 7:45:00 PM 14.09 57.362 0.392 7.61 129.23 0.32
10/22/2021 8:00:00 PM 14.08 57.344 0.394 7.6 108.31 0.32
10/22/2021 8:15:00 PM 14.08 57.344 0.394 7.6 130.48 0.32
10/22/2021 8:30:00 PM 14.08 57.344 0.393 7.61 75.9 0.33
10/22/2021 8:45:00 PM 14.07 57.326 0.392 7.6 75.05 0.33
10/22/2021 9:00:00 PM 14.07 57.326 0.392 7.6 86.45 0.32
10/22/2021 9:15:00 PM 14.07 57.326 0.391 7.6 86.54 0.32
10/22/2021 9:30:00 PM 14.07 57.326 0.392 7.59 85.97 0.32
10/22/2021 9:45:00 PM 14.07 57.326 0.389 7.6 73.83 0.32
10/22/2021 10:00:00 PM 14.06 57.308 0.389 7.59 79.55 0.32
10/22/2021 10:15:00 PM 14.05 57.29 0.389 7.59 69.1 0.32
10/22/2021 10:30:00 PM 14.04 57.272 0.384 7.59 76.22 0.32
10/22/2021 10:45:00 PM 14.03 57.254 0.384 7.58 77.67 0.32
10/22/2021 11:00:00 PM 14.02 57.236 0.376 7.59 92.92 0.32
10/22/2021 11:15:00 PM 14 57.2 0.377 7.59 78.68 0.32
10/22/2021 11:30:00 PM 13.98 57.164 0.378 7.58 86.35 0.33
10/22/2021 11:45:00 PM 13.96 57.128 0.378 7.58 74.7 0.33
10/23/2021 12:00:00 AM 13.94 57.092 0.38 7.58 94.83 0.33
10/23/2021 12:15:00 AM 13.92 57.056 0.377 7.58 77.18 0.33
10/23/2021 12:30:00 AM 13.9 57.02 0.381 7.58 83.73 0.33
10/23/2021 12:45:00 AM 13.88 56.984 0.385 7.58 78.68 0.33
10/23/2021 1:00:00 AM 13.86 56.948 0.386 7.58 83.54 0.33
10/23/2021 1:15:00 AM 13.83 56.894 0.386 7.58 100.57 0.33
10/23/2021 1:30:00 AM 13.81 56.858 0.389 7.58 94.09 0.33
10/23/2021 1:45:00 AM 13.79 56.822 0.392 7.59 113.36 0.33
10/23/2021 2:00:00 AM 13.77 56.786 0.428 7.58 108.24 0.33
10/23/2021 2:15:00 AM 13.74 56.732 0.429 7.59 119.64 0.33
10/23/2021 2:30:00 AM 13.72 56.696 0.428 7.59 129.24 0.33
10/23/2021 2:45:00 AM 13.7 56.66 0.427 7.59 160.19 0.33
10/23/2021 3:00:00 AM 13.68 56.624 0.427 7.59 144.63 0.33
10/23/2021 3:15:00 AM 13.65 56.57 0.426 7.59 168.09 0.33
10/23/2021 3:30:00 AM 13.63 56.534 0.425 7.59 201.02 0.33
10/23/2021 3:45:00 AM 13.61 56.498 0.424 7.59 189.93 0.33
10/23/2021 4:00:00 AM 13.59 56.462 0.425 7.59 192.18 0.33
10/23/2021 4:15:00 AM 13.57 56.426 0.425 7.59 227.24 0.33
10/23/2021 4:30:00 AM 13.55 56.39 0.424 7.59 210.5 0.33
10/23/2021 4:45:00 AM 13.53 56.354 0.415 7.57 186.51 0.33
10/23/2021 5:00:00 AM 13.51 56.318 0.406 7.59 205.77 0.33
10/23/2021 5:15:00 AM 13.49 56.282 0.393 7.58 207.45 0.33
10/23/2021 5:30:00 AM 13.47 56.246 0.38 7.58 233.57 0.33
10/23/2021 5:45:00 AM 13.45 56.21 0.366 7.58 184.08 0.33
10/23/2021 6:00:00 AM 13.43 56.174 0.353 7.58 198.97 0.33
10/23/2021 6:15:00 AM 13.41 56.138 0.341 7.58 145.59 0.33
10/23/2021 6:30:00 AM 13.39 56.102 0.334 7.57 166.23 0.33
10/23/2021 6:45:00 AM 13.37 56.066 0.327 7.57 164.66 0.33
10/23/2021 7:00:00 AM 13.34 56.012 0.322 7.57 169.36 0.33
10/23/2021 7:15:00 AM 13.32 55.976 0.324 7.57 143.62 0.33
10/23/2021 7:30:00 AM 13.3 55.94 0.318 7.57 207.42 0.33
10/23/2021 7:45:00 AM 13.27 55.886 0.318 7.56 201.77 0.33
10/23/2021 8:00:00 AM 13.25 55.85 0.322 7.56 275.93 0.33
10/23/2021 8:15:00 AM 13.23 55.814 0.326 7.56 147.68 0.33
10/23/2021 8:30:00 AM 13.21 55.778 0.323 7.55 111.68 0.33
10/23/2021 8:45:00 AM 13.19 55.742 0.322 7.56 104.73 0.33
10/23/2021 9:00:00 AM 13.18 55.724 0.303 7.55 119.18 0.33
10/23/2021 9:15:00 AM 13.16 55.688 0.29 7.56 99.2 0.33
10/23/2021 9:30:00 AM 13.14 55.652 0.278 7.55 105.09 0.33
10/23/2021 9:45:00 AM 13.12 55.616 0.27 7.56 128.84 0.33
10/23/2021 10:00:00 AM 13.1 55.58 0.243 7.55 99.92 0.33
10/23/2021 10:15:00 AM 13.08 55.544 0.238 7.56 111.21 0.33
10/23/2021 10:30:00 AM 13.07 55.526 0.236 7.55 94.41 0.33
10/23/2021 10:45:00 AM 13.06 55.508 0.232 7.56 94.26 0.33
10/23/2021 11:00:00 AM 13.06 55.508 0.229 7.56 101.61 0.33
10/23/2021 11:15:00 AM 13.05 55.49 0.228 7.56 97.5 0.33
10/23/2021 11:30:00 AM 13.05 55.49 0.226 7.56 92.48 0.33
10/23/2021 11:45:00 AM 13.05 55.49 0.225 7.56 99.76 0.33
10/23/2021 12:00:00 PM 13.06 55.508 0.222 7.57 95.21 0.33
10/23/2021 12:15:00 PM 13.06 55.508 0.223 7.56 79.1 0.33
10/23/2021 12:30:00 PM 13.06 55.508 0.224 7.57 96.56 0.33
10/23/2021 12:45:00 PM 13.05 55.49 0.223 7.57 84.27 0.33
10/23/2021 1:00:00 PM 13.06 55.508 0.223 7.57 71.77 0.33
10/23/2021 1:15:00 PM 13.06 55.508 0.221 7.57 79.49 0.33
10/23/2021 1:30:00 PM 13.06 55.508 0.22 7.58 90.08 0.33
10/23/2021 1:45:00 PM 13.05 55.49 0.219 7.57 78.64 0.33
10/23/2021 2:00:00 PM 13.06 55.508 0.218 7.58 82.55 0.33
10/23/2021 2:15:00 PM 13.06 55.508 0.218 7.58 72.37 0.33
10/23/2021 2:30:00 PM 13.06 55.508 0.218 7.59 65.41 0.33
10/23/2021 2:45:00 PM 13.07 55.526 0.218 7.59 69.13 0.33
10/23/2021 3:00:00 PM 13.07 55.526 0.218 7.59 70.52 0.33
10/23/2021 3:15:00 PM 13.08 55.544 0.219 7.6 78.11 0.33
10/23/2021 3:30:00 PM 13.07 55.526 0.218 7.6 68.01 0.33
10/23/2021 3:45:00 PM 13.07 55.526 0.217 7.6 78.02 0.33
10/23/2021 4:00:00 PM 13.07 55.526 0.215 7.6 64.87 0.33
10/23/2021 4:15:00 PM 13.07 55.526 0.215 7.59 60.33 0.33
10/23/2021 4:30:00 PM 13.07 55.526 0.213 7.6 53.89 0.33
10/23/2021 4:45:00 PM 13.07 55.526 0.213 7.6 56.61 0.33
10/23/2021 5:00:00 PM 13.08 55.544 0.213 7.6 64.53 0.33
10/23/2021 5:15:00 PM 13.09 55.562 0.215 7.6 72.16 0.33
10/23/2021 5:30:00 PM 13.08 55.544 0.221 7.6 53.43 0.33
10/23/2021 5:45:00 PM 13.08 55.544 0.224 7.6 57.37 0.33
10/23/2021 6:00:00 PM 13.08 55.544 0.227 7.6 55.53 0.33
10/23/2021 6:15:00 PM 13.07 55.526 0.23 7.6 60.6 0.33
10/23/2021 6:30:00 PM 13.06 55.508 0.232 7.6 95.49 0.33
10/23/2021 6:45:00 PM 13.04 55.472 0.233 7.6 53.74 0.33
10/23/2021 7:00:00 PM 13.02 55.436 0.236 7.59 57.47 0.33
10/23/2021 7:15:00 PM 13 55.4 0.237 7.59 58.16 0.33
10/23/2021 7:30:00 PM 12.99 55.382 0.24 7.59 54.36 0.33
10/23/2021 7:45:00 PM 12.97 55.346 0.241 7.59 54.07 0.33
10/23/2021 8:00:00 PM 12.96 55.328 0.243 7.59 51.94 0.34
10/23/2021 8:15:00 PM 12.94 55.292 0.245 7.59 52.7 0.33
10/23/2021 8:30:00 PM 12.92 55.256 0.245 7.59 54.56 0.34
10/23/2021 8:45:00 PM 12.91 55.238 0.246 7.59 52.2 0.33
10/23/2021 9:00:00 PM 12.9 55.22 0.246 7.57 54.53 0.34
10/23/2021 9:15:00 PM 12.89 55.202 0.247 7.59 55.7 0.34
10/23/2021 9:30:00 PM 12.89 55.202 0.248 7.58 53.85 0.34
10/23/2021 9:45:00 PM 12.88 55.184 0.25 7.58 52.85 0.34
10/23/2021 10:00:00 PM 12.87 55.166 0.252 7.59 54.98 0.34
10/23/2021 10:15:00 PM 12.86 55.148 0.252 7.59 53.22 0.34
10/23/2021 10:30:00 PM 12.85 55.13 0.253 7.6 56.24 0.34
10/23/2021 10:45:00 PM 12.84 55.112 0.254 7.59 52.78 0.34
10/23/2021 11:00:00 PM 12.83 55.094 0.256 7.6 52.32 0.34
10/23/2021 11:15:00 PM 12.82 55.076 0.257 7.6 51.68 0.34
10/23/2021 11:30:00 PM 12.81 55.058 0.258 7.6 52.21 0.34
10/23/2021 11:45:00 PM 12.79 55.022 0.259 7.6 57.68 0.34
10/24/2021 12:00:00 AM 12.78 55.004 0.259 7.61 93.55 0.34
10/24/2021 12:15:00 AM 12.76 54.968 0.26 7.61 53.51 0.34
10/24/2021 12:30:00 AM 12.74 54.932 0.26 7.61 62.01 0.34
10/24/2021 12:45:00 AM 12.72 54.896 0.261 7.62 52.99 0.34
10/24/2021 1:00:00 AM 12.7 54.86 0.261 7.62 77.38 0.34
10/24/2021 1:15:00 AM 12.68 54.824 0.261 7.62 54.7 0.34
10/24/2021 1:30:00 AM 12.66 54.788 0.261 7.62 48.93 0.34
10/24/2021 1:45:00 AM 12.64 54.752 0.261 7.62 53.65 0.34
10/24/2021 2:00:00 AM 12.61 54.698 0.26 7.63 51.18 0.34
10/24/2021 2:15:00 AM 12.59 54.662 0.26 7.63 51.92 0.34
10/24/2021 2:30:00 AM 12.56 54.608 0.261 7.63 51.87 0.34
10/24/2021 2:45:00 AM 12.53 54.554 0.261 7.64 49.99 0.34
10/24/2021 3:00:00 AM 12.5 54.5 0.261 7.64 49.58 0.34
10/24/2021 3:15:00 AM 12.48 54.464 0.259 7.63 51.61 0.34
10/24/2021 3:30:00 AM 12.45 54.41 0.258 7.64 53.83 0.34
10/24/2021 3:45:00 AM 12.43 54.374 0.258 7.64 51.1 0.34
10/24/2021 4:00:00 AM 12.4 54.32 0.258 7.63 107.18 0.34
10/24/2021 4:15:00 AM 12.38 54.284 0.258 7.64 51.34 0.34
10/24/2021 4:30:00 AM 12.36 54.248 0.257 7.63 51.93 0.34
10/24/2021 4:45:00 AM 12.33 54.194 0.256 7.64 48.87 0.34
10/24/2021 5:00:00 AM 12.31 54.158 0.256 7.63 50.32 0.34
10/24/2021 5:15:00 AM 12.29 54.122 0.255 7.64 52.61 0.34
10/24/2021 5:30:00 AM 12.28 54.104 0.254 7.64 50.07 0.34
10/24/2021 5:45:00 AM 12.26 54.068 0.253 7.64 50.89 0.34
10/24/2021 6:00:00 AM 12.24 54.032 0.26 7.63 49.99 0.34
10/24/2021 6:15:00 AM 12.22 53.996 0.257 7.63 48.76 0.34
10/24/2021 6:30:00 AM 12.21 53.978 0.257 7.63 49.43 0.34
10/24/2021 6:45:00 AM 12.19 53.942 0.257 7.63 46.73 0.34
10/24/2021 7:00:00 AM 12.17 53.906 0.256 7.63 46.92 0.34
10/24/2021 7:15:00 AM 12.15 53.87 0.256 7.63 46.54 0.34
10/24/2021 7:30:00 AM 12.13 53.834 0.253 7.63 47.17 0.34
10/24/2021 7:45:00 AM 12.11 53.798 0.251 7.63 42.92 0.34
10/24/2021 8:00:00 AM 12.09 53.762 0.25 7.63 44.95 0.34
10/24/2021 8:15:00 AM 12.07 53.726 0.248 7.63 45.26 0.34
10/24/2021 8:30:00 AM 12.06 53.708 0.248 7.63 45.18 0.34
10/24/2021 8:45:00 AM 12.05 53.69 0.248 7.63 45.97 0.34
10/24/2021 9:00:00 AM 12.04 53.672 0.249 7.63 47.42 0.34
10/24/2021 9:15:00 AM 12.03 53.654 0.25 7.64 46.14 0.34
10/24/2021 9:30:00 AM 12.02 53.636 0.25 7.65 41.99 0.34
10/24/2021 9:45:00 AM 12.02 53.636 0.251 7.63 41.72 0.34
10/24/2021 10:00:00 AM 12.03 53.654 0.251 7.66 44.56 0.34
10/24/2021 10:15:00 AM 12.04 53.672 0.252 7.66 42.69 0.34
10/24/2021 10:30:00 AM 12.06 53.708 0.251 7.67 46.48 0.34
10/24/2021 10:45:00 AM 12.09 53.762 0.251 7.67 42.07 0.34
10/24/2021 11:00:00 AM 12.12 53.816 0.251 7.7 42.59 0.34
10/24/2021 11:15:00 AM 12.16 53.888 0.25 7.69 41.47 0.34
10/24/2021 11:30:00 AM 12.2 53.96 0.252 7.72 43.18 0.34
10/24/2021 11:45:00 AM 12.22 53.996 0.252 7.73 39.5 0.34
10/24/2021 12:00:00 PM 12.25 54.05 0.252 7.74 40.31 0.34
10/24/2021 12:15:00 PM 12.27 54.086 0.252 7.75 40.37 0.34
10/24/2021 12:30:00 PM 12.29 54.122 0.253 7.76 39.9 0.34
10/24/2021 12:45:00 PM 12.31 54.158 0.254 7.77 38.64 0.34
10/24/2021 1:00:00 PM 12.34 54.212 0.254 7.78 40.46 0.34
10/24/2021 1:15:00 PM 12.37 54.266 0.254 7.79 38.18 0.34
10/24/2021 1:30:00 PM 12.39 54.302 0.254 7.8 38.9 0.34
10/24/2021 1:45:00 PM 12.39 54.302 0.255 7.8 37.95 0.34
10/24/2021 2:00:00 PM 12.39 54.302 0.255 7.79 39.09 0.34
10/24/2021 2:15:00 PM 12.4 54.32 0.255 7.81 39.19 0.34
10/24/2021 2:30:00 PM 12.41 54.338 0.254 7.81 38.17 0.34
10/24/2021 2:45:00 PM 12.42 54.356 0.255 7.81 38.42 0.34
10/24/2021 3:00:00 PM 12.44 54.392 0.255 7.82 36.32 0.34
10/24/2021 3:15:00 PM 12.45 54.41 0.255 7.82 41.3 0.34
10/24/2021 3:30:00 PM 12.46 54.428 0.255 7.82 36.28 0.34
10/24/2021 3:45:00 PM 12.47 54.446 0.255 7.83 37.62 0.34
10/24/2021 4:00:00 PM 12.47 54.446 0.256 7.83 38.33 0.34
10/24/2021 4:15:00 PM 12.48 54.464 0.257 7.83 38.09 0.34
10/24/2021 4:30:00 PM 12.49 54.482 0.256 7.83 36.79 0.34
10/24/2021 4:45:00 PM 12.49 54.482 0.256 7.83 36.43 0.34
10/24/2021 5:00:00 PM 12.49 54.482 0.257 7.83 37.06 0.34
10/24/2021 5:15:00 PM 12.48 54.464 0.258 7.81 38.8 0.34
10/24/2021 5:30:00 PM 12.48 54.464 0.258 7.82 37.59 0.34
10/24/2021 5:45:00 PM 12.47 54.446 0.258 7.82 38.55 0.34
10/24/2021 6:00:00 PM 12.46 54.428 0.259 7.82 39.3 0.34
10/24/2021 6:15:00 PM 12.45 54.41 0.257 7.81 40.68 0.34
10/24/2021 6:30:00 PM 12.45 54.41 0.258 7.81 38.75 0.34
10/24/2021 6:45:00 PM 12.44 54.392 0.257 7.8 36.23 0.34
10/24/2021 7:00:00 PM 12.44 54.392 0.259 7.79 37.07 0.34
10/24/2021 7:15:00 PM 12.44 54.392 0.259 7.8 36.72 0.34
10/24/2021 7:30:00 PM 12.44 54.392 0.259 7.8 40.21 0.34
10/24/2021 7:45:00 PM 12.44 54.392 0.259 7.79 37.59 0.34
10/24/2021 8:00:00 PM 12.45 54.41 0.258 7.79 37.48 0.34
10/24/2021 8:15:00 PM 12.45 54.41 0.26 7.79 38.65 0.34
10/24/2021 8:30:00 PM 12.44 54.392 0.259 7.79 39.23 0.34
10/24/2021 8:45:00 PM 12.44 54.392 0.26 7.78 38.05 0.34
10/24/2021 9:00:00 PM 12.44 54.392 0.261 7.78 38.73 0.34
10/24/2021 9:15:00 PM 12.43 54.374 0.261 7.78 37.05 0.34
10/24/2021 9:30:00 PM 12.42 54.356 0.262 7.78 39.23 0.34
10/24/2021 9:45:00 PM 12.41 54.338 0.262 7.78 37.25 0.34
10/24/2021 10:00:00 PM 12.41 54.338 0.264 7.77 39.54 0.34
10/24/2021 10:15:00 PM 12.4 54.32 0.263 7.77 38.6 0.34
10/24/2021 10:30:00 PM 12.39 54.302 0.263 7.77 44.41 0.34
10/24/2021 10:45:00 PM 12.38 54.284 0.264 7.76 38.67 0.34
10/24/2021 11:00:00 PM 12.38 54.284 0.264 7.76 38.56 0.34
10/24/2021 11:15:00 PM 12.37 54.266 0.265 7.76 37.54 0.34
10/24/2021 11:30:00 PM 12.36 54.248 0.265 7.76 39.88 0.34
10/24/2021 11:45:00 PM 12.35 54.23 0.266 7.76 39.36 0.34
10/25/2021 12:00:00 AM 12.35 54.23 0.264 7.75 38.08 0.34
10/25/2021 12:15:00 AM 12.34 54.212 0.264 7.75 37.6 0.34
10/25/2021 12:30:00 AM 12.33 54.194 0.264 7.74 37.71 0.34
10/25/2021 12:45:00 AM 12.31 54.158 0.263 7.74 38.96 0.34
10/25/2021 1:00:00 AM 12.3 54.14 0.263 7.74 38.21 0.34
10/25/2021 1:15:00 AM 12.29 54.122 0.264 7.73 42.88 0.34
10/25/2021 1:30:00 AM 12.28 54.104 0.264 7.73 42.32 0.34
10/25/2021 1:45:00 AM 12.29 54.122 0.265 7.73 40.99 0.34
10/25/2021 2:00:00 AM 12.29 54.122 0.265 7.73 40.77 0.34
10/25/2021 2:15:00 AM 12.3 54.14 0.266 7.72 39.7 0.34
10/25/2021 2:30:00 AM 12.29 54.122 0.266 7.73 39.77 0.34
10/25/2021 2:45:00 AM 12.29 54.122 0.267 7.72 39.75 0.34
10/25/2021 3:00:00 AM 12.29 54.122 0.268 7.72 38.85 0.34
10/25/2021 3:15:00 AM 12.28 54.104 0.264 7.71 38.29 0.34
10/25/2021 3:30:00 AM 12.27 54.086 0.263 7.72 38.99 0.34
10/25/2021 3:45:00 AM 12.26 54.068 0.263 7.72 42.67 0.34
10/25/2021 4:00:00 AM 12.25 54.05 0.264 7.71 36.8 0.34
10/25/2021 4:15:00 AM 12.24 54.032 0.263 7.71 37.98 0.34
10/25/2021 4:30:00 AM 12.23 54.014 0.263 7.72 41.09 0.34
10/25/2021 4:45:00 AM 12.23 54.014 0.263 7.71 36.94 0.34
10/25/2021 5:00:00 AM 12.22 53.996 0.265 7.71 39.11 0.34
10/25/2021 5:15:00 AM 12.22 53.996 0.264 7.71 39.1 0.34
10/25/2021 5:30:00 AM 12.22 53.996 0.265 7.71 36.82 0.34
10/25/2021 5:45:00 AM 12.21 53.978 0.264 7.71 37.41 0.34
10/25/2021 6:00:00 AM 12.21 53.978 0.265 7.7 40.02 0.34
10/25/2021 6:15:00 AM 12.2 53.96 0.266 7.7 38.46 0.34
10/25/2021 6:30:00 AM 12.2 53.96 0.264 7.7 39.08 0.34
10/25/2021 6:45:00 AM 12.21 53.978 0.264 7.69 39.11 0.34
10/25/2021 7:00:00 AM 12.21 53.978 0.265 7.69 39.43 0.34
10/25/2021 7:15:00 AM 12.21 53.978 0.264 7.69 38.87 0.34
10/25/2021 7:30:00 AM 12.2 53.96 0.264 7.68 40.46 0.34
10/25/2021 7:45:00 AM 12.21 53.978 0.265 7.69 38.7 0.34
10/25/2021 8:00:00 AM 12.21 53.978 0.264 7.68 42.06 0.34
10/25/2021 8:15:00 AM 12.21 53.978 0.265 7.68 40.15 0.34
10/25/2021 8:30:00 AM 12.21 53.978 0.266 7.68 54.37 0.34
10/25/2021 8:45:00 AM 12.21 53.978 0.267 7.68 39.87 0.34
10/25/2021 9:00:00 AM 12.21 53.978 0.267 7.68 40.14 0.34
10/25/2021 9:15:00 AM 12.22 53.996 0.267 7.68 61.05 0.34
10/25/2021 9:30:00 AM 12.23 54.014 0.267 7.68 38.68 0.34
10/25/2021 9:45:00 AM 12.25 54.05 0.267 7.69 37.37 0.34
10/25/2021 10:00:00 AM 12.26 54.068 0.269 7.69 37.87 0.34
10/25/2021 10:15:00 AM 12.28 54.104 0.271 7.69 38.78 0.34
10/25/2021 10:30:00 AM 12.3 54.14 0.27 7.69 39.61 0.34
10/25/2021 10:45:00 AM 12.33 54.194 0.269 7.7 38.26 0.34
10/25/2021 11:00:00 AM 12.36 54.248 0.268 7.7 38.15 0.34
10/25/2021 11:15:00 AM 12.41 54.338 0.268 7.69 45.33 0.34
10/25/2021 11:30:00 AM 12.46 54.428 0.269 7.71 41.13 0.34
10/25/2021 11:45:00 AM 12.51 54.518 0.268 7.72 41.07 0.34
10/25/2021 12:00:00 PM 12.56 54.608 0.269 7.72 40.54 0.34
10/25/2021 12:15:00 PM 12.6 54.68 0.27 7.73 56.87 0.34
10/25/2021 12:30:00 PM 12.65 54.77 0.271 7.73 39.6 0.34
10/25/2021 12:45:00 PM 12.69 54.842 0.269 7.74 36.37 0.34
10/25/2021 1:00:00 PM 12.74 54.932 0.271 7.74 90.61 0.34
10/25/2021 1:15:00 PM 12.78 55.004 0.27 7.75 36.32 0.34
10/25/2021 1:30:00 PM 12.84 55.112 0.271 7.76 41.16 0.33
10/25/2021 1:45:00 PM 12.88 55.184 0.27 7.76 38.84 0.33
10/25/2021 2:00:00 PM 12.92 55.256 0.273 7.75 42.2 0.33
10/25/2021 2:15:00 PM 12.96 55.328 0.272 7.76 44.98 0.33
10/25/2021 2:30:00 PM 12.99 55.382 0.274 7.76 40.91 0.33
10/25/2021 2:45:00 PM 13.02 55.436 0.273 7.76 50.09 0.33
10/25/2021 3:00:00 PM 13.05 55.49 0.276 7.76 41.25 0.33
10/25/2021 3:15:00 PM 13.08 55.544 0.276 7.76 40.55 0.33
10/25/2021 3:30:00 PM 13.1 55.58 0.277 7.76 44.91 0.33
10/25/2021 3:45:00 PM 13.1 55.58 0.276 7.74 55.66 0.33
10/25/2021 4:00:00 PM 13.1 55.58 0.275 7.76 44.8 0.33
10/25/2021 4:15:00 PM 13.1 55.58 0.277 7.74 45.37 0.33
10/25/2021 4:30:00 PM 13.1 55.58 0.275 7.74 46.46 0.33
10/25/2021 4:45:00 PM 13.09 55.562 0.277 7.73 46.1 0.33
10/25/2021 5:00:00 PM 13.09 55.562 0.277 7.71 46.1 0.33
10/25/2021 5:15:00 PM 13.09 55.562 0.278 7.72 49.53 0.33
10/25/2021 5:30:00 PM 13.09 55.562 0.275 7.72 50.62 0.33
10/25/2021 5:45:00 PM 13.08 55.544 0.281 7.72 51.88 0.33
10/25/2021 6:00:00 PM 13.08 55.544 0.281 7.72 46.87 0.33
10/25/2021 6:15:00 PM 13.06 55.508 0.279 7.71 47.87 0.33
10/25/2021 6:30:00 PM 13.05 55.49 0.28 7.7 46.36 0.33
10/25/2021 6:45:00 PM 13.04 55.472 0.279 7.72 48 0.33
10/25/2021 7:00:00 PM 13.03 55.454 0.275 7.72 48.38 0.33
10/25/2021 7:15:00 PM 13.03 55.454 0.272 7.72 51.79 0.33
10/25/2021 7:30:00 PM 13.03 55.454 0.271 7.72 55.67 0.33
10/25/2021 7:45:00 PM 13.03 55.454 0.273 7.72 57.88 0.33
10/25/2021 8:00:00 PM 13.03 55.454 0.273 7.71 75.67 0.33
10/25/2021 8:15:00 PM 13.04 55.472 0.272 7.71 61.56 0.33
10/25/2021 8:30:00 PM 13.06 55.508 0.273 7.71 67.18 0.33
10/25/2021 8:45:00 PM 13.07 55.526 0.271 7.7 87.08 0.33
10/25/2021 9:00:00 PM 13.09 55.562 0.269 7.69 83.23 0.33
10/25/2021 9:15:00 PM 13.11 55.598 0.269 7.68 73.87 0.33
10/25/2021 9:30:00 PM 13.13 55.634 0.268 7.68 67.86 0.33
10/25/2021 9:45:00 PM 13.16 55.688 0.268 7.69 84.54 0.33
10/25/2021 10:00:00 PM 13.19 55.742 0.267 7.67 97.61 0.33
10/25/2021 10:15:00 PM 13.23 55.814 0.266 7.66 68.54 0.33
10/25/2021 10:30:00 PM 13.26 55.868 0.265 7.66 84.7 0.33
10/25/2021 10:45:00 PM 13.3 55.94 0.265 7.65 71.66 0.33
10/25/2021 11:00:00 PM 13.34 56.012 0.264 7.64 71.76 0.33
10/25/2021 11:15:00 PM 13.38 56.084 0.264 7.64 63.09 0.33
10/25/2021 11:30:00 PM 13.41 56.138 0.263 7.64 107.63 0.33
10/25/2021 11:45:00 PM 13.44 56.192 0.262 7.62 79.45 0.33
10/26/2021 12:00:00 AM 13.47 56.246 0.262 7.63 74.2 0.33
10/26/2021 12:15:00 AM 13.49 56.282 0.261 7.62 71.76 0.33
10/26/2021 12:30:00 AM 13.52 56.336 0.261 7.62 73.86 0.33
10/26/2021 12:45:00 AM 13.53 56.354 0.261 7.62 66.45 0.33
10/26/2021 1:00:00 AM 13.55 56.39 0.261 7.62 62.04 0.33
10/26/2021 1:15:00 AM 13.56 56.408 0.262 7.62 70.58 0.33
10/26/2021 1:30:00 AM 13.58 56.444 0.262 7.6 61.56 0.33
10/26/2021 1:45:00 AM 13.59 56.462 0.261 7.61 64.2 0.33
10/26/2021 2:00:00 AM 13.6 56.48 0.26 7.6 64.78 0.33
10/26/2021 2:15:00 AM 13.6 56.48 0.262 7.6 61.57 0.33
10/26/2021 2:30:00 AM 13.61 56.498 0.261 7.61 60.96 0.33
10/26/2021 2:45:00 AM 13.62 56.516 0.261 7.61 83.88 0.33
10/26/2021 3:00:00 AM 13.63 56.534 0.259 7.6 60.31 0.33
10/26/2021 3:15:00 AM 13.63 56.534 0.258 7.61 65.25 0.33
10/26/2021 3:30:00 AM 13.64 56.552 0.258 7.61 57.38 0.33
10/26/2021 3:45:00 AM 13.65 56.57 0.26 7.6 61.54 0.33
10/26/2021 4:00:00 AM 13.66 56.588 0.26 7.6 65.02 0.33
10/26/2021 4:15:00 AM 13.67 56.606 0.26 7.59 63 0.33
10/26/2021 4:30:00 AM 13.68 56.624 0.261 7.6 62.18 0.33
10/26/2021 4:45:00 AM 13.68 56.624 0.264 7.6 52.2 0.33
10/26/2021 5:00:00 AM 13.69 56.642 0.265 7.6 64.64 0.33
10/26/2021 5:15:00 AM 13.69 56.642 0.265 7.61 47.69 0.33
10/26/2021 5:30:00 AM 13.7 56.66 0.266 7.61 55.71 0.33
10/26/2021 5:45:00 AM 13.7 56.66 0.264 7.6 56.21 0.33
10/26/2021 6:00:00 AM 13.7 56.66 0.263 7.6 58.5 0.33
10/26/2021 6:15:00 AM 13.7 56.66 0.263 7.6 53.92 0.33
10/26/2021 6:30:00 AM 13.7 56.66 0.263 7.6 74.39 0.33
10/26/2021 6:45:00 AM 13.7 56.66 0.262 7.58 50.35 0.33
10/26/2021 7:00:00 AM 13.7 56.66 0.26 7.6 58.48 0.33
10/26/2021 7:15:00 AM 13.69 56.642 0.261 7.6 55.87 0.33
10/26/2021 7:30:00 AM 13.68 56.624 0.26 7.58 77.27 0.33
10/26/2021 7:45:00 AM 13.67 56.606 0.265 7.6 65.03 0.33
10/26/2021 8:00:00 AM 13.66 56.588 0.263 7.57 55.8 0.33
10/26/2021 8:15:00 AM 13.64 56.552 0.263 7.58 58.96 0.33
10/26/2021 8:30:00 AM 13.63 56.534 0.263 7.59 67.18 0.33
10/26/2021 8:45:00 AM 13.62 56.516 0.266 7.59 61.34 0.33
10/26/2021 9:00:00 AM 13.6 56.48 0.264 7.57 163.01 0.33
10/26/2021 9:15:00 AM 13.59 56.462 0.263 7.59 67.27 0.33
10/26/2021 9:30:00 AM 13.57 56.426 0.262 7.58 62.36 0.33
10/26/2021 9:45:00 AM 13.55 56.39 0.262 7.57 65.54 0.33
10/26/2021 10:00:00 AM 13.53 56.354 0.262 7.59 60.88 0.33
10/26/2021 10:15:00 AM 13.52 56.336 0.262 7.57 79.45 0.33
10/26/2021 10:30:00 AM 13.5 56.3 0.261 7.57 65.68 0.33
10/26/2021 10:45:00 AM 13.48 56.264 0.261 7.57 70.73 0.33
10/26/2021 11:00:00 AM 13.47 56.246 0.26 7.57 73.5 0.33
10/26/2021 11:15:00 AM 13.46 56.228 0.26 7.57 97.18 0.33
10/26/2021 11:30:00 AM 13.44 56.192 0.259 7.57 97.7 0.33
10/26/2021 11:45:00 AM 13.42 56.156 0.253 7.57 87.6 0.33
10/26/2021 12:00:00 PM 13.41 56.138 0.254 7.57 86.71 0.33
10/26/2021 12:15:00 PM 13.39 56.102 0.253 7.56 104.44 0.33
10/26/2021 12:30:00 PM 13.38 56.084 0.252 7.56 74.83 0.33
10/26/2021 12:45:00 PM 13.36 56.048 0.253 7.55 98.61 0.33
10/26/2021 1:00:00 PM 13.34 56.012 0.251 7.55 102.55 0.33
10/26/2021 1:15:00 PM 13.32 55.976 0.251 7.55 90.2 0.33
10/26/2021 1:30:00 PM 13.3 55.94 0.25 7.54 104.76 0.33
10/26/2021 1:45:00 PM 13.28 55.904 0.25 7.54 125.31 0.33
10/26/2021 2:00:00 PM 13.26 55.868 0.249 7.54 132.81 0.33
10/26/2021 2:15:00 PM 13.24 55.832 0.245 7.53 133.23 0.33
10/26/2021 2:30:00 PM 13.21 55.778 0.242 7.54 143.78 0.33
10/26/2021 2:45:00 PM 13.18 55.724 0.243 7.52 137.29 0.33
10/26/2021 3:00:00 PM 13.15 55.67 0.245 7.54 164.72 0.33
10/26/2021 3:15:00 PM 13.12 55.616 0.241 7.53 198.64 0.33
10/26/2021 3:30:00 PM 13.08 55.544 0.243 7.53 288.3 0.33
10/26/2021 3:45:00 PM 13.04 55.472 0.239 7.54 295.01 0.33
10/26/2021 4:00:00 PM 13.01 55.418 0.237 7.53 322.74 0.33
10/26/2021 4:15:00 PM 12.97 55.346 0.235 7.53 331.96 0.33
10/26/2021 4:30:00 PM 12.94 55.292 0.236 7.52 372.24 0.33
10/26/2021 4:45:00 PM 12.9 55.22 0.234 7.5 337.05 0.33
10/26/2021 5:00:00 PM 12.85 55.13 0.234 7.5 317.87 0.33
10/26/2021 5:15:00 PM 12.81 55.058 0.233 7.5 355.48 0.33
10/26/2021 5:30:00 PM 12.77 54.986 0.232 7.47 290.22 0.34
10/26/2021 5:45:00 PM 12.74 54.932 0.232 7.48 520.53 0.34
10/26/2021 6:00:00 PM 12.7 54.86 0.232 7.49 320.13 0.33
10/26/2021 6:15:00 PM 12.67 54.806 0.23 7.45 385.74 0.34
10/26/2021 6:30:00 PM 12.65 54.77 0.229 7.46 300.67 0.34
10/26/2021 6:45:00 PM 12.63 54.734 0.229 7.46 338.35 0.34
10/26/2021 7:00:00 PM 12.6 54.68 0.228 7.45 315.59 0.34
10/26/2021 7:15:00 PM 12.59 54.662 0.227 7.44 357.81 0.35
10/26/2021 7:30:00 PM 12.58 54.644 0.227 7.45 833.47 0.35
10/26/2021 7:45:00 PM 12.56 54.608 0.225 7.43 386.63 0.35
10/26/2021 8:00:00 PM 12.55 54.59 0.224 7.44 369.17 0.35
10/26/2021 8:15:00 PM 12.53 54.554 0.223 7.43 426.35 0.36
10/26/2021 8:30:00 PM 12.51 54.518 0.222 7.43 375.96 0.36
10/26/2021 8:45:00 PM 12.49 54.482 0.222 7.43 468.23 0.36
10/26/2021 9:00:00 PM 12.47 54.446 0.221 7.43 442.83 0.39
10/26/2021 9:15:00 PM 12.45 54.41 0.221 7.41 496.01 0.45
10/26/2021 9:30:00 PM 12.43 54.374 0.217 7.42 456.03 0.47
10/26/2021 9:45:00 PM 12.4 54.32 0.216 7.42 517.49 0.47
10/26/2021 10:00:00 PM 12.37 54.266 0.215 7.4 771.22 0.47
10/26/2021 10:15:00 PM 12.35 54.23 0.215 7.42 433.51 0.47
10/26/2021 10:30:00 PM 12.32 54.176 0.214 7.41 464.68 0.47
10/26/2021 10:45:00 PM 12.29 54.122 0.213 7.41 552.16 0.47
10/26/2021 11:00:00 PM 12.26 54.068 0.212 7.41 621.12 0.47
10/26/2021 11:15:00 PM 12.23 54.014 0.208 7.4 828.24 0.47
10/26/2021 11:30:00 PM 12.2 53.96 0.208 7.4 591.43 0.47
10/26/2021 11:45:00 PM 12.17 53.906 0.208 7.39 590.7 0.47
10/27/2021 12:00:00 AM 12.15 53.87 0.208 7.39 558.58 0.47
10/27/2021 12:15:00 AM 12.12 53.816 0.207 7.38 524.49 0.47
10/27/2021 12:30:00 AM 12.09 53.762 0.208 7.36 484.37 0.47
10/27/2021 12:45:00 AM 12.07 53.726 0.207 7.36 424.1 0.47
10/27/2021 1:00:00 AM 12.05 53.69 0.206 7.39 410.29 0.46
10/27/2021 1:15:00 AM 12.03 53.654 0.206 7.34 415.9 0.46
10/27/2021 1:30:00 AM 12.01 53.618 0.207 7.37 456.72 0.46
10/27/2021 1:45:00 AM 11.99 53.582 0.207 7.36 669.74 0.47
10/27/2021 2:00:00 AM 11.97 53.546 0.207 7.36 700.91 0.47
10/27/2021 2:15:00 AM 11.95 53.51 0.207 7.34 1132.89 0.47
10/27/2021 2:30:00 AM 11.94 53.492 0.206 7.35 1236.06 0.46
10/27/2021 2:45:00 AM 11.92 53.456 0.206 7.35 2032.19 0.46
10/27/2021 3:00:00 AM 11.9 53.42 0.207 7.34 1484.05 0.46
10/27/2021 3:15:00 AM 11.89 53.402 0.208 7.35 2803.7 0.46
10/27/2021 3:30:00 AM 11.87 53.366 0.206 7.35 3307.55 0.46
10/27/2021 3:45:00 AM 11.86 53.348 0.206 7.33 2484.52 0.47
10/27/2021 4:00:00 AM 11.85 53.33 0.206 7.35 3151.72 0.46
10/27/2021 4:15:00 AM 11.84 53.312 0.206 7.32 16312.94 0.47
10/27/2021 4:30:00 AM 11.83 53.294 0.205 7.35 6836.53 0.46
10/27/2021 4:45:00 AM 11.82 53.276 0.205 7.34 18373.09 0.46
10/27/2021 5:00:00 AM 11.81 53.258 0.205 7.34 17191.89 0.47
10/27/2021 5:15:00 AM 11.8 53.24 0.205 7.34 7657.99 0.48
10/27/2021 5:30:00 AM 11.79 53.222 0.205 7.33 161.64 0.48
10/27/2021 5:45:00 AM 11.79 53.222 0.205 7.34 2456.37 0.48
10/27/2021 6:00:00 AM 11.78 53.204 0.205 7.33 7518.21 0.48
10/27/2021 6:15:00 AM 11.77 53.186 0.205 7.34 12571.67 0.48
10/27/2021 6:30:00 AM 11.76 53.168 0.205 7.34 4855.61 0.49
10/27/2021 6:45:00 AM 11.75 53.15 0.205 7.34 8082.61 0.49
10/27/2021 7:00:00 AM 11.75 53.15 0.205 7.35 9526.09 0.49
10/27/2021 7:15:00 AM 11.74 53.132 0.206 7.35 4001.29 0.49
10/27/2021 7:30:00 AM 11.74 53.132 0.207 7.32 8998.05 0.49
10/27/2021 7:45:00 AM 11.73 53.114 0.205 7.36 3690.56 0.48
10/27/2021 8:00:00 AM 11.73 53.114 0.206 7.35 4238.68 0.48
10/27/2021 8:15:00 AM 11.72 53.096 0.208 7.37 6367.65 0.48
10/27/2021 8:30:00 AM 11.72 53.096 0.208 7.37 10766.34 0.48
10/27/2021 8:45:00 AM 11.71 53.078 0.208 7.37 1882.42 0.47
10/27/2021 9:00:00 AM 11.71 53.078 0.209 7.37 2931.85 0.47
10/27/2021 9:15:00 AM 11.71 53.078 0.208 7.38 3473.14 0.46
10/27/2021 9:30:00 AM 11.71 53.078 0.209 7.37 4881.77 0.47
10/27/2021 9:45:00 AM 11.7 53.06 0.209 7.39 1209 0.47
10/27/2021 10:00:00 AM 11.7 53.06 0.209 7.39 2417.27 0.46
10/27/2021 10:15:00 AM 11.71 53.078 0.21 7.4 939.42 0.46
10/27/2021 10:30:00 AM 11.71 53.078 0.21 7.4 898.11 0.46
10/27/2021 10:45:00 AM 11.72 53.096 0.211 7.4 882.03 0.47
10/27/2021 11:00:00 AM 11.73 53.114 0.211 7.4 698.36 0.46
10/27/2021 11:15:00 AM 11.74 53.132 0.211 7.39 741.01 0.46
10/27/2021 11:30:00 AM 11.75 53.15 0.212 7.37 527.49 0.46
10/27/2021 11:45:00 AM 11.76 53.168 0.212 7.4 714.85 0.46
10/27/2021 12:00:00 PM 11.78 53.204 0.212 7.39 605.79 0.46
10/27/2021 12:15:00 PM 11.79 53.222 0.212 7.39 238.99 0.46
10/27/2021 12:30:00 PM 11.81 53.258 0.212 7.39 254.54 0.46
10/27/2021 12:45:00 PM 11.83 53.294 0.212 7.39 272.26 0.46
10/27/2021 1:00:00 PM 11.86 53.348 0.212 7.39 265.52 0.45
10/27/2021 1:15:00 PM 11.89 53.402 0.211 7.39 290.9 0.45
10/27/2021 1:30:00 PM 11.91 53.438 0.211 7.39 260.64 0.45
10/27/2021 1:45:00 PM 11.93 53.474 0.211 7.38 265.99 0.45
10/27/2021 2:00:00 PM 11.96 53.528 0.211 7.38 224.76 0.44
10/27/2021 2:15:00 PM 11.99 53.582 0.211 7.38 185.39 0.44
10/27/2021 2:30:00 PM 12.02 53.636 0.211 7.36 210.62 0.44
10/27/2021 2:45:00 PM 12.05 53.69 0.211 7.38 200.85 0.45
10/27/2021 3:00:00 PM 12.08 53.744 0.212 7.36 222.57 0.45
10/27/2021 3:15:00 PM 12.1 53.78 0.212 7.37 147.63 0.45
10/27/2021 3:30:00 PM 12.13 53.834 0.212 7.38 149.95 0.45
10/27/2021 3:45:00 PM 12.15 53.87 0.212 7.37 143 0.45
10/27/2021 4:00:00 PM 12.18 53.924 0.213 7.38 137.8 0.45
10/27/2021 4:15:00 PM 12.21 53.978 0.213 7.38 197.97 0.45
10/27/2021 4:30:00 PM 12.23 54.014 0.212 7.37 187.86 0.45
10/27/2021 4:45:00 PM 12.25 54.05 0.212 7.37 200.61 0.45
10/27/2021 5:00:00 PM 12.28 54.104 0.212 7.37 275.24 0.45
10/27/2021 5:15:00 PM 12.29 54.122 0.212 7.37 233.95 0.44
10/27/2021 5:30:00 PM 12.31 54.158 0.211 7.37 229.82 0.45
10/27/2021 5:45:00 PM 12.33 54.194 0.211 7.37 388.42 0.44
10/27/2021 6:00:00 PM 12.35 54.23 0.211 7.38 213.18 0.45
10/27/2021 6:15:00 PM 12.37 54.266 0.211 7.37 196.68 0.44
10/27/2021 6:30:00 PM 12.39 54.302 0.21 7.34 215.91 0.44
10/27/2021 6:45:00 PM 12.4 54.32 0.211 7.37 205.53 0.43
10/27/2021 7:00:00 PM 12.42 54.356 0.211 7.37 217.82 0.44
10/27/2021 7:15:00 PM 12.43 54.374 0.211 7.36 230.49 0.43
10/27/2021 7:30:00 PM 12.43 54.374 0.211 7.36 221.58 0.43
10/27/2021 7:45:00 PM 12.44 54.392 0.211 7.36 231.47 0.43
10/27/2021 8:00:00 PM 12.44 54.392 0.21 7.37 238.33 0.43
10/27/2021 8:15:00 PM 12.44 54.392 0.209 7.38 252.19 0.43
10/27/2021 8:30:00 PM 12.44 54.392 0.208 7.35 295.93 0.43
10/27/2021 8:45:00 PM 12.43 54.374 0.209 7.38 278.49 0.43
10/27/2021 9:00:00 PM 12.43 54.374 0.208 7.37 316.26 0.44
10/27/2021 9:15:00 PM 12.42 54.356 0.208 7.36 228.62 0.43
10/27/2021 9:30:00 PM 12.41 54.338 0.207 7.38 268.25 0.44
10/27/2021 9:45:00 PM 12.39 54.302 0.208 7.38 257.61 0.43
10/27/2021 10:00:00 PM 12.38 54.284 0.208 7.37 265.03 0.43
10/27/2021 10:15:00 PM 12.37 54.266 0.206 7.34 265.2 0.44
10/27/2021 10:30:00 PM 12.36 54.248 0.205 7.38 287.5 0.43
10/27/2021 10:45:00 PM 12.34 54.212 0.206 7.34 270.44 0.44
10/27/2021 11:00:00 PM 12.33 54.194 0.204 7.38 265.8 0.44
10/27/2021 11:15:00 PM 12.31 54.158 0.203 7.37 282.72 0.44
10/27/2021 11:30:00 PM 12.29 54.122 0.202 7.34 300.81 0.44
10/27/2021 11:45:00 PM 12.28 54.104 0.202 7.36 298.1 0.44
10/28/2021 12:00:00 AM 12.26 54.068 0.201 7.36 322.58 0.44
10/28/2021 12:15:00 AM 12.24 54.032 0.2 7.36 429.55 0.44
10/28/2021 12:30:00 AM 12.21 53.978 0.2 7.36 524.15 0.44
10/28/2021 12:45:00 AM 12.19 53.942 0.199 7.37 435.63 0.44
10/28/2021 1:00:00 AM 12.17 53.906 0.2 7.37 436.09 0.44
10/28/2021 1:15:00 AM 12.15 53.87 0.199 7.37 411.31 0.44
10/28/2021 1:30:00 AM 12.13 53.834 0.199 7.36 402.34 0.44
10/28/2021 1:45:00 AM 12.11 53.798 0.198 7.34 469.9 0.44
10/28/2021 2:00:00 AM 12.08 53.744 0.197 7.36 451.45 0.44
10/28/2021 2:15:00 AM 12.06 53.708 0.196 7.37 396.32 0.44
10/28/2021 2:30:00 AM 12.03 53.654 0.193 7.35 347.94 0.44
10/28/2021 2:45:00 AM 12.01 53.618 0.193 7.36 459.25 0.44
10/28/2021 3:00:00 AM 11.98 53.564 0.192 7.36 427.59 0.45
10/28/2021 3:15:00 AM 11.96 53.528 0.192 7.36 277.75 0.46
10/28/2021 3:30:00 AM 11.93 53.474 0.191 7.36 283.77 0.45
10/28/2021 3:45:00 AM 11.91 53.438 0.191 7.35 164.77 0.45
10/28/2021 4:00:00 AM 11.88 53.384 0.191 7.35 153.98 0.45
10/28/2021 4:15:00 AM 11.86 53.348 0.19 7.36 119.2 0.45
10/28/2021 4:30:00 AM 11.84 53.312 0.19 7.35 132.74 0.45
10/28/2021 4:45:00 AM 11.81 53.258 0.19 7.36 131.75 0.45
10/28/2021 5:00:00 AM 11.79 53.222 0.189 7.33 131.43 0.45
10/28/2021 5:15:00 AM 11.77 53.186 0.188 7.35 127.95 0.45
10/28/2021 5:30:00 AM 11.75 53.15 0.186 7.35 112.43 0.45
10/28/2021 5:45:00 AM 11.73 53.114 0.185 7.36 143.95 0.45
10/28/2021 6:00:00 AM 11.71 53.078 0.184 7.36 109 0.48
10/28/2021 6:15:00 AM 11.7 53.06 0.183 7.33 148.16 0.53
10/28/2021 6:30:00 AM 11.68 53.024 0.183 7.34 159.31 0.55
10/28/2021 6:45:00 AM 11.67 53.006 0.182 7.35 173.48 0.56
10/28/2021 7:00:00 AM 11.65 52.97 0.182 7.35 110.62 0.56
10/28/2021 7:15:00 AM 11.64 52.952 0.181 7.33 110.2 0.56
10/28/2021 7:30:00 AM 11.62 52.916 0.18 7.35 107.95 0.56
10/28/2021 7:45:00 AM 11.6 52.88 0.179 7.36 114.31 0.56
10/28/2021 8:00:00 AM 11.59 52.862 0.176 7.35 130.08 0.56
10/28/2021 8:15:00 AM 11.57 52.826 0.176 7.33 141 0.56
10/28/2021 8:30:00 AM 11.56 52.808 0.175 7.35 108.2 0.56
10/28/2021 8:45:00 AM 11.54 52.772 0.173 7.36 130.86 0.57
10/28/2021 9:00:00 AM 11.53 52.754 0.172 7.36 105.94 0.56
10/28/2021 9:15:00 AM 11.52 52.736 0.171 7.35 120.32 0.56
10/28/2021 9:30:00 AM 11.51 52.718 0.17 7.33 136.42 0.57
10/28/2021 9:45:00 AM 11.5 52.7 0.168 7.36 169.54 0.57
10/28/2021 10:00:00 AM 11.49 52.682 0.168 7.35 240.94 0.6
10/28/2021 10:15:00 AM 11.49 52.682 0.167 7.36 164.18 0.6
10/28/2021 10:30:00 AM 11.48 52.664 0.167 7.36 162.12 0.61
10/28/2021 10:45:00 AM 11.48 52.664 0.165 7.36 189.06 0.61
10/28/2021 11:00:00 AM 11.48 52.664 0.165 7.36 154.43 0.61
10/28/2021 11:15:00 AM 11.49 52.682 0.164 7.35 513.41 0.61
10/28/2021 11:30:00 AM 11.49 52.682 0.163 7.37 888.25 0.61
10/28/2021 11:45:00 AM 11.5 52.7 0.162 7.37 160.67 0.61
10/28/2021 12:00:00 PM 11.5 52.7 0.161 7.37 150.41 0.62
10/28/2021 12:15:00 PM 11.51 52.718 0.16 7.37 299.7 0.62
10/28/2021 12:30:00 PM 11.53 52.754 0.159 7.37 162.1 0.62
10/28/2021 12:45:00 PM 11.54 52.772 0.158 7.33 152.73 0.62
10/28/2021 1:00:00 PM 11.55 52.79 0.157 7.37 163.88 0.62
10/28/2021 1:15:00 PM 11.57 52.826 0.157 7.35 141.56 0.62
10/28/2021 1:30:00 PM 11.59 52.862 0.156 7.38 241.88 0.61
10/28/2021 1:45:00 PM 11.6 52.88 0.157 7.37 162.11 0.6
10/28/2021 2:00:00 PM 11.62 52.916 0.157 7.37 162.14 0.61
10/28/2021 2:15:00 PM 11.64 52.952 0.157 7.35 151.12 0.62
10/28/2021 2:30:00 PM 11.66 52.988 0.158 7.38 168.65 0.61
10/28/2021 2:45:00 PM 11.68 53.024 0.158 7.37 176.54 0.6
10/28/2021 3:00:00 PM 11.7 53.06 0.158 7.37 160.67 0.6
10/28/2021 3:15:00 PM 11.72 53.096 0.158 7.37 236.26 0.6
10/28/2021 3:30:00 PM 11.73 53.114 0.158 7.38 204.96 0.6
10/28/2021 3:45:00 PM 11.75 53.15 0.158 7.38 155.12 0.6
10/28/2021 4:00:00 PM 11.76 53.168 0.159 7.34 162.31 0.59
10/28/2021 4:15:00 PM 11.77 53.186 0.157 7.39 262.51 0.59
10/28/2021 4:30:00 PM 11.77 53.186 0.157 7.36 201.38 0.59
10/28/2021 4:45:00 PM 11.78 53.204 0.156 7.39 222.2 0.6
10/28/2021 5:00:00 PM 11.78 53.204 0.156 7.37 210.46 0.61
10/28/2021 5:15:00 PM 11.79 53.222 0.156 7.37 204.29 0.62
10/28/2021 5:30:00 PM 11.79 53.222 0.155 7.39 197.76 0.63
10/28/2021 5:45:00 PM 11.8 53.24 0.156 7.39 179.02 0.63
10/28/2021 6:00:00 PM 11.8 53.24 0.154 7.38 201.26 0.63
10/28/2021 6:15:00 PM 11.8 53.24 0.154 7.35 244.76 0.63
10/28/2021 6:30:00 PM 11.81 53.258 0.153 7.38 334.77 0.63
10/28/2021 6:45:00 PM 11.81 53.258 0.153 7.37 728.84 0.63
10/28/2021 7:00:00 PM 11.8 53.24 0.154 7.37 929.73 0.63
10/28/2021 7:15:00 PM 11.8 53.24 0.154 7.37 1025.47 0.63
10/28/2021 7:30:00 PM 11.79 53.222 0.154 7.39 1115.76 0.64
10/28/2021 7:45:00 PM 11.79 53.222 0.154 7.38 1239.88 0.64
10/28/2021 8:00:00 PM 11.78 53.204 0.154 7.39 1353.21 0.64
10/28/2021 8:15:00 PM 11.78 53.204 0.155 7.35 1295.89 0.64
10/28/2021 8:30:00 PM 11.77 53.186 0.155 7.39 1137.84 0.64
10/28/2021 8:45:00 PM 11.76 53.168 0.155 7.39 1172.3 0.65
10/28/2021 9:00:00 PM 11.75 53.15 0.154 7.39 1286.9 0.64
10/28/2021 9:15:00 PM 11.74 53.132 0.154 7.37 1396.54 0.65
10/28/2021 9:30:00 PM 11.72 53.096 0.154 7.37 1431.89 0.65
10/28/2021 9:45:00 PM 11.71 53.078 0.154 7.39 1440.45 0.65
10/28/2021 10:00:00 PM 11.7 53.06 0.154 7.37 1454.58 0.66
10/28/2021 10:15:00 PM 11.69 53.042 0.153 7.39 1483.69 0.66
10/28/2021 10:30:00 PM 11.68 53.024 0.153 7.4 1470.39 0.66
10/28/2021 10:45:00 PM 11.68 53.024 0.153 7.4 1468.44 0.66
10/28/2021 11:00:00 PM 11.67 53.006 0.152 7.41 9231.56 0.67
10/28/2021 11:15:00 PM 11.67 53.006 0.152 7.4 8753.65 0.66
10/28/2021 11:30:00 PM 11.66 52.988 0.152 7.4 12388.18 0.67
10/28/2021 11:45:00 PM 11.66 52.988 0.151 7.39 10738.42 0.67
10/29/2021 12:00:00 AM 11.66 52.988 0.151 7.39 13492.28 0.68
10/29/2021 12:15:00 AM 11.66 52.988 0.151 7.4 12913.57 0.67
10/29/2021 12:30:00 AM 11.67 53.006 0.151 7.4 15908.16 0.67
10/29/2021 12:45:00 AM 11.67 53.006 0.151 7.4 9741.07 0.68
10/29/2021 1:00:00 AM 11.68 53.024 0.15 7.4 9716.4 0.68
10/29/2021 1:15:00 AM 11.69 53.042 0.151 7.4 10073 0.68
10/29/2021 1:30:00 AM 11.69 53.042 0.151 7.4 11368.8 0.68
10/29/2021 1:45:00 AM 11.7 53.06 0.15 7.39 7634.58 0.69
10/29/2021 2:00:00 AM 11.7 53.06 0.15 7.4 12624.77 0.69
10/29/2021 2:15:00 AM 11.71 53.078 0.15 7.41 13150.46 0.69
10/29/2021 2:30:00 AM 11.7 53.06 0.15 7.39 10808.58 0.7
10/29/2021 2:45:00 AM 11.7 53.06 0.15 7.41 8018.57 0.7
10/29/2021 3:00:00 AM 11.69 53.042 0.15 7.4 9685.72 0.69
10/29/2021 3:15:00 AM 11.69 53.042 0.149 7.4 7197.47 0.69
10/29/2021 3:30:00 AM 11.68 53.024 0.15 7.41 7352.12 0.7
10/29/2021 3:45:00 AM 11.67 53.006 0.15 7.41 5562.39 0.69
10/29/2021 4:00:00 AM 11.67 53.006 0.15 7.41 14638.68 0.56
10/29/2021 4:15:00 AM 11.66 52.988 0.15 7.41 14262.12 0.53
10/29/2021 4:30:00 AM 11.65 52.97 0.15 7.41 14462.16 0.53
10/29/2021 4:45:00 AM 11.64 52.952 0.15 7.37 14838.17 0.53
10/29/2021 5:00:00 AM 11.63 52.934 0.15 7.41 14908.09 0.53
10/29/2021 5:15:00 AM 11.62 52.916 0.15 7.42 15058.58 0.52
10/29/2021 5:30:00 AM 11.61 52.898 0.15 7.41 14947.44 0.52
10/29/2021 5:45:00 AM 11.6 52.88 0.15 7.37 15400.42 0.52
10/29/2021 6:00:00 AM 11.59 52.862 0.15 7.4 15870.84 0.53
10/29/2021 6:15:00 AM 11.58 52.844 0.151 7.44 15650.29 0.52
10/29/2021 6:30:00 AM 11.57 52.826 0.151 7.42 16474.29 0.53
10/29/2021 6:45:00 AM 11.55 52.79 0.151 7.4 15569.91 0.53
10/29/2021 7:00:00 AM 11.54 52.772 0.151 7.41 15826.69 0.53
10/29/2021 7:15:00 AM 11.54 52.772 0.151 7.39 15448.08 0.53
10/29/2021 7:30:00 AM 11.53 52.754 0.151 7.41 16106.26 0.52
10/29/2021 7:45:00 AM 11.52 52.736 0.151 7.42 15640.38 0.52
10/29/2021 8:00:00 AM 11.51 52.718 0.151 7.41 16699.01 0.53
10/29/2021 8:15:00 AM 11.5 52.7 0.151 7.38 15443.17 0.53
10/29/2021 8:30:00 AM 11.5 52.7 0.151 7.42 15943.72 0.53
10/29/2021 8:45:00 AM 11.49 52.682 0.151 7.42 16538.21 0.55
10/29/2021 9:00:00 AM 11.48 52.664 0.151 7.43 16204.02 0.55
10/29/2021 9:15:00 AM 11.47 52.646 0.151 7.39 11720.7 0.56
10/29/2021 9:30:00 AM 11.46 52.628 0.151 7.43 12254.92 0.57
10/29/2021 9:45:00 AM 11.46 52.628 0.151 7.43 12225.38 0.58
10/29/2021 10:00:00 AM 11.46 52.628 0.151 7.43 13232.75 0.59
10/29/2021 10:15:00 AM 11.46 52.628 0.151 7.43 12710.28 0.59
10/29/2021 10:30:00 AM 11.47 52.646 0.151 7.42 12341.96 0.6
10/29/2021 10:45:00 AM 11.47 52.646 0.151 7.44 11915.44 0.73
10/29/2021 11:00:00 AM 11.49 52.682 0.151 7.45 12201.9 0.69
10/29/2021 11:15:00 AM 11.49 52.682 0.151 7.44 12356.3 0.67
10/29/2021 11:30:00 AM 11.5 52.7 0.15 7.44 6030.96 0.73
10/29/2021 11:45:00 AM 11.5 52.7 0.15 7.45 5370.63 0.71
10/29/2021 12:00:00 PM 11.51 52.718 0.15 7.45 5069.68 0.75
10/29/2021 12:15:00 PM 11.52 52.736 0.15 7.44 5718.97 0.78
10/29/2021 12:30:00 PM 11.53 52.754 0.151 7.45 5856.2 0.8
10/29/2021 12:45:00 PM 11.55 52.79 0.151 7.45 6054.31 0.78
10/29/2021 1:00:00 PM 11.57 52.826 0.15 7.45 5613.97 0.81
10/29/2021 1:15:00 PM 11.58 52.844 0.15 7.45 2912.14 1.31
10/29/2021 1:30:00 PM 11.6 52.88 0.15 7.46 2423.14 1.39
10/29/2021 1:45:00 PM 11.61 52.898 0.15 7.46 2447.71 1.34
10/29/2021 2:00:00 PM 11.63 52.934 0.151 7.46 2362.77 1.36
10/29/2021 2:15:00 PM 11.64 52.952 0.151 7.46 2669.4 1.64
10/29/2021 2:30:00 PM 11.64 52.952 0.151 7.46 2640.47 1.67
10/29/2021 2:45:00 PM 11.64 52.952 0.151 7.46 3772.52 1.79
10/29/2021 3:00:00 PM 11.63 52.934 0.152 7.47 3403.71 1.77
10/29/2021 3:15:00 PM 11.63 52.934 0.152 7.47 3197.63 1.77
10/29/2021 3:30:00 PM 11.63 52.934 0.152 7.47 3234.52 1.96
10/29/2021 3:45:00 PM 11.63 52.934 0.152 7.47 3337.42 1.96
10/29/2021 4:00:00 PM 11.63 52.934 0.151 7.46 3250.3 2.09
10/29/2021 4:15:00 PM 11.63 52.934 0.151 7.46 2924.07 2.04
10/29/2021 4:30:00 PM 11.63 52.934 0.151 7.47 2813.97 2.09
10/29/2021 4:45:00 PM 11.63 52.934 0.152 7.47 5975.85 2.02
10/29/2021 5:00:00 PM 11.63 52.934 0.152 7.47 6003.69 2.04
10/29/2021 5:15:00 PM 11.64 52.952 0.152 7.47 6323.17 2.09
10/29/2021 5:30:00 PM 11.65 52.97 0.152 7.47 6691.55 2.1
10/29/2021 5:45:00 PM 11.65 52.97 0.152 7.48 6577.66 2
10/29/2021 6:00:00 PM 11.65 52.97 0.152 7.47 6713.3 2.09
10/29/2021 6:15:00 PM 11.64 52.952 0.152 7.48 6833.36 2.12
10/29/2021 6:30:00 PM 11.63 52.934 0.152 7.48 6792.99 2.26
10/29/2021 6:45:00 PM 11.62 52.916 0.152 7.47 6798.87 2.23
10/29/2021 7:00:00 PM 11.62 52.916 0.152 7.48 6465.84 2.31
10/29/2021 7:15:00 PM 11.61 52.898 0.152 7.48 6271.03 2.27
10/29/2021 7:30:00 PM 11.61 52.898 0.152 7.48 6212.07 2.32
10/29/2021 7:45:00 PM 11.6 52.88 0.152 7.48 6085.26 2.43
10/29/2021 8:00:00 PM 11.58 52.844 0.152 7.48 5871.33 2.36
10/29/2021 8:15:00 PM 11.57 52.826 0.151 7.48 828.14 2.43
10/29/2021 8:30:00 PM 11.54 52.772 0.152 7.48 576.5 2.41
10/29/2021 8:45:00 PM 11.51 52.718 0.152 7.48 733.78 2.45
10/29/2021 9:00:00 PM 11.48 52.664 0.152 7.47 732.76 2.52
10/29/2021 9:15:00 PM 11.44 52.592 0.152 7.46 768.91 2.5
10/29/2021 9:30:00 PM 11.4 52.52 0.152 7.47 634.18 2.5
10/29/2021 9:45:00 PM 11.33 52.394 0.152 7.45 565.37 2.65
10/29/2021 10:00:00 PM 11.25 52.25 0.152 7.43 457.68 2.51
10/29/2021 10:15:00 PM 11.2 52.16 0.152 7.42 3553.76 2.55
10/29/2021 10:30:00 PM 11.15 52.07 0.152 7.41 3537.53 2.62
10/29/2021 10:45:00 PM 11.11 51.998 0.152 7.36 3598.36 2.64
10/29/2021 11:00:00 PM 11.08 51.944 0.152 7.35 3864.65 2.69
10/29/2021 11:15:00 PM 11.08 51.944 0.152 7.37 3740.27 2.69
10/29/2021 11:30:00 PM 11.08 51.944 0.152 7.36 3894.27 2.72
10/29/2021 11:45:00 PM 11.09 51.962 0.152 7.38 3855.76 2.76
10/30/2021 12:00:00 AM 11.1 51.98 0.152 7.39 3645.36 2.75
10/30/2021 12:15:00 AM 11.12 52.016 0.152 7.4 3643.37 2.73
10/30/2021 12:30:00 AM 11.12 52.016 0.152 7.39 4161.92 2.61
10/30/2021 12:45:00 AM 11.11 51.998 0.152 7.39 4364.53 2.64
10/30/2021 1:00:00 AM 11.11 51.998 0.152 7.39 4198.52 2.8
10/30/2021 1:15:00 AM 11.1 51.98 0.152 7.38 4401.65 2.81
10/30/2021 1:30:00 AM 11.08 51.944 0.152 7.38 3743.26 2.83
10/30/2021 1:45:00 AM 11.06 51.908 0.152 7.37 21031.26 2.97
10/30/2021 2:00:00 AM 11.03 51.854 0.152 7.33 21007.95 3.09
10/30/2021 2:15:00 AM 10.98 51.764 0.152 7.35 2705.19 3.09
10/30/2021 2:30:00 AM 10.93 51.674 0.152 7.33 19371.74 2.96
10/30/2021 2:45:00 AM 10.87 51.566 0.152 7.31 17295.67 3.13
10/30/2021 3:00:00 AM 10.81 51.458 0.153 7.3 17710.66 3.1
10/30/2021 3:15:00 AM 10.74 51.332 0.153 7.28 399.94 3.2
10/30/2021 3:30:00 AM 10.68 51.224 0.153 7.27 368.01 3.2
10/30/2021 3:45:00 AM 10.62 51.116 0.153 7.26 1604.82 3.14
10/30/2021 4:00:00 AM 10.57 51.026 0.153 7.25 17816.95 3.18
10/30/2021 4:15:00 AM 10.52 50.936 0.154 7.25 2769.35 3.18
10/30/2021 4:30:00 AM 10.49 50.882 0.154 7.25 143.35 3.15
10/30/2021 4:45:00 AM 10.46 50.828 0.154 7.24 254.98 3.26
10/30/2021 5:00:00 AM 10.43 50.774 0.155 7.23 103.31 3.25
10/30/2021 5:15:00 AM 10.4 50.72 0.155 7.23 163.32 3.12
10/30/2021 5:30:00 AM 10.38 50.684 0.155 7.22 156.5 2.97
10/30/2021 5:45:00 AM 10.36 50.648 0.155 7.2 152.33 3.12
10/30/2021 6:00:00 AM 10.35 50.63 0.156 7.18 150.91 2.85
10/30/2021 6:15:00 AM 10.33 50.594 0.156 7.22 146.61 2.53
10/30/2021 6:30:00 AM 10.33 50.594 0.157 7.18 143.69 2.34
10/30/2021 6:45:00 AM 10.32 50.576 0.157 7.21 145.71 1.92
10/30/2021 7:00:00 AM 10.31 50.558 0.157 7.21 143.83 2.14
10/30/2021 7:15:00 AM 10.3 50.54 0.158 7.2 143.01 2.1
10/30/2021 7:30:00 AM 10.3 50.54 0.159 7.2 143.15 1.61
10/30/2021 7:45:00 AM 10.3 50.54 0.159 7.17 143.02 1.08
10/30/2021 8:00:00 AM 10.29 50.522 0.16 7.17 142.71 1.51
10/30/2021 8:15:00 AM 10.28 50.504 0.16 7.18 142.8 2.02
10/30/2021 8:30:00 AM 10.27 50.486 0.161 7.16 143.04 1.91
10/30/2021 8:45:00 AM 10.27 50.486 0.162 7.17 142.91 1.39
10/30/2021 9:00:00 AM 10.27 50.486 0.162 7.17 142.93 0.77
10/30/2021 9:15:00 AM 10.27 50.486 0.163 7.18 143.24 0.41
10/30/2021 9:30:00 AM 10.27 50.486 0.163 7.17 143.18 0.4
10/30/2021 9:45:00 AM 10.27 50.486 0.164 7.17 143.35 0.39
10/30/2021 10:00:00 AM 10.27 50.486 0.164 7.18 143.12 0.38
10/30/2021 10:15:00 AM 10.28 50.504 0.165 7.16 142.91 0.38
10/30/2021 10:30:00 AM 10.28 50.504 0.165 7.19 142.69 0.38
10/30/2021 10:45:00 AM 10.29 50.522 0.165 7.18 142.91 0.37
10/30/2021 11:00:00 AM 10.29 50.522 0.165 7.21 142.69 0.47
10/30/2021 11:15:00 AM 10.3 50.54 0.166 7.19 142.63 0.43
10/30/2021 11:30:00 AM 10.3 50.54 0.167 7.2 142.41 0.55
10/30/2021 11:45:00 AM 10.31 50.558 0.167 7.2 142.43 0.59
10/30/2021 12:00:00 PM 10.31 50.558 0.167 7.22 142.5 0.63
10/30/2021 12:15:00 PM 10.31 50.558 0.168 7.23 142.56 0.73
10/30/2021 12:30:00 PM 10.31 50.558 0.168 7.21 142.3 0.59
10/30/2021 12:45:00 PM 10.31 50.558 0.168 7.25 142.45 0.75
10/30/2021 1:00:00 PM 10.32 50.576 0.169 7.25 142.53 0.37
10/30/2021 1:15:00 PM 10.32 50.576 0.169 7.23 142.38 0.37
10/30/2021 1:30:00 PM 10.32 50.576 0.17 7.25 142.31 0.37
10/30/2021 1:45:00 PM 10.32 50.576 0.17 7.26 142.47 0.37
10/30/2021 2:00:00 PM 10.32 50.576 0.171 7.25 142.63 0.37
10/30/2021 2:15:00 PM 10.32 50.576 0.171 7.24 142.59 0.37
10/30/2021 2:30:00 PM 10.32 50.576 0.171 7.25 142.51 0.37
10/30/2021 2:45:00 PM 10.32 50.576 0.171 7.25 142.49 0.37
10/30/2021 3:00:00 PM 10.32 50.576 0.172 7.25 142.24 0.37
10/30/2021 3:15:00 PM 10.32 50.576 0.172 7.23 142.17 0.37
10/30/2021 3:30:00 PM 10.32 50.576 0.173 7.23 142.15 0.37
10/30/2021 3:45:00 PM 10.32 50.576 0.174 7.23 142.4 0.37
10/30/2021 4:00:00 PM 10.32 50.576 0.174 7.23 142.63 0.37
10/30/2021 4:15:00 PM 10.33 50.594 0.174 7.23 142.38 0.37
10/30/2021 4:30:00 PM 10.33 50.594 0.174 7.22 142.67 0.37
10/30/2021 4:45:00 PM 10.34 50.612 0.175 7.23 142.8 0.37
10/30/2021 5:00:00 PM 10.34 50.612 0.175 7.22 142.78 0.37
10/30/2021 5:15:00 PM 10.35 50.63 0.175 7.22 144.4 0.37
10/30/2021 5:30:00 PM 10.35 50.63 0.175 7.2 143.87 0.37
10/30/2021 5:45:00 PM 10.36 50.648 0.175 7.21 144 0.37
10/30/2021 6:00:00 PM 10.37 50.666 0.175 7.19 143.87 0.37
10/30/2021 6:15:00 PM 10.38 50.684 0.175 7.2 143.64 0.4
10/30/2021 6:30:00 PM 10.39 50.702 0.176 7.21 143.32 0.45
10/30/2021 6:45:00 PM 10.4 50.72 0.176 7.19 142.92 0.4
10/30/2021 7:00:00 PM 10.41 50.738 0.176 7.2 143.08 0.39
10/30/2021 7:15:00 PM 10.42 50.756 0.176 7.2 142.95 0.42
10/30/2021 7:30:00 PM 10.44 50.792 0.176 7.19 142.82 0.39
10/30/2021 7:45:00 PM 10.45 50.81 0.175 7.19 142.7 0.44
10/30/2021 8:00:00 PM 10.47 50.846 0.175 7.19 142.66 0.43
10/30/2021 8:15:00 PM 10.48 50.864 0.176 7.19 142.66 0.44
10/30/2021 8:30:00 PM 10.5 50.9 0.175 7.17 142.67 0.39
10/30/2021 8:45:00 PM 10.52 50.936 0.175 7.19 142.7 0.46
10/30/2021 9:00:00 PM 10.53 50.954 0.176 7.19 142.81 0.46
10/30/2021 9:15:00 PM 10.55 50.99 0.176 7.17 142.64 0.44
10/30/2021 9:30:00 PM 10.57 51.026 0.176 7.19 142.43 0.53
10/30/2021 9:45:00 PM 10.58 51.044 0.176 7.19 142.64 0.49
10/30/2021 10:00:00 PM 10.61 51.098 0.177 7.19 142.77 0.51
10/30/2021 10:15:00 PM 10.63 51.134 0.177 7.19 142.68 0.51
10/30/2021 10:30:00 PM 10.65 51.17 0.177 7.19 142.72 0.47
10/30/2021 10:45:00 PM 10.68 51.224 0.177 7.21 142.44 0.66
10/30/2021 11:00:00 PM 10.7 51.26 0.177 7.19 143.1 0.71
10/30/2021 11:15:00 PM 10.72 51.296 0.177 7.2 142.93 0.72
10/30/2021 11:30:00 PM 10.74 51.332 0.177 7.2 143.43 0.9
10/30/2021 11:45:00 PM 10.76 51.368 0.178 7.16 143.5 1.01
10/31/2021 12:00:00 AM 10.78 51.404 0.177 7.2 143.57 0.73
10/31/2021 12:15:00 AM 10.79 51.422 0.177 7.18 143.65 0.68
10/31/2021 12:30:00 AM 10.8 51.44 0.177 7.2 144.01 0.72
10/31/2021 12:45:00 AM 10.82 51.476 0.177 7.21 144.15 1.02
10/31/2021 1:00:00 AM 10.83 51.494 0.176 7.21 144.04 1.19
10/31/2021 1:15:00 AM 10.85 51.53 0.176 7.22 144.01 1.38
10/31/2021 1:30:00 AM 10.86 51.548 0.176 7.22 144.08 1.37
10/31/2021 1:45:00 AM 10.87 51.566 0.176 7.2 144.26 1.42
10/31/2021 2:00:00 AM 10.88 51.584 0.176 7.2 144.35 1.63
10/31/2021 2:15:00 AM 10.89 51.602 0.176 7.22 144.42 1.69
10/31/2021 2:30:00 AM 10.9 51.62 0.177 7.21 144.35 1.78
10/31/2021 2:45:00 AM 10.91 51.638 0.176 7.21 144.53 1.81
10/31/2021 3:00:00 AM 10.91 51.638 0.177 7.19 144.38 1.86
10/31/2021 3:15:00 AM 10.91 51.638 0.177 7.2 144.47 1.94
10/31/2021 3:30:00 AM 10.92 51.656 0.178 7.19 144.64 1.85
10/31/2021 3:45:00 AM 10.93 51.674 0.178 7.2 144.5 1.93
10/31/2021 4:00:00 AM 10.93 51.674 0.179 7.18 144.89 1.99
10/31/2021 4:15:00 AM 10.93 51.674 0.179 7.17 144.86 1.99
10/31/2021 4:30:00 AM 10.94 51.692 0.178 7.17 145.03 2.14
10/31/2021 4:45:00 AM 10.94 51.692 0.179 7.16 145.08 2.16
10/31/2021 5:00:00 AM 10.94 51.692 0.179 7.17 145.14 2.33
10/31/2021 5:15:00 AM 10.94 51.692 0.179 7.16 145.1 2.12
10/31/2021 5:30:00 AM 10.94 51.692 0.18 7.15 145.21 2.23
10/31/2021 5:45:00 AM 10.94 51.692 0.18 7.16 145.23 2.34
10/31/2021 6:00:00 AM 10.94 51.692 0.181 7.15 145.37 2.33
10/31/2021 6:15:00 AM 10.94 51.692 0.181 7.17 145.18 2.45
10/31/2021 6:30:00 AM 10.94 51.692 0.181 7.15 145.43 2.56
10/31/2021 6:45:00 AM 10.94 51.692 0.183 7.17 145.38 2.52
10/31/2021 7:00:00 AM 10.94 51.692 0.183 7.18 145.27 2.59
10/31/2021 7:15:00 AM 10.94 51.692 0.183 7.16 145.14 2.85
10/31/2021 7:30:00 AM 10.94 51.692 0.183 7.18 145.51 2.9
10/31/2021 7:45:00 AM 10.94 51.692 0.183 7.18 145.46 2.74
10/31/2021 8:00:00 AM 10.94 51.692 0.183 7.19 145.71 2.85
10/31/2021 8:15:00 AM 10.94 51.692 0.183 7.18 145.9 2.64
10/31/2021 8:30:00 AM 10.94 51.692 0.182 7.18 148.06 2.92
10/31/2021 8:45:00 AM 10.94 51.692 0.182 7.19 147.7 3.1
10/31/2021 9:00:00 AM 10.95 51.71 0.182 7.19 147.68 3.07
10/31/2021 9:15:00 AM 10.95 51.71 0.181 7.2 147.92 3.15
10/31/2021 9:30:00 AM 10.95 51.71 0.181 7.2 148.26 3.12
10/31/2021 9:45:00 AM 10.96 51.728 0.182 7.18 145.9 3.07
10/31/2021 10:00:00 AM 10.96 51.728 0.182 7.19 124.18 3.15
10/31/2021 10:15:00 AM 10.97 51.746 0.182 7.18 117.74 3.25
10/31/2021 10:30:00 AM 10.98 51.764 0.182 7.19 119.53 3.2
10/31/2021 10:45:00 AM 10.99 51.782 0.182 7.17 108.53 3.24
10/31/2021 11:00:00 AM 10.99 51.782 0.182 7.18 91.03 3.38
10/31/2021 11:15:00 AM 11 51.8 0.182 7.19 113.16 3.26
10/31/2021 11:30:00 AM 11.01 51.818 0.182 7.17 118.83 3.37
10/31/2021 11:45:00 AM 11.02 51.836 0.182 7.2 117.85 3.34
10/31/2021 12:00:00 PM 11.04 51.872 0.182 7.18 88.75 3.28
10/31/2021 12:15:00 PM 11.05 51.89 0.182 7.18 82.22 3.36
10/31/2021 12:30:00 PM 11.07 51.926 0.182 7.19 80.91 3.45
10/31/2021 12:45:00 PM 11.08 51.944 0.181 7.21 53.62 3.49
10/31/2021 1:00:00 PM 11.1 51.98 0.181 7.2 56.92 3.52
10/31/2021 1:15:00 PM 11.11 51.998 0.18 7.2 84.16 3.43
10/31/2021 1:30:00 PM 11.12 52.016 0.18 7.2 48.56 3.44
10/31/2021 1:45:00 PM 11.13 52.034 0.179 7.19 48.7 3.41
10/31/2021 2:00:00 PM 11.14 52.052 0.179 7.22 46.95 3.55
10/31/2021 2:15:00 PM 11.16 52.088 0.178 7.2 48.09 3.53
10/31/2021 2:30:00 PM 11.17 52.106 0.178 7.21 46.03 3.5
10/31/2021 2:45:00 PM 11.18 52.124 0.178 7.21 34.52 3.48
10/31/2021 3:00:00 PM 11.18 52.124 0.177 7.2 32.43 3.53
10/31/2021 3:15:00 PM 11.19 52.142 0.176 7.19 45.67 3.6
10/31/2021 3:30:00 PM 11.19 52.142 0.175 7.2 53.6 3.51
10/31/2021 3:45:00 PM 11.2 52.16 0.176 7.17 37.6 3.41
10/31/2021 4:00:00 PM 11.22 52.196 0.177 7.19 43.62 3.5
10/31/2021 4:15:00 PM 11.23 52.214 0.177 7.2 42.26 3.51
10/31/2021 4:30:00 PM 11.24 52.232 0.177 7.21 34.49 3.5
10/31/2021 4:45:00 PM 11.25 52.25 0.176 7.18 35.81 3.61
10/31/2021 5:00:00 PM 11.26 52.268 0.175 7.21 64.02 3.51
10/31/2021 5:15:00 PM 11.27 52.286 0.176 7.2 131.83 3.56
10/31/2021 5:30:00 PM 11.28 52.304 0.174 7.2 28.12 3.63
10/31/2021 5:45:00 PM 11.29 52.322 0.174 7.2 25.35 3.7
10/31/2021 6:00:00 PM 11.31 52.358 0.174 7.2 33.48 3.62
10/31/2021 6:15:00 PM 11.32 52.376 0.172 7.21 25.46 3.72
10/31/2021 6:30:00 PM 11.34 52.412 0.173 7.22 25.57 3.75
10/31/2021 6:45:00 PM 11.35 52.43 0.173 7.23 29.83 3.69
10/31/2021 7:00:00 PM 11.35 52.43 0.173 7.22 28.7 3.69
10/31/2021 7:15:00 PM 11.36 52.448 0.174 7.24 53.47 3.73
10/31/2021 7:30:00 PM 11.37 52.466 0.175 7.23 164.42 3.75
10/31/2021 7:45:00 PM 11.37 52.466 0.175 7.24 155.46 3.75
10/31/2021 8:00:00 PM 11.38 52.484 0.177 7.25 540.46 3.78
10/31/2021 8:15:00 PM 11.38 52.484 0.177 7.22 671.81 3.67
10/31/2021 8:30:00 PM 11.38 52.484 0.179 7.25 1019.72 3.64
10/31/2021 8:45:00 PM 11.39 52.502 0.179 7.22 671.82 3.64
10/31/2021 9:00:00 PM 11.39 52.502 0.178 7.24 1151.79 2.66
10/31/2021 9:15:00 PM 11.39 52.502 0.179 7.23 5739.32 2.18
10/31/2021 9:30:00 PM 11.39 52.502 0.178 7.22 3383.03 2.33
10/31/2021 9:45:00 PM 11.39 52.502 0.178 7.21 10055.43 2.56
10/31/2021 10:00:00 PM 11.39 52.502 0.176 7.23 3124.73 2.57
10/31/2021 10:15:00 PM 11.39 52.502 0.178 7.23 4186.62 2.69
10/31/2021 10:30:00 PM 11.39 52.502 0.178 7.2 3889.33 2.54
10/31/2021 10:45:00 PM 11.39 52.502 0.178 7.24 4226.71 2.57
10/31/2021 11:00:00 PM 11.39 52.502 0.178 7.22 3942.74 2.54
10/31/2021 11:15:00 PM 11.4 52.52 0.177 7.22 2089.66 2.64
10/31/2021 11:30:00 PM 11.4 52.52 0.176 7.23 3607.42 2.65
10/31/2021 11:45:00 PM 11.4 52.52 0.176 7.24 3695.31 2.56
11/1/2021 12:00:00 AM 11.4 52.52 0.176 7.24 3239.07 2.53
11/1/2021 12:15:00 AM 11.4 52.52 0.176 7.23 3649.88 2.78
11/1/2021 12:30:00 AM 11.4 52.52 0.175 7.24 3063.44 2.67
11/1/2021 12:45:00 AM 11.4 52.52 0.175 7.22 3288.7 2.71
11/1/2021 1:00:00 AM 11.4 52.52 0.175 7.26 2626.74 2.58
11/1/2021 1:15:00 AM 11.4 52.52 0.174 7.25 3854.86 2.74
11/1/2021 1:30:00 AM 11.4 52.52 0.174 7.25 4187.71 2.73
11/1/2021 1:45:00 AM 11.39 52.502 0.174 7.25 4512.8 2.64
11/1/2021 2:00:00 AM 11.39 52.502 0.174 7.27 1901.14 2.66
11/1/2021 2:15:00 AM 11.38 52.484 0.174 7.28 2107.85 3.01
11/1/2021 2:30:00 AM 11.38 52.484 0.174 7.27 1631.73 3.23
11/1/2021 2:45:00 AM 11.37 52.466 0.174 7.25 2853.36 3.26
11/1/2021 3:00:00 AM 11.37 52.466 0.172 7.28 3625.67 3.22
11/1/2021 3:15:00 AM 11.36 52.448 0.172 7.25 8578.38 3.34
11/1/2021 3:30:00 AM 11.35 52.43 0.172 7.27 3502.81 3.42
11/1/2021 3:45:00 AM 11.34 52.412 0.173 7.28 662.46 3.72
11/1/2021 4:00:00 AM 11.34 52.412 0.173 7.28 586.76 3.82
11/1/2021 4:15:00 AM 11.33 52.394 0.174 7.29 575.82 4.05
11/1/2021 4:30:00 AM 11.31 52.358 0.174 7.26 3964.65 4.04
11/1/2021 4:45:00 AM 11.3 52.34 0.173 7.3 3592.13 4
11/1/2021 5:00:00 AM 11.29 52.322 0.173 7.3 4599.36 4.1
11/1/2021 5:15:00 AM 11.27 52.286 0.173 7.3 4893.89 4.2
11/1/2021 5:30:00 AM 11.26 52.268 0.171 7.31 4344.54 4.25
11/1/2021 5:45:00 AM 11.24 52.232 0.172 7.28 4972.6 4.41
11/1/2021 6:00:00 AM 11.22 52.196 0.173 7.31 4690.44 4.51
11/1/2021 6:15:00 AM 11.2 52.16 0.174 7.27 4611.47 4.57
11/1/2021 6:30:00 AM 11.18 52.124 0.174 7.3 4369.89 4.74
11/1/2021 6:45:00 AM 11.16 52.088 0.172 7.27 6188.72 4.74
11/1/2021 7:00:00 AM 11.14 52.052 0.172 7.31 705.32 4.96
11/1/2021 7:15:00 AM 11.12 52.016 0.172 7.3 1142.64 4.87
11/1/2021 7:30:00 AM 11.1 51.98 0.171 7.3 581.89 5.05
11/1/2021 7:45:00 AM 11.09 51.962 0.17 7.3 739.12 4.98
11/1/2021 8:00:00 AM 11.08 51.944 0.171 7.3 2296.78 5.05
11/1/2021 8:15:00 AM 11.06 51.908 0.171 7.3 2411.04 5.14
11/1/2021 8:30:00 AM 11.05 51.89 0.17 7.27 2329.06 5.68
11/1/2021 8:45:00 AM 11.04 51.872 0.17 7.28 4256.11 6.88
11/1/2021 9:00:00 AM 11.03 51.854 0.17 7.28 3832.25 7.26
11/1/2021 9:15:00 AM 11.02 51.836 0.17 7.29 4064.99 7.28
11/1/2021 9:30:00 AM 11.02 51.836 0.169 7.29 3985.45 7.56
11/1/2021 9:45:00 AM 11.01 51.818 0.169 7.29 4056.05 7.6
11/1/2021 10:00:00 AM 11.01 51.818 0.168 7.29 3957.86 7.53
11/1/2021 10:15:00 AM 11.01 51.818 0.168 7.3 3980.6 7.72
11/1/2021 10:30:00 AM 11.01 51.818 0.168 7.3 3985.62 7.66
11/1/2021 10:45:00 AM 11.01 51.818 0.167 7.31 3981.92 7.83
11/1/2021 11:00:00 AM 11.02 51.836 0.168 7.31 3960.76 7.82
11/1/2021 11:15:00 AM 11.02 51.836 0.167 7.31 3974.91 7.98
11/1/2021 11:30:00 AM 11.03 51.854 0.167 7.3 3740.07 7.88
11/1/2021 11:45:00 AM 11.04 51.872 0.167 7.3 3789.12 7.94
11/1/2021 12:00:00 PM 11.05 51.89 0.167 7.3 4061.86 8.12
11/1/2021 12:15:00 PM 11.07 51.926 0.167 7.32 4062.41 7.96
11/1/2021 12:30:00 PM 11.07 51.926 0.167 7.32 2654.76 8.01
11/1/2021 12:45:00 PM 11.08 51.944 0.166 7.32 4057.21 7.98
11/1/2021 1:00:00 PM 11.1 51.98 0.167 7.33 3978.29 7.96
11/1/2021 1:15:00 PM 11.11 51.998 0.167 7.28 4143.71 8.27
11/1/2021 1:30:00 PM 11.11 51.998 0.167 7.31 3827.31 8.12
11/1/2021 1:45:00 PM 11.12 52.016 0.166 7.32 3844.34 8.03
11/1/2021 2:00:00 PM 11.14 52.052 0.167 7.32 382.66 8.25
11/1/2021 2:15:00 PM 11.15 52.07 0.166 7.33 8008.11 8.27
11/1/2021 2:30:00 PM 11.16 52.088 0.166 7.33 4370.46 8.35
11/1/2021 2:45:00 PM 11.18 52.124 0.166 7.32 3415.47 8.35
11/1/2021 3:00:00 PM 11.2 52.16 0.166 7.34 1232.1 8.19
11/1/2021 3:15:00 PM 11.21 52.178 0.166 7.32 4179.4 8.43
11/1/2021 3:30:00 PM 11.21 52.178 0.165 7.32 4137.77 8.36
11/1/2021 3:45:00 PM 11.21 52.178 0.165 7.33 4744.02 8.43
11/1/2021 4:00:00 PM 11.21 52.178 0.165 7.3 4670.16 8.46
11/1/2021 4:15:00 PM 11.22 52.196 0.164 7.34 3472.67 8.46
11/1/2021 4:30:00 PM 11.22 52.196 0.165 7.33 4382.53 8.5
11/1/2021 4:45:00 PM 11.22 52.196 0.164 7.33 4513 8.42
11/1/2021 5:00:00 PM 11.22 52.196 0.164 7.33 4704.69 8.43
11/1/2021 5:15:00 PM 11.22 52.196 0.164 7.33 5011.35 8.45
11/1/2021 5:30:00 PM 11.22 52.196 0.163 7.31 6440.28 8.57
11/1/2021 5:45:00 PM 11.22 52.196 0.162 7.3 6136.38 8.55
11/1/2021 6:00:00 PM 11.22 52.196 0.162 7.33 5093.64 8.65
11/1/2021 6:15:00 PM 11.21 52.178 0.162 7.32 2299.89 8.72
11/1/2021 6:30:00 PM 11.21 52.178 0.162 7.34 3210.66 8.8
11/1/2021 6:45:00 PM 11.21 52.178 0.162 7.32 7081.6 8.73
11/1/2021 7:00:00 PM 11.19 52.142 0.162 7.32 4510.74 8.78
11/1/2021 7:15:00 PM 11.17 52.106 0.161 7.33 7049.08 8.75
11/1/2021 7:30:00 PM 11.15 52.07 0.161 7.32 2495.43 8.77
11/1/2021 7:45:00 PM 11.12 52.016 0.161 7.32 3997.69 8.84
11/1/2021 8:00:00 PM 11.1 51.98 0.161 7.32 3034.56 8.83
11/1/2021 8:15:00 PM 11.08 51.944 0.161 7.32 4679.68 8.83
11/1/2021 8:30:00 PM 11.07 51.926 0.161 7.29 5498.2 8.88
11/1/2021 8:45:00 PM 11.06 51.908 0.161 7.32 5261.32 8.95
11/1/2021 9:00:00 PM 11.04 51.872 0.16 7.3 2968.52 8.97
11/1/2021 9:15:00 PM 11.02 51.836 0.16 7.32 5184.98 8.97
11/1/2021 9:30:00 PM 10.99 51.782 0.16 7.32 2598.16 9.02
11/1/2021 9:45:00 PM 10.96 51.728 0.16 7.32 3047.16 9.06
11/1/2021 10:00:00 PM 10.93 51.674 0.159 7.32 2903.62 9.06
11/1/2021 10:15:00 PM 10.91 51.638 0.159 7.33 3781.11 9.08
11/1/2021 10:30:00 PM 10.89 51.602 0.159 7.33 5630.27 9.17
11/1/2021 10:45:00 PM 10.87 51.566 0.159 7.32 4446.39 9.22
11/1/2021 11:00:00 PM 10.85 51.53 0.159 7.32 3295.31 9.09
11/1/2021 11:15:00 PM 10.83 51.494 0.159 7.33 2306.37 9.17
11/1/2021 11:30:00 PM 10.82 51.476 0.159 7.32 2729.2 9.17
11/1/2021 11:45:00 PM 10.8 51.44 0.159 7.32 3327.34 9.18
11/2/2021 12:00:00 AM 10.79 51.422 0.159 7.32 2160.69 9.22
11/2/2021 12:15:00 AM 10.77 51.386 0.159 7.32 3489.06 9.21
11/2/2021 12:30:00 AM 10.76 51.368 0.159 7.32 3224.03 9.17
11/2/2021 12:45:00 AM 10.74 51.332 0.159 7.33 2878.33 9.12
11/2/2021 1:00:00 AM 10.73 51.314 0.159 7.33 2763.14 9.22
11/2/2021 1:15:00 AM 10.71 51.278 0.158 7.33 2087.59 9.26
11/2/2021 1:30:00 AM 10.7 51.26 0.158 7.32 2444.26 9.25
11/2/2021 1:45:00 AM 10.68 51.224 0.159 7.33 1768.63 9.26
11/2/2021 2:00:00 AM 10.66 51.188 0.158 7.33 4124.45 9.28
11/2/2021 2:15:00 AM 10.64 51.152 0.158 7.31 4503.29 9.23
11/2/2021 2:30:00 AM 10.62 51.116 0.158 7.32 4610.59 9.24
11/2/2021 2:45:00 AM 10.6 51.08 0.158 7.32 4722.72 9.26
11/2/2021 3:00:00 AM 10.58 51.044 0.159 7.3 1251.14 9.27
11/2/2021 3:15:00 AM 10.56 51.008 0.159 7.33 1767.01 9.28
11/2/2021 3:30:00 AM 10.54 50.972 0.159 7.32 243.81 9.31
11/2/2021 3:45:00 AM 10.52 50.936 0.16 7.34 376.66 9.3
11/2/2021 4:00:00 AM 10.5 50.9 0.159 7.34 14429.66 9.26
11/2/2021 4:15:00 AM 10.48 50.864 0.159 7.34 4647.68 9.35
11/2/2021 4:30:00 AM 10.46 50.828 0.159 7.34 4928.32 9.36
11/2/2021 4:45:00 AM 10.45 50.81 0.159 7.34 4546.83 9.39
11/2/2021 5:00:00 AM 10.43 50.774 0.159 7.33 4808.38 9.36
11/2/2021 5:15:00 AM 10.42 50.756 0.159 7.33 2309.28 9.34
11/2/2021 5:30:00 AM 10.4 50.72 0.158 7.33 2277.88 9.37
11/2/2021 5:45:00 AM 10.39 50.702 0.158 7.33 2483.73 9.41
11/2/2021 6:00:00 AM 10.37 50.666 0.158 7.33 4488.42 9.43
11/2/2021 6:15:00 AM 10.36 50.648 0.158 7.31 4924.69 9.36
11/2/2021 6:30:00 AM 10.34 50.612 0.158 7.33 8061.17 9.36
11/2/2021 6:45:00 AM 10.33 50.594 0.157 7.33 4768.78 9.4
11/2/2021 7:00:00 AM 10.31 50.558 0.157 7.33 5570.53 9.42
11/2/2021 7:15:00 AM 10.29 50.522 0.156 7.33 6373.29 9.43
11/2/2021 7:30:00 AM 10.28 50.504 0.155 7.33 6809.03 9.41
11/2/2021 7:45:00 AM 10.26 50.468 0.155 7.33 7123.76 9.42
11/2/2021 8:00:00 AM 10.24 50.432 0.155 7.3 8304.3 9.44
11/2/2021 8:15:00 AM 10.22 50.396 0.154 7.33 3637.52 9.5
11/2/2021 8:30:00 AM 10.21 50.378 0.154 7.32 6738.4 9.44
11/2/2021 8:45:00 AM 10.19 50.342 0.154 7.32 7789.22 9.49
11/2/2021 9:00:00 AM 10.19 50.342 0.154 7.33 6412.37 9.43
11/2/2021 9:15:00 AM 10.18 50.324 0.154 7.33 6901.2 9.48
11/2/2021 9:30:00 AM 10.18 50.324 0.154 7.34 7089.47 9.47
11/2/2021 9:45:00 AM 10.18 50.324 0.155 7.34 7002.23 9.47
11/2/2021 10:00:00 AM 10.18 50.324 0.155 7.35 7128.14 9.41
11/2/2021 10:15:00 AM 10.18 50.324 0.154 7.35 7210.76 9.47
11/2/2021 10:30:00 AM 10.2 50.36 0.154 7.35 7295.4 9.38
11/2/2021 10:45:00 AM 10.21 50.378 0.155 7.35 7793.84 9.51
11/2/2021 11:00:00 AM 10.22 50.396 0.155 7.35 7742.55 9.47
11/2/2021 11:15:00 AM 10.23 50.414 0.155 7.36 7685.23 9.57
11/2/2021 11:30:00 AM 10.24 50.432 0.155 7.36 7764.42 9.48
11/2/2021 11:45:00 AM 10.25 50.45 0.154 7.36 7865.2 9.49
11/2/2021 12:00:00 PM 10.26 50.468 0.155 7.36 7726.53 9.5
11/2/2021 12:15:00 PM 10.25 50.45 0.155 7.36 7598.01 9.4
11/2/2021 12:30:00 PM 10.26 50.468 0.155 7.36 7562.23 9.41
11/2/2021 12:45:00 PM 10.27 50.486 0.155 7.36 7983.5 9.34
11/2/2021 1:00:00 PM 10.29 50.522 0.155 7.36 7231.04 9.42
11/2/2021 1:15:00 PM 10.3 50.54 0.155 7.36 10413.84 9.4
11/2/2021 1:30:00 PM 10.31 50.558 0.154 7.36 10229.37 9.45
11/2/2021 1:45:00 PM 10.31 50.558 0.153 7.36 17405.83 9.51
11/2/2021 2:00:00 PM 10.31 50.558 0.154 7.36 12141.08 9.4
11/2/2021 2:15:00 PM 10.31 50.558 0.154 7.36 6333.19 9.53
11/2/2021 2:30:00 PM 10.31 50.558 0.153 7.35 10202.6 9.53
11/2/2021 2:45:00 PM 10.32 50.576 0.153 7.36 9814.7 9.62
11/2/2021 3:00:00 PM 10.33 50.594 0.152 7.33 7454.27 9.54
11/2/2021 3:15:00 PM 10.33 50.594 0.152 7.36 8733.07 9.59
11/2/2021 3:30:00 PM 10.33 50.594 0.152 7.36 8760.86 9.67
11/2/2021 3:45:00 PM 10.33 50.594 0.151 7.36 8957.57 9.64
11/2/2021 4:00:00 PM 10.34 50.612 0.15 7.36 9639.57 9.66
11/2/2021 4:15:00 PM 10.34 50.612 0.15 7.36 9025.79 9.65
11/2/2021 4:30:00 PM 10.34 50.612 0.15 7.36 9079.78 9.67
11/2/2021 4:45:00 PM 10.34 50.612 0.149 7.37 8942.63 9.67
11/2/2021 5:00:00 PM 10.33 50.594 0.15 7.37 9001.15 9.7
11/2/2021 5:15:00 PM 10.32 50.576 0.151 7.36 9405.16 9.69
11/2/2021 5:30:00 PM 10.32 50.576 0.15 7.36 9355.21 9.69
11/2/2021 5:45:00 PM 10.32 50.576 0.151 7.33 11402.8 9.68
11/2/2021 6:00:00 PM 10.31 50.558 0.15 7.36 4281.68 9.68
11/2/2021 6:15:00 PM 10.3 50.54 0.151 7.36 8924.92 9.69
11/2/2021 6:30:00 PM 10.29 50.522 0.151 7.34 9049.28 9.64
11/2/2021 6:45:00 PM 10.28 50.504 0.151 7.36 9064.1 9.69
11/2/2021 7:00:00 PM 10.27 50.486 0.15 7.37 9731.52 9.61
11/2/2021 7:15:00 PM 10.26 50.468 0.151 7.34 9837.78 9.65
11/2/2021 7:30:00 PM 10.25 50.45 0.15 7.37 10050.6 9.7
11/2/2021 7:45:00 PM 10.24 50.432 0.15 7.36 9906.02 9.73
11/2/2021 8:00:00 PM 10.24 50.432 0.15 7.36 9921.91 9.76
11/2/2021 8:15:00 PM 10.24 50.432 0.149 7.34 10321.82 9.76
11/2/2021 8:30:00 PM 10.23 50.414 0.149 7.36 10173.71 9.66
11/2/2021 8:45:00 PM 10.23 50.414 0.149 7.37 9970.81 9.71
11/2/2021 9:00:00 PM 10.23 50.414 0.149 7.34 9867 9.74
11/2/2021 9:15:00 PM 10.23 50.414 0.148 7.35 10119.42 9.74
11/2/2021 9:30:00 PM 10.22 50.396 0.148 7.37 10010.83 9.72
11/2/2021 9:45:00 PM 10.21 50.378 0.148 7.35 9426.05 9.78
11/2/2021 10:00:00 PM 10.2 50.36 0.149 7.37 9581.99 9.8
11/2/2021 10:15:00 PM 10.19 50.342 0.148 7.37 8928.22 9.75
11/2/2021 10:30:00 PM 10.18 50.324 0.148 7.37 8907.93 9.76
11/2/2021 10:45:00 PM 10.18 50.324 0.15 7.37 8576.04 9.83
11/2/2021 11:00:00 PM 10.17 50.306 0.15 7.37 8461.94 9.82
11/2/2021 11:15:00 PM 10.16 50.288 0.151 7.35 8704.8 9.83
11/2/2021 11:30:00 PM 10.15 50.27 0.151 7.37 8912.57 9.89
11/2/2021 11:45:00 PM 10.13 50.234 0.151 7.37 9624.34 9.82
11/3/2021 12:00:00 AM 10.12 50.216 0.15 7.36 9682.13 9.89
11/3/2021 12:15:00 AM 10.11 50.198 0.15 7.37 9956.55 9.8
11/3/2021 12:30:00 AM 10.09 50.162 0.151 7.37 10033.37 9.9
11/3/2021 12:45:00 AM 10.07 50.126 0.151 7.37 9678.11 9.91
11/3/2021 1:00:00 AM 10.05 50.09 0.15 7.33 9997.37 9.95
11/3/2021 1:15:00 AM 10.03 50.054 0.15 7.34 10074.86 9.96
11/3/2021 1:30:00 AM 10 50 0.15 7.35 10254.98 10
11/3/2021 1:45:00 AM 9.99 49.982 0.15 7.35 9202.83 10.01
11/3/2021 2:00:00 AM 9.97 49.946 0.15 7.37 10156.41 10
11/3/2021 2:15:00 AM 9.95 49.91 0.15 7.36 9570.5 9.99
11/3/2021 2:30:00 AM 9.92 49.856 0.149 7.36 9295.27 10.12
11/3/2021 2:45:00 AM 9.89 49.802 0.149 7.35 9358.61 10.15
11/3/2021 3:00:00 AM 9.87 49.766 0.149 7.35 8138.95 10.07
11/3/2021 3:15:00 AM 9.84 49.712 0.148 7.32 8144.92 10.11
11/3/2021 3:30:00 AM 9.82 49.676 0.15 7.34 7737.39 10.15
11/3/2021 3:45:00 AM 9.8 49.64 0.147 7.34 6940.07 10.13
11/3/2021 4:00:00 AM 9.78 49.604 0.144 7.34 6481.83 10.07
11/3/2021 4:15:00 AM 9.77 49.586 0.144 7.34 6318.14 10.08
11/3/2021 4:30:00 AM 9.75 49.55 0.142 7.34 6296.83 10.07
11/3/2021 4:45:00 AM 9.73 49.514 0.143 7.35 6103.85 10.1
11/3/2021 5:00:00 AM 9.72 49.496 0.143 7.35 6541.6 10.12
11/3/2021 5:15:00 AM 9.7 49.46 0.142 7.35 6454.89 10.08
11/3/2021 5:30:00 AM 9.68 49.424 0.143 7.35 6156.28 10.11
11/3/2021 5:45:00 AM 9.66 49.388 0.141 7.36 6225.66 10.08
11/3/2021 6:00:00 AM 9.65 49.37 0.14 7.36 6154.69 10.07
11/3/2021 6:15:00 AM 9.64 49.352 0.139 7.36 5061.33 9.99
11/3/2021 6:30:00 AM 9.63 49.334 0.142 7.36 6162.74 9.97
11/3/2021 6:45:00 AM 9.61 49.298 0.142 7.37 6463.79 10
11/3/2021 7:00:00 AM 9.59 49.262 0.142 7.36 6477.86 9.91
11/3/2021 7:15:00 AM 9.58 49.244 0.139 7.36 6012.16 9.94
11/3/2021 7:30:00 AM 9.56 49.208 0.139 7.36 6393.6 10
11/3/2021 7:45:00 AM 9.55 49.19 0.138 7.37 6406.68 10.01
11/3/2021 8:00:00 AM 9.53 49.154 0.138 7.36 6358.9 10.04
11/3/2021 8:15:00 AM 9.51 49.118 0.14 7.36 5736.52 10.08
11/3/2021 8:30:00 AM 9.5 49.1 0.139 7.37 6015.03 10.05
11/3/2021 8:45:00 AM 9.49 49.082 0.14 7.37 6122.52 10.08
11/3/2021 9:00:00 AM 9.47 49.046 0.14 7.38 6135.36 9.98
11/3/2021 9:15:00 AM 9.46 49.028 0.14 7.37 6131.94 10.11
11/3/2021 9:30:00 AM 9.45 49.01 0.137 7.37 6035.43 10.06
11/3/2021 9:45:00 AM 9.45 49.01 0.138 7.39 6072.5 10.12
11/3/2021 10:00:00 AM 9.45 49.01 0.137 7.38 6105.76 10.14
11/3/2021 10:15:00 AM 9.46 49.028 0.137 7.38 6203.17 10.11
11/3/2021 10:30:00 AM 9.45 49.01 0.138 7.37 6236.82 10.13
11/3/2021 10:45:00 AM 9.46 49.028 0.137 7.37 6207.69 10.12
11/3/2021 11:00:00 AM 9.47 49.046 0.136 7.38 6267.87 10.06
11/3/2021 11:15:00 AM 9.48 49.064 0.138 7.38 6075.19 10.09
11/3/2021 11:30:00 AM 9.48 49.064 0.139 7.38 6439.63 10.16
11/3/2021 11:45:00 AM 9.48 49.064 0.137 7.38 6293.27 10.15
11/3/2021 12:00:00 PM 9.5 49.1 0.136 7.39 6326.85 10.15
11/3/2021 12:15:00 PM 9.52 49.136 0.136 7.39 5847.7 10.17
11/3/2021 12:30:00 PM 9.54 49.172 0.137 7.39 5889.74 10.16
11/3/2021 12:45:00 PM 9.56 49.208 0.137 7.39 5827.26 10.15
11/3/2021 1:00:00 PM 9.57 49.226 0.135 7.38 6034.88 10.09
11/3/2021 1:15:00 PM 9.58 49.244 0.137 7.4 5837.96 10.16
11/3/2021 1:30:00 PM 9.59 49.262 0.135 7.4 5873.95 10.18
11/3/2021 1:45:00 PM 9.61 49.298 0.136 7.4 5949.94 10.18
11/3/2021 2:00:00 PM 9.62 49.316 0.136 7.4 5984.11 10.17
11/3/2021 2:15:00 PM 9.63 49.334 0.139 7.4 6096.12 10.23
11/3/2021 2:30:00 PM 9.63 49.334 0.137 7.37 6063.71 10.22
11/3/2021 2:45:00 PM 9.65 49.37 0.136 7.41 6144.66 10.23
11/3/2021 3:00:00 PM 9.65 49.37 0.137 7.4 6045.75 10.23
11/3/2021 3:15:00 PM 9.65 49.37 0.136 7.38 5947.59 10.23
11/3/2021 3:30:00 PM 9.65 49.37 0.135 7.39 6264.97 10.29
11/3/2021 3:45:00 PM 9.66 49.388 0.136 7.4 6161.21 10.33
11/3/2021 4:00:00 PM 9.66 49.388 0.137 7.4 6059.15 10.31
11/3/2021 4:15:00 PM 9.68 49.424 0.136 7.38 6372.65 10.3
11/3/2021 4:30:00 PM 9.7 49.46 0.136 7.4 6001.4 10.37
11/3/2021 4:45:00 PM 9.71 49.478 0.135 7.4 6446.11 10.35
11/3/2021 5:00:00 PM 9.7 49.46 0.136 7.4 6099.43 10.33
11/3/2021 5:15:00 PM 9.68 49.424 0.136 7.4 6609.06 10.36
11/3/2021 5:30:00 PM 9.66 49.388 0.135 7.39 6840.44 10.35
11/3/2021 5:45:00 PM 9.65 49.37 0.134 7.4 7010.62 10.34
11/3/2021 6:00:00 PM 9.65 49.37 0.135 7.4 7283.03 10.3
11/3/2021 6:15:00 PM 9.65 49.37 0.134 7.41 7356.27 10.32
11/3/2021 6:30:00 PM 9.66 49.388 0.135 7.41 7250.33 10.29
11/3/2021 6:45:00 PM 9.66 49.388 0.135 7.41 7382.38 10.34
11/3/2021 7:00:00 PM 9.67 49.406 0.134 7.41 7333.09 10.36
11/3/2021 7:15:00 PM 9.67 49.406 0.134 7.41 7245.9 10.36
11/3/2021 7:30:00 PM 9.67 49.406 0.133 7.41 7593.06 10.31
11/3/2021 7:45:00 PM 9.66 49.388 0.133 7.41 7542.38 10.34
11/3/2021 8:00:00 PM 9.65 49.37 0.135 7.41 7094.94 10.36
11/3/2021 8:15:00 PM 9.64 49.352 0.135 7.41 6957.7 10.31
11/3/2021 8:30:00 PM 9.63 49.334 0.135 7.4 7015.48 10.32
11/3/2021 8:45:00 PM 9.61 49.298 0.135 7.4 7174.75 10.32
11/3/2021 9:00:00 PM 9.6 49.28 0.134 7.41 7226.82 10.33
11/3/2021 9:15:00 PM 9.59 49.262 0.135 7.41 7673.02 10.36
11/3/2021 9:30:00 PM 9.58 49.244 0.135 7.41 7660.51 10.39
11/3/2021 9:45:00 PM 9.56 49.208 0.135 7.41 7403.31 10.41
11/3/2021 10:00:00 PM 9.55 49.19 0.133 7.41 7592.89 10.36
11/3/2021 10:15:00 PM 9.54 49.172 0.135 7.41 7692.07 10.43
11/3/2021 10:30:00 PM 9.52 49.136 0.135 7.41 7519.49 10.38
11/3/2021 10:45:00 PM 9.51 49.118 0.136 7.41 7828.49 10.35
11/3/2021 11:00:00 PM 9.5 49.1 0.135 7.41 7964.61 10.39
11/3/2021 11:15:00 PM 9.48 49.064 0.134 7.41 8045.47 10.41
11/3/2021 11:30:00 PM 9.47 49.046 0.134 7.41 7853.04 10.46
11/3/2021 11:45:00 PM 9.45 49.01 0.135 7.41 7987.76 10.44
11/4/2021 12:00:00 AM 9.44 48.992 0.134 7.41 8120.08 10.39
11/4/2021 12:15:00 AM 9.42 48.956 0.134 7.41 7909.54 10.39
11/4/2021 12:30:00 AM 9.41 48.938 0.135 7.41 7853.64 10.47
11/4/2021 12:45:00 AM 9.39 48.902 0.134 7.4 8039.88 10.42
11/4/2021 1:00:00 AM 9.37 48.866 0.135 7.41 8109.49 10.47
11/4/2021 1:15:00 AM 9.36 48.848 0.135 7.41 8202.69 10.44
11/4/2021 1:30:00 AM 9.34 48.812 0.135 7.41 8130.47 10.45
11/4/2021 1:45:00 AM 9.32 48.776 0.134 7.41 8212.06 10.48
11/4/2021 2:00:00 AM 9.3 48.74 0.133 7.41 8233.59 10.38
11/4/2021 2:15:00 AM 9.28 48.704 0.137 7.41 8540.33 10.38
11/4/2021 2:30:00 AM 9.25 48.65 0.136 7.41 8730.66 10.4
11/4/2021 2:45:00 AM 9.23 48.614 0.135 7.39 8305.29 10.39
11/4/2021 3:00:00 AM 9.2 48.56 0.135 7.4 8554.02 10.44
11/4/2021 3:15:00 AM 9.18 48.524 0.133 7.39 8729.28 10.39
11/4/2021 3:30:00 AM 9.15 48.47 0.133 7.4 8532.93 10.4
11/4/2021 3:45:00 AM 9.12 48.416 0.134 7.39 8428.15 10.4
11/4/2021 4:00:00 AM 9.1 48.38 0.133 7.4 8491.16 10.41
11/4/2021 4:15:00 AM 9.07 48.326 0.134 7.4 8536.96 10.4
11/4/2021 4:30:00 AM 9.04 48.272 0.137 7.41 8325.22 10.48
11/4/2021 4:45:00 AM 9.01 48.218 0.136 7.37 9169 10.46
11/4/2021 5:00:00 AM 8.99 48.182 0.136 7.41 8373.47 10.45
11/4/2021 5:15:00 AM 8.96 48.128 0.135 7.41 8275.03 10.47
11/4/2021 5:30:00 AM 8.94 48.092 0.135 7.41 8540.94 10.49
11/4/2021 5:45:00 AM 8.91 48.038 0.135 7.39 8455.3 10.49
11/4/2021 6:00:00 AM 8.89 48.002 0.134 7.42 8162.45 10.48
11/4/2021 6:15:00 AM 8.87 47.966 0.134 7.4 8260.86 10.52
11/4/2021 6:30:00 AM 8.85 47.93 0.135 7.42 8204.58 10.48
11/4/2021 6:45:00 AM 8.83 47.894 0.135 7.42 8166.01 10.47
11/4/2021 7:00:00 AM 8.81 47.858 0.135 7.42 8297.37 10.45
11/4/2021 7:15:00 AM 8.78 47.804 0.134 7.39 8381.71 10.49
11/4/2021 7:30:00 AM 8.75 47.75 0.135 7.43 8525.01 10.51
11/4/2021 7:45:00 AM 8.73 47.714 0.135 7.43 8233.09 10.49
11/4/2021 8:00:00 AM 8.71 47.678 0.134 7.39 9902.2 10.51
11/4/2021 8:15:00 AM 8.69 47.642 0.135 7.42 9348.65 10.44
11/4/2021 8:30:00 AM 8.67 47.606 0.135 7.43 9249.97 10.49
11/4/2021 8:45:00 AM 8.65 47.57 0.135 7.42 8432.19 10.55
11/4/2021 9:00:00 AM 8.64 47.552 0.135 7.43 9360.42 10.53
11/4/2021 9:15:00 AM 8.62 47.516 0.135 7.43 9879.6 10.58
11/4/2021 9:30:00 AM 8.61 47.498 0.135 7.44 9501.87 10.5
11/4/2021 9:45:00 AM 8.6 47.48 0.136 7.44 9537.8 10.57
11/4/2021 10:00:00 AM 8.6 47.48 0.135 7.44 9539.73 10.61
11/4/2021 10:15:00 AM 8.61 47.498 0.136 7.43 9654.46 10.62
11/4/2021 10:30:00 AM 8.62 47.516 0.135 7.44 9420.25 10.57
11/4/2021 10:45:00 AM 8.63 47.534 0.136 7.45 9290.45 10.55
11/4/2021 11:00:00 AM 8.66 47.588 0.136 7.45 9257.73 10.52
11/4/2021 11:15:00 AM 8.69 47.642 0.135 7.42 9174.55 10.55
11/4/2021 11:30:00 AM 8.72 47.696 0.137 7.44 9227.89 10.56
11/4/2021 11:45:00 AM 8.7 47.66 0.136 7.44 8293.45 10.63
11/4/2021 12:00:00 PM 8.7 47.66 0.135 7.45 8419.7 10.64
11/4/2021 12:15:00 PM 8.7 47.66 0.139 7.45 8287.01 10.65
11/4/2021 12:30:00 PM 8.72 47.696 0.138 7.45 8162.79 10.64
11/4/2021 12:45:00 PM 8.74 47.732 0.137 7.45 8187.31 10.67
11/4/2021 1:00:00 PM 8.76 47.768 0.136 7.45 7787.88 10.67
11/4/2021 1:15:00 PM 8.78 47.804 0.137 7.45 7256.39 10.65
11/4/2021 1:30:00 PM 8.79 47.822 0.135 7.45 7043.69 10.66
11/4/2021 1:45:00 PM 8.81 47.858 0.136 7.45 7272.09 10.66
11/4/2021 2:00:00 PM 8.83 47.894 0.14 7.45 6554.1 10.7
11/4/2021 2:15:00 PM 8.85 47.93 0.139 7.45 6095.2 10.68
11/4/2021 2:30:00 PM 8.87 47.966 0.138 7.45 6160.67 10.66
11/4/2021 2:45:00 PM 8.88 47.984 0.141 7.45 5800.05 10.61
11/4/2021 3:00:00 PM 8.88 47.984 0.14 7.46 5311.53 10.61
11/4/2021 3:15:00 PM 8.88 47.984 0.139 7.45 5259.8 10.64
11/4/2021 3:30:00 PM 8.88 47.984 0.139 7.41 5363.56 10.63
11/4/2021 3:45:00 PM 8.88 47.984 0.138 7.46 4964.52 10.63
11/4/2021 4:00:00 PM 8.87 47.966 0.139 7.4 4724.34 10.56
11/4/2021 4:15:00 PM 8.87 47.966 0.138 7.46 4638.88 10.58
11/4/2021 4:30:00 PM 8.88 47.984 0.138 7.43 4525.67 10.58
11/4/2021 4:45:00 PM 8.88 47.984 0.138 7.44 4288.15 10.57
11/4/2021 5:00:00 PM 8.88 47.984 0.137 7.44 4055.63 10.57
11/4/2021 5:15:00 PM 8.88 47.984 0.138 7.45 3919.42 10.52
11/4/2021 5:30:00 PM 8.88 47.984 0.136 7.46 3882.45 10.5
11/4/2021 5:45:00 PM 8.89 48.002 0.137 7.45 3965.58 10.59
11/4/2021 6:00:00 PM 8.91 48.038 0.138 7.45 3981.47 10.6
11/4/2021 6:15:00 PM 8.92 48.056 0.137 7.45 3867.61 10.53
11/4/2021 6:30:00 PM 8.93 48.074 0.138 7.45 3851.17 10.5
11/4/2021 6:45:00 PM 8.94 48.092 0.138 7.45 3722 10.49
11/4/2021 7:00:00 PM 8.93 48.074 0.138 7.42 3633.05 10.51
11/4/2021 7:15:00 PM 8.92 48.056 0.137 7.46 3594.19 10.48
11/4/2021 7:30:00 PM 8.91 48.038 0.137 7.45 3711.01 10.46
11/4/2021 7:45:00 PM 8.89 48.002 0.137 7.45 3457.76 10.43
11/4/2021 8:00:00 PM 8.88 47.984 0.137 7.45 3131.27 10.5
11/4/2021 8:15:00 PM 8.86 47.948 0.138 7.45 3107.85 10.5
11/4/2021 8:30:00 PM 8.84 47.912 0.139 7.41 3141.26 10.49
11/4/2021 8:45:00 PM 8.81 47.858 0.138 7.45 3212.18 10.44
11/4/2021 9:00:00 PM 8.8 47.84 0.14 7.45 3351.3 10.41
11/4/2021 9:15:00 PM 8.78 47.804 0.139 7.43 3003.35 10.35
11/4/2021 9:30:00 PM 8.76 47.768 0.139 7.46 2915.67 10.32
11/4/2021 9:45:00 PM 8.74 47.732 0.139 7.45 2931.67 10.27
11/4/2021 10:00:00 PM 8.72 47.696 0.139 7.46 2783.9 10.3
11/4/2021 10:15:00 PM 8.7 47.66 0.139 7.45 2881.02 10.26
11/4/2021 10:30:00 PM 8.68 47.624 0.139 7.46 2798.57 10.31
11/4/2021 10:45:00 PM 8.66 47.588 0.139 7.44 2567.21 10.29
11/4/2021 11:00:00 PM 8.65 47.57 0.141 7.44 2495.28 10.3
11/4/2021 11:15:00 PM 8.63 47.534 0.14 7.47 2349.51 10.27
11/4/2021 11:30:00 PM 8.6 47.48 0.14 7.47 2316.4 10.28
11/4/2021 11:45:00 PM 8.58 47.444 0.139 7.44 2390.79 10.27
11/5/2021 12:00:00 AM 8.56 47.408 0.139 7.45 2458.53 10.27
11/5/2021 12:15:00 AM 8.54 47.372 0.141 7.47 2310.28 10.24
11/5/2021 12:30:00 AM 8.51 47.318 0.141 7.47 2345.43 10.2
11/5/2021 12:45:00 AM 8.49 47.282 0.141 7.47 2370.11 10.23
11/5/2021 1:00:00 AM 8.47 47.246 0.142 7.46 2435.7 10.21
11/5/2021 1:15:00 AM 8.45 47.21 0.142 7.46 2373.36 10.22
11/5/2021 1:30:00 AM 8.43 47.174 0.142 7.46 2308.28 10.15
11/5/2021 1:45:00 AM 8.41 47.138 0.141 7.46 2248.33 10.18
11/5/2021 2:00:00 AM 8.39 47.102 0.142 7.46 2306.95 10.15
11/5/2021 2:15:00 AM 8.37 47.066 0.142 7.46 2299.83 10.12
11/5/2021 2:30:00 AM 8.34 47.012 0.141 7.46 2232.46 10.1
11/5/2021 2:45:00 AM 8.32 46.976 0.143 7.46 2205.77 10.08
11/5/2021 3:00:00 AM 8.3 46.94 0.143 7.46 2254.25 10.09
11/5/2021 3:15:00 AM 8.28 46.904 0.143 7.46 2207.57 10.13
11/5/2021 3:30:00 AM 8.25 46.85 0.142 7.46 2197.66 9.94
11/5/2021 3:45:00 AM 8.23 46.814 0.144 7.46 2148.29 10.13
11/5/2021 4:00:00 AM 8.21 46.778 0.144 7.46 2145.32 10.15
11/5/2021 4:15:00 AM 8.19 46.742 0.143 7.46 2114.65 10.15
11/5/2021 4:30:00 AM 8.17 46.706 0.144 7.46 2099.38 10.18
11/5/2021 4:45:00 AM 8.15 46.67 0.144 7.47 2095.65 10.17
11/5/2021 5:00:00 AM 8.13 46.634 0.145 7.47 2078.39 10.14
11/5/2021 5:15:00 AM 8.11 46.598 0.144 7.47 2034.22 10.16
11/5/2021 5:30:00 AM 8.09 46.562 0.144 7.47 2001.59 10.15
11/5/2021 5:45:00 AM 8.06 46.508 0.145 7.47 1994.27 10.17
11/5/2021 6:00:00 AM 8.04 46.472 0.145 7.47 1983.04 10.12
11/5/2021 6:15:00 AM 8.02 46.436 0.145 7.47 1992.73 10.15
11/5/2021 6:30:00 AM 8 46.4 0.145 7.47 1992.83 10.14
11/5/2021 6:45:00 AM 7.99 46.382 0.145 7.48 1904.69 10.15
11/5/2021 7:00:00 AM 7.97 46.346 0.145 7.48 1896.15 10.08
11/5/2021 7:15:00 AM 7.96 46.328 0.145 7.48 1862.41 10.11
11/5/2021 7:30:00 AM 7.94 46.292 0.145 7.48 1889.62 10.09
11/5/2021 7:45:00 AM 7.91 46.238 0.145 7.48 1835.84 10.13
11/5/2021 8:00:00 AM 7.89 46.202 0.145 7.48 1814.39 10.01
11/5/2021 8:15:00 AM 7.86 46.148 0.144 7.48 1805.07 10.1
11/5/2021 8:30:00 AM 7.84 46.112 0.144 7.49 1717.19 10.07
11/5/2021 8:45:00 AM 7.82 46.076 0.144 7.48 1675.22 10.03
11/5/2021 9:00:00 AM 7.81 46.058 0.145 7.48 1693.1 10.09
11/5/2021 9:15:00 AM 7.79 46.022 0.145 7.49 1694.71 10.05
11/5/2021 9:30:00 AM 7.78 46.004 0.144 7.49 1556.84 10.12
11/5/2021 9:45:00 AM 7.77 45.986 0.145 7.49 1591.68 10.17
11/5/2021 10:00:00 AM 7.77 45.986 0.144 7.49 1485.48 10.14
11/5/2021 10:15:00 AM 7.77 45.986 0.145 7.49 1414.18 10.11
11/5/2021 10:30:00 AM 7.78 46.004 0.145 7.5 1436.53 10.08
11/5/2021 10:45:00 AM 7.79 46.022 0.143 7.5 1448.07 10.06
11/5/2021 11:00:00 AM 7.8 46.04 0.143 7.5 1402.18 10.13
11/5/2021 11:15:00 AM 7.8 46.04 0.142 7.51 1365.16 10.12
11/5/2021 11:30:00 AM 7.82 46.076 0.142 7.51 1309.13 10.04
11/5/2021 11:45:00 AM 7.83 46.094 0.143 7.51 1274.98 10.09
11/5/2021 12:00:00 PM 7.84 46.112 0.142 7.51 1290.27 10.08
11/5/2021 12:15:00 PM 7.85 46.13 0.142 7.51 1311.22 10.06
11/5/2021 12:30:00 PM 7.87 46.166 0.141 7.51 1309.59 10.1
11/5/2021 12:45:00 PM 7.89 46.202 0.14 7.52 1268.24 10.15
11/5/2021 1:00:00 PM 7.91 46.238 0.14 7.52 1211.17 10.14
11/5/2021 1:15:00 PM 7.93 46.274 0.14 7.52 1273.58 10.1
11/5/2021 1:30:00 PM 7.95 46.31 0.14 7.52 1228.94 10.04
11/5/2021 1:45:00 PM 7.96 46.328 0.14 7.52 1266.72 10.09
11/5/2021 2:00:00 PM 7.98 46.364 0.14 7.52 1239.84 10.12
11/5/2021 2:15:00 PM 8 46.4 0.143 7.52 1359.87 10.08
11/5/2021 2:30:00 PM 8.01 46.418 0.144 7.52 1270.54 10.13
11/5/2021 2:45:00 PM 8.03 46.454 0.144 7.53 1147.83 10.06
11/5/2021 3:00:00 PM 8.04 46.472 0.143 7.53 1220.48 10.04
11/5/2021 3:15:00 PM 8.05 46.49 0.144 7.53 1212.47 10.09
11/5/2021 3:30:00 PM 8.07 46.526 0.144 7.53 1158.94 10.07
11/5/2021 3:45:00 PM 8.08 46.544 0.145 7.53 1046.68 10.13
11/5/2021 4:00:00 PM 8.08 46.544 0.145 7.53 1017.02 10.14
11/5/2021 4:15:00 PM 8.09 46.562 0.143 7.48 1002.62 10.04
11/5/2021 4:30:00 PM 8.09 46.562 0.147 7.53 942.81 10.1
11/5/2021 4:45:00 PM 8.1 46.58 0.148 7.53 878.27 10.11
11/5/2021 5:00:00 PM 8.1 46.58 0.149 7.51 859.31 10.18
11/5/2021 5:15:00 PM 8.11 46.598 0.15 7.53 831.38 10.16
11/5/2021 5:30:00 PM 8.12 46.616 0.151 7.53 900.17 10.17
11/5/2021 5:45:00 PM 8.12 46.616 0.154 7.53 833.58 10.1
11/5/2021 6:00:00 PM 8.13 46.634 0.153 7.52 774.14 10.12
11/5/2021 6:15:00 PM 8.13 46.634 0.156 7.53 709.22 10.14
11/5/2021 6:30:00 PM 8.13 46.634 0.156 7.53 626.55 10.13
11/5/2021 6:45:00 PM 8.13 46.634 0.156 7.53 594.61 10.16
11/5/2021 7:00:00 PM 8.13 46.634 0.155 7.53 537.43 10.2
11/5/2021 7:15:00 PM 8.12 46.616 0.157 7.53 524.4 10.14
11/5/2021 7:30:00 PM 8.12 46.616 0.156 7.53 501.04 10.13
11/5/2021 7:45:00 PM 8.11 46.598 0.157 7.52 438.93 10.16
11/5/2021 8:00:00 PM 8.1 46.58 0.157 7.52 462.78 10.16
11/5/2021 8:15:00 PM 8.08 46.544 0.156 7.52 409.16 10.17
11/5/2021 8:30:00 PM 8.05 46.49 0.158 7.52 390.96 10.13
11/5/2021 8:45:00 PM 8.02 46.436 0.158 7.52 354.53 10.12
11/5/2021 9:00:00 PM 7.99 46.382 0.158 7.52 334.17 10.13
11/5/2021 9:15:00 PM 7.97 46.346 0.158 7.52 337.71 10.15
11/5/2021 9:30:00 PM 7.94 46.292 0.159 7.52 304.1 10.12
11/5/2021 9:45:00 PM 7.92 46.256 0.158 7.52 300.59 10.12
11/5/2021 10:00:00 PM 7.91 46.238 0.159 7.51 348.55 10.14
11/5/2021 10:15:00 PM 7.9 46.22 0.159 7.51 285.18 10.11
11/5/2021 10:30:00 PM 7.9 46.22 0.159 7.51 268.51 10.14
11/5/2021 10:45:00 PM 7.9 46.22 0.159 7.51 278.14 10.1
11/5/2021 11:00:00 PM 7.9 46.22 0.16 7.51 259.87 10.01
11/5/2021 11:15:00 PM 7.89 46.202 0.16 7.51 281.49 10
11/5/2021 11:30:00 PM 7.89 46.202 0.16 7.52 265.57 9.98
11/5/2021 11:45:00 PM 7.88 46.184 0.16 7.52 248.13 9.95
11/6/2021 12:00:00 AM 7.87 46.166 0.16 7.52 232.85 9.97
11/6/2021 12:15:00 AM 7.85 46.13 0.16 7.52 233.57 9.93
11/6/2021 12:30:00 AM 7.84 46.112 0.161 7.52 228.43 9.95
11/6/2021 12:45:00 AM 7.81 46.058 0.16 7.51 223.1 9.93
11/6/2021 1:00:00 AM 7.79 46.022 0.161 7.5 275.86 9.93
11/6/2021 1:15:00 AM 7.77 45.986 0.162 7.52 317.14 9.89
11/6/2021 1:30:00 AM 7.74 45.932 0.161 7.51 362.35 9.65
11/6/2021 1:45:00 AM 7.71 45.878 0.161 7.51 352.63 9.6
11/6/2021 2:00:00 AM 7.68 45.824 0.162 7.51 353.68 9.7
11/6/2021 2:15:00 AM 7.65 45.77 0.162 7.51 369.94 9.66
11/6/2021 2:30:00 AM 7.62 45.716 0.161 7.5 319.29 9.3
11/6/2021 2:45:00 AM 7.59 45.662 0.162 7.51 301.12 9.38
11/6/2021 3:00:00 AM 7.56 45.608 0.162 7.51 324.58 9.64
11/6/2021 3:15:00 AM 7.54 45.572 0.163 7.51 297.51 9.7
11/6/2021 3:30:00 AM 7.51 45.518 0.162 7.49 289.34 9.62
11/6/2021 3:45:00 AM 7.49 45.482 0.162 7.5 277.19 9.49
11/6/2021 4:00:00 AM 7.46 45.428 0.162 7.51 282.3 9.65
11/6/2021 4:15:00 AM 7.44 45.392 0.162 7.52 272.63 9.75
11/6/2021 4:30:00 AM 7.43 45.374 0.162 7.52 263.57 9.69
11/6/2021 4:45:00 AM 7.41 45.338 0.163 7.52 240.72 9.77
11/6/2021 5:00:00 AM 7.39 45.302 0.163 7.52 225.99 9.72
11/6/2021 5:15:00 AM 7.38 45.284 0.163 7.52 207.79 9.78
11/6/2021 5:30:00 AM 7.36 45.248 0.162 7.5 186.94 9.78
11/6/2021 5:45:00 AM 7.35 45.23 0.163 7.52 191 9.72
11/6/2021 6:00:00 AM 7.33 45.194 0.163 7.52 191.8 9.87
11/6/2021 6:15:00 AM 7.31 45.158 0.163 7.52 180.26 9.75
11/6/2021 6:30:00 AM 7.3 45.14 0.163 7.52 175.69 9.74
11/6/2021 6:45:00 AM 7.29 45.122 0.163 7.52 178.88 9.83
11/6/2021 7:00:00 AM 7.27 45.086 0.164 7.53 166.99 9.75
11/6/2021 7:15:00 AM 7.25 45.05 0.164 7.53 170.76 9.57
11/6/2021 7:30:00 AM 7.23 45.014 0.163 7.51 158.36 9.66
11/6/2021 7:45:00 AM 7.21 44.978 0.164 7.53 168.61 9.61
11/6/2021 8:00:00 AM 7.18 44.924 0.165 7.53 160.27 9.83
11/6/2021 8:15:00 AM 7.15 44.87 0.164 7.53 152.92 9.82
11/6/2021 8:30:00 AM 7.11 44.798 0.165 7.53 153.09 9.86
11/6/2021 8:45:00 AM 7.08 44.744 0.164 7.53 148.09 9.85
11/6/2021 9:00:00 AM 7.06 44.708 0.165 7.53 141.86 9.86
11/6/2021 9:15:00 AM 7.03 44.654 0.165 7.53 142.14 9.68
11/6/2021 9:30:00 AM 7.02 44.636 0.165 7.53 137.93 9.6
11/6/2021 9:45:00 AM 7 44.6 0.165 7.53 140.19 9.71
11/6/2021 10:00:00 AM 7 44.6 0.166 7.54 122.8 9.92
11/6/2021 10:15:00 AM 7 44.6 0.166 7.54 119.25 9.57
11/6/2021 10:30:00 AM 7 44.6 0.167 7.54 116.01 9.68
11/6/2021 10:45:00 AM 7.01 44.618 0.167 7.54 91.87 9.59
11/6/2021 11:00:00 AM 7.01 44.618 0.166 7.54 88.42 9.58
11/6/2021 11:15:00 AM 7.02 44.636 0.167 7.55 84.61 9.73
11/6/2021 11:30:00 AM 7.04 44.672 0.166 7.55 82.43 9.61
11/6/2021 11:45:00 AM 7.05 44.69 0.168 7.55 85.24 9.72
11/6/2021 12:00:00 PM 7.07 44.726 0.168 7.56 87.96 9.79
11/6/2021 12:15:00 PM 7.1 44.78 0.168 7.53 90.72 9.79
11/6/2021 12:30:00 PM 7.12 44.816 0.168 7.56 96.73 9.72
11/6/2021 12:45:00 PM 7.14 44.852 0.168 7.56 90.16 9.7
11/6/2021 1:00:00 PM 7.17 44.906 0.168 7.56 85.9 9.64
11/6/2021 1:15:00 PM 7.19 44.942 0.169 7.57 103.17 9.63
11/6/2021 1:30:00 PM 7.21 44.978 0.169 7.57 99.27 9.68
11/6/2021 1:45:00 PM 7.24 45.032 0.169 7.57 94.97 9.55
11/6/2021 2:00:00 PM 7.26 45.068 0.169 7.57 95.97 9.57
11/6/2021 2:15:00 PM 7.27 45.086 0.172 7.57 92.3 9.39
11/6/2021 2:30:00 PM 7.28 45.104 0.174 7.57 83.93 9.32
11/6/2021 2:45:00 PM 7.29 45.122 0.173 7.57 89.53 9.18
11/6/2021 3:00:00 PM 7.3 45.14 0.173 7.57 89.3 9.35
11/6/2021 3:15:00 PM 7.32 45.176 0.172 7.57 85.09 9.16
11/6/2021 3:30:00 PM 7.32 45.176 0.173 7.57 79.72 9.13
11/6/2021 3:45:00 PM 7.33 45.194 0.173 7.57 84.67 9.05
11/6/2021 4:00:00 PM 7.34 45.212 0.173 7.57 77.31 9.2
11/6/2021 4:15:00 PM 7.34 45.212 0.174 7.58 77.03 9.13
11/6/2021 4:30:00 PM 7.35 45.23 0.173 7.58 73.73 9.08
11/6/2021 4:45:00 PM 7.35 45.23 0.173 7.58 73.82 9.01
11/6/2021 5:00:00 PM 7.35 45.23 0.172 7.58 74.34 8.9
11/6/2021 5:15:00 PM 7.35 45.23 0.171 7.58 75.65 9.02
11/6/2021 5:30:00 PM 7.35 45.23 0.172 7.58 77.6 9.19
11/6/2021 5:45:00 PM 7.35 45.23 0.171 7.58 73.04 9.04
11/6/2021 6:00:00 PM 7.35 45.23 0.169 7.58 73.02 9.08
11/6/2021 6:15:00 PM 7.35 45.23 0.169 7.58 69.15 8.93
11/6/2021 6:30:00 PM 7.35 45.23 0.168 7.58 67.66 8.88
11/6/2021 6:45:00 PM 7.35 45.23 0.168 7.57 65.94 8.79
11/6/2021 7:00:00 PM 7.35 45.23 0.168 7.57 65.21 8.77
11/6/2021 7:15:00 PM 7.35 45.23 0.169 7.57 66.37 8.97
11/6/2021 7:30:00 PM 7.35 45.23 0.168 7.57 65.55 8.47
11/6/2021 7:45:00 PM 7.35 45.23 0.17 7.57 67.5 6.84
11/6/2021 8:00:00 PM 7.35 45.23 0.17 7.57 65.04 4.64
11/6/2021 8:15:00 PM 7.35 45.23 0.17 7.57 65.3 5.57
11/6/2021 8:30:00 PM 7.35 45.23 0.169 7.57 64.08 3.96
11/6/2021 8:45:00 PM 7.34 45.212 0.17 7.57 64.03 5.34
11/6/2021 9:00:00 PM 7.34 45.212 0.171 7.57 63.26 5.7
11/6/2021 9:15:00 PM 7.33 45.194 0.171 7.57 62.31 3.78
11/6/2021 9:30:00 PM 7.33 45.194 0.169 7.57 61.13 5.98
11/6/2021 9:45:00 PM 7.32 45.176 0.172 7.57 61.17 7.65
11/6/2021 10:00:00 PM 7.31 45.158 0.171 7.57 62.94 8.33
11/6/2021 10:15:00 PM 7.3 45.14 0.169 7.56 60.92 8.6
11/6/2021 10:30:00 PM 7.29 45.122 0.172 7.57 62.59 8.62
11/6/2021 10:45:00 PM 7.29 45.122 0.171 7.57 61.04 8.63
11/6/2021 11:00:00 PM 7.28 45.104 0.171 7.57 61.99 8.66
11/6/2021 11:15:00 PM 7.28 45.104 0.171 7.57 61.47 8.63
11/6/2021 11:30:00 PM 7.27 45.086 0.17 7.57 60.49 8.51
11/6/2021 11:45:00 PM 7.26 45.068 0.172 7.57 61.19 8.52
11/7/2021 12:00:00 AM 7.26 45.068 0.175 7.57 59.47 8.59
11/7/2021 12:15:00 AM 7.25 45.05 0.174 7.54 61.31 8.64
11/7/2021 12:30:00 AM 7.24 45.032 0.173 7.56 61.24 8.82
11/7/2021 12:45:00 AM 7.23 45.014 0.173 7.57 103.13 8.77
11/7/2021 1:00:00 AM 7.22 44.996 0.173 7.57 59.51 9
11/7/2021 1:15:00 AM 7.2 44.96 0.173 7.57 60.91 8.86
11/7/2021 1:30:00 AM 7.19 44.942 0.172 7.56 60.58 8.88
11/7/2021 1:45:00 AM 7.17 44.906 0.173 7.56 61.47 8.88
11/7/2021 2:00:00 AM 7.15 44.87 0.173 7.56 62.44 8.92
11/7/2021 2:15:00 AM 7.13 44.834 0.174 7.56 61.06 8.87
11/7/2021 2:30:00 AM 7.11 44.798 0.175 7.55 59.99 8.88
11/7/2021 2:45:00 AM 7.09 44.762 0.179 7.56 62.43 8.81
11/7/2021 3:00:00 AM 7.06 44.708 0.178 7.55 60.21 8.79
11/7/2021 3:15:00 AM 7.03 44.654 0.178 7.55 60.52 8.94
11/7/2021 3:30:00 AM 7.01 44.618 0.177 7.55 59.21 8.67
11/7/2021 3:45:00 AM 6.99 44.582 0.177 7.54 59.62 8.5
11/7/2021 4:00:00 AM 6.97 44.546 0.178 7.55 60.31 8.68
11/7/2021 4:15:00 AM 6.84 44.312 0.176 7.54 84.24 8.63
11/7/2021 4:30:00 AM 6.82 44.276 0.176 7.54 74.24 8.8
11/7/2021 4:45:00 AM 6.8 44.24 0.175 7.54 530.28 8.76
11/7/2021 5:00:00 AM 6.78 44.204 0.175 7.53 157.29 8.74
11/7/2021 5:15:00 AM 6.75 44.15 0.174 7.53 60.55 8.91
11/7/2021 5:30:00 AM 6.73 44.114 0.176 7.53 70.24 8.9
11/7/2021 5:45:00 AM 6.71 44.078 0.175 7.54 67.79 8.94
11/7/2021 6:00:00 AM 6.68 44.024 0.176 7.54 67.61 9.02
11/7/2021 6:15:00 AM 6.66 43.988 0.179 7.54 64 8.98
11/7/2021 6:30:00 AM 6.63 43.934 0.178 7.54 65.67 8.92
11/7/2021 6:45:00 AM 6.61 43.898 0.178 7.54 62.89 9.03
11/7/2021 7:00:00 AM 6.59 43.862 0.177 7.54 76.08 8.99
11/7/2021 7:15:00 AM 6.57 43.826 0.176 7.53 60.22 8.76
11/7/2021 7:30:00 AM 6.55 43.79 0.177 7.55 84.68 8.69
11/7/2021 7:45:00 AM 6.53 43.754 0.177 7.55 562.8 8.7
11/7/2021 8:00:00 AM 6.51 43.718 0.177 7.53 62.24 8.81
11/7/2021 8:15:00 AM 6.5 43.7 0.177 7.55 99.42 8.91
11/7/2021 8:30:00 AM 6.5 43.7 0.177 7.55 58.65 8.95
11/7/2021 8:45:00 AM 6.5 43.7 0.176 7.55 71.34 9.06
11/7/2021 9:00:00 AM 6.5 43.7 0.178 7.56 301.63 9.04
11/7/2021 9:15:00 AM 6.52 43.736 0.178 7.56 295.78 8.77
11/7/2021 9:30:00 AM 6.53 43.754 0.177 7.56 232.68 8.56
11/7/2021 9:45:00 AM 6.55 43.79 0.179 7.57 153.3 8.29
11/7/2021 10:00:00 AM 6.57 43.826 0.179 7.56 464.25 8.53
11/7/2021 10:15:00 AM 6.59 43.862 0.179 7.57 271.85 8.81
11/7/2021 10:30:00 AM 6.62 43.916 0.178 7.55 135.95 8.7
11/7/2021 10:45:00 AM 6.64 43.952 0.178 7.58 213.6 8.56
11/7/2021 11:00:00 AM 6.67 44.006 0.179 7.58 190.31 8.51
11/7/2021 11:15:00 AM 6.69 44.042 0.179 7.58 193.95 7.97
11/7/2021 11:30:00 AM 6.72 44.096 0.179 7.58 321.99 8.12
11/7/2021 11:45:00 AM 6.76 44.168 0.178 7.58 228.95 7.77
11/7/2021 12:00:00 PM 6.79 44.222 0.179 7.59 140.37 7.41
11/7/2021 12:15:00 PM 6.82 44.276 0.179 7.59 141.67 7.51
11/7/2021 12:30:00 PM 6.86 44.348 0.178 7.59 133.58 7.48
11/7/2021 12:45:00 PM 6.89 44.402 0.178 7.59 124.26 7.32
11/7/2021 1:00:00 PM 6.92 44.456 0.18 7.58 139.3 7.36
11/7/2021 1:15:00 PM 6.95 44.51 0.179 7.6 129.95 6.95
11/7/2021 1:30:00 PM 6.98 44.564 0.178 7.6 144.21 7.15
11/7/2021 1:45:00 PM 7.01 44.618 0.178 7.6 113.19 6.91
11/7/2021 2:00:00 PM 7.03 44.654 0.177 7.6 89.15 6.88
11/7/2021 2:15:00 PM 7.05 44.69 0.177 7.6 54.85 7.03
11/7/2021 2:30:00 PM 7.07 44.726 0.177 7.6 55.64 7.27
11/7/2021 2:45:00 PM 7.09 44.762 0.176 7.61 56.34 6.73
11/7/2021 3:00:00 PM 7.1 44.78 0.176 7.61 63.54 8.15
11/7/2021 3:15:00 PM 7.12 44.816 0.175 7.61 64.69 8.21
11/7/2021 3:30:00 PM 7.13 44.834 0.175 7.61 58.07 8.34
11/7/2021 3:45:00 PM 7.13 44.834 0.174 7.61 58.58 8.49
11/7/2021 4:00:00 PM 7.13 44.834 0.174 7.61 67.17 8.6
11/7/2021 4:15:00 PM 7.14 44.852 0.176 7.61 314.39 8.72
11/7/2021 4:30:00 PM 7.14 44.852 0.175 7.61 55.72 8.83
11/7/2021 4:45:00 PM 7.14 44.852 0.175 7.61 55.03 8.84
11/7/2021 5:00:00 PM 7.14 44.852 0.177 7.6 60.53 8.72
11/7/2021 5:15:00 PM 7.14 44.852 0.176 7.6 54.76 8.64
11/7/2021 5:30:00 PM 7.14 44.852 0.176 7.61 57.15 8.56
11/7/2021 5:45:00 PM 7.14 44.852 0.176 7.6 55.41 8.62
11/7/2021 6:00:00 PM 7.14 44.852 0.176 7.61 56.06 8.53
11/7/2021 6:15:00 PM 7.14 44.852 0.176 7.6 56.35 8.5
11/7/2021 6:30:00 PM 7.14 44.852 0.176 7.6 58.64 8.63
11/7/2021 6:45:00 PM 7.14 44.852 0.177 7.6 54.49 8.55
11/7/2021 7:00:00 PM 7.14 44.852 0.175 7.59 55.65 8.5
11/7/2021 7:15:00 PM 7.14 44.852 0.177 7.6 54.7 8.43
11/7/2021 7:30:00 PM 7.14 44.852 0.177 7.6 54.63 8.38
11/7/2021 7:45:00 PM 7.14 44.852 0.176 7.6 56.6 8.49
11/7/2021 8:00:00 PM 7.15 44.87 0.177 7.59 55.45 8.39
11/7/2021 8:15:00 PM 7.15 44.87 0.178 7.6 56.66 8.43
11/7/2021 8:30:00 PM 7.15 44.87 0.177 7.6 61.61 8.15
11/7/2021 8:45:00 PM 7.14 44.852 0.178 7.57 53.48 8.13
11/7/2021 9:00:00 PM 7.15 44.87 0.178 7.6 54.61 8.31
11/7/2021 9:15:00 PM 7.14 44.852 0.178 7.6 56.33 8.43
11/7/2021 9:30:00 PM 7.14 44.852 0.178 7.6 59.08 8.64
11/7/2021 9:45:00 PM 7.14 44.852 0.179 7.59 56.1 8.57
11/7/2021 10:00:00 PM 7.15 44.87 0.179 7.58 56.89 8.78
11/7/2021 10:15:00 PM 7.14 44.852 0.179 7.6 56.45 8.76
11/7/2021 10:30:00 PM 7.15 44.87 0.18 7.6 55.79 8.69
11/7/2021 10:45:00 PM 7.15 44.87 0.181 7.6 55.86 8.77
11/7/2021 11:00:00 PM 7.15 44.87 0.181 7.57 61.45 8.46
11/7/2021 11:15:00 PM 7.15 44.87 0.181 7.59 57.25 8.38
11/7/2021 11:30:00 PM 7.15 44.87 0.183 7.59 57.04 8.49
11/7/2021 11:45:00 PM 7.15 44.87 0.182 7.59 57.83 8.15
11/8/2021 12:00:00 AM 7.15 44.87 0.182 7.58 55.95 7.89
11/8/2021 12:15:00 AM 7.15 44.87 0.182 7.59 59.33 7.62
11/8/2021 12:30:00 AM 7.15 44.87 0.181 7.59 58.82 7.39
11/8/2021 12:45:00 AM 7.15 44.87 0.181 7.59 57.02 6.51
11/8/2021 1:00:00 AM 7.14 44.852 0.182 7.59 56.79 7.53
11/8/2021 1:15:00 AM 7.14 44.852 0.181 7.59 57.4 6.47
11/8/2021 1:30:00 AM 7.13 44.834 0.182 7.59 56.18 5.85
11/8/2021 1:45:00 AM 7.12 44.816 0.181 7.59 56.48 5.7
11/8/2021 2:00:00 AM 7.11 44.798 0.18 7.59 58.42 6.45
11/8/2021 2:15:00 AM 7.1 44.78 0.183 7.59 58.47 6.35
11/8/2021 2:30:00 AM 7.09 44.762 0.182 7.59 56.96 6.53
11/8/2021 2:45:00 AM 7.08 44.744 0.183 7.58 57.25 6.73
11/8/2021 3:00:00 AM 7.06 44.708 0.183 7.58 57.28 6.63
11/8/2021 3:15:00 AM 7.05 44.69 0.184 7.58 56.39 6.97
11/8/2021 3:30:00 AM 7.04 44.672 0.186 7.58 56.73 7.41
11/8/2021 3:45:00 AM 7.02 44.636 0.184 7.58 73.38 7.5
11/8/2021 4:00:00 AM 7.01 44.618 0.184 7.58 59.72 6.82
11/8/2021 4:15:00 AM 6.99 44.582 0.187 7.58 55.47 6.82
11/8/2021 4:30:00 AM 6.97 44.546 0.186 7.58 56.29 6.48
11/8/2021 4:45:00 AM 6.96 44.528 0.186 7.58 54.57 5.37
11/8/2021 5:00:00 AM 6.94 44.492 0.184 7.58 56.82 5.16
11/8/2021 5:15:00 AM 6.93 44.474 0.185 7.58 55.82 4.89
11/8/2021 5:30:00 AM 6.91 44.438 0.183 7.58 56.57 5.54
11/8/2021 5:45:00 AM 6.89 44.402 0.184 7.58 55.81 5.36
11/8/2021 6:00:00 AM 6.88 44.384 0.188 7.58 56.79 5.33
11/8/2021 6:15:00 AM 6.87 44.366 0.185 7.58 54.76 5.07
11/8/2021 6:30:00 AM 6.85 44.33 0.186 7.58 53.92 4.64
11/8/2021 6:45:00 AM 6.83 44.294 0.186 7.58 55.28 5.49
11/8/2021 7:00:00 AM 6.82 44.276 0.185 7.58 53.87 5.77
11/8/2021 7:15:00 AM 6.81 44.258 0.186 7.58 54.34 4.77
11/8/2021 7:30:00 AM 6.79 44.222 0.185 7.58 53.47 4.87
11/8/2021 7:45:00 AM 6.78 44.204 0.185 7.58 52.98 4.17
11/8/2021 8:00:00 AM 6.77 44.186 0.184 7.58 52.44 4.29
11/8/2021 8:15:00 AM 6.77 44.186 0.185 7.58 52.18 3.91
11/8/2021 8:30:00 AM 6.77 44.186 0.184 7.58 52.44 4.15
11/8/2021 8:45:00 AM 6.77 44.186 0.185 7.58 52.51 4.13
11/8/2021 9:00:00 AM 6.78 44.204 0.186 7.59 52.23 3.78
11/8/2021 9:15:00 AM 6.8 44.24 0.187 7.59 52.36 4.55
11/8/2021 9:30:00 AM 6.82 44.276 0.187 7.59 53.28 4.3
11/8/2021 9:45:00 AM 6.85 44.33 0.184 7.59 53.23 5.2
11/8/2021 10:00:00 AM 6.88 44.384 0.185 7.6 53.61 4.38
11/8/2021 10:15:00 AM 6.91 44.438 0.185 7.59 53.28 3.77
11/8/2021 10:30:00 AM 6.94 44.492 0.184 7.6 52.54 4.07
11/8/2021 10:45:00 AM 6.98 44.564 0.185 7.6 53.45 3.93
11/8/2021 11:00:00 AM 7.01 44.618 0.185 7.6 52.2 3.34
11/8/2021 11:15:00 AM 7.05 44.69 0.184 7.61 52.12 3.34
11/8/2021 11:30:00 AM 7.09 44.762 0.185 7.61 52.88 3.89
11/8/2021 11:45:00 AM 7.13 44.834 0.184 7.6 53.53 4.08
11/8/2021 12:00:00 PM 7.18 44.924 0.184 7.62 51.45 3.22
11/8/2021 12:15:00 PM 7.22 44.996 0.183 7.62 51.79 2.78
11/8/2021 12:30:00 PM 7.26 45.068 0.183 7.62 64.61 2.26
11/8/2021 12:45:00 PM 7.3 45.14 0.182 7.61 52.73 2.96
11/8/2021 1:00:00 PM 7.34 45.212 0.182 7.62 53.82 2.18
11/8/2021 1:15:00 PM 7.38 45.284 0.182 7.61 52.91 2.71
11/8/2021 1:30:00 PM 7.42 45.356 0.182 7.62 52.62 2.61
11/8/2021 1:45:00 PM 7.45 45.41 0.182 7.63 53.55 2.44
11/8/2021 2:00:00 PM 7.48 45.464 0.183 7.63 53.56 2.65
11/8/2021 2:15:00 PM 7.51 45.518 0.183 7.63 55.07 2.9
11/8/2021 2:30:00 PM 7.54 45.572 0.182 7.63 54.07 3.31
11/8/2021 2:45:00 PM 7.56 45.608 0.184 7.63 57.46 2.6
11/8/2021 3:00:00 PM 7.58 45.644 0.186 7.64 53.44 2.89
11/8/2021 3:15:00 PM 7.59 45.662 0.186 7.63 54.83 2.5
11/8/2021 3:30:00 PM 7.61 45.698 0.185 7.64 54.59 2.36
11/8/2021 3:45:00 PM 7.62 45.716 0.186 7.64 53.91 2.56
11/8/2021 4:00:00 PM 7.63 45.734 0.186 7.63 53.52 2.33
11/8/2021 4:15:00 PM 7.64 45.752 0.187 7.64 54.08 2.97
11/8/2021 4:30:00 PM 7.64 45.752 0.186 7.64 54.95 2.2
11/8/2021 4:45:00 PM 7.64 45.752 0.186 7.64 54.33 2.75
11/8/2021 5:00:00 PM 7.64 45.752 0.188 7.64 53.33 3.41
11/8/2021 5:15:00 PM 7.64 45.752 0.186 7.63 54.25 2.54
11/8/2021 5:30:00 PM 7.64 45.752 0.187 7.63 54.67 2.95
11/8/2021 5:45:00 PM 7.64 45.752 0.185 7.63 53.7 4.08
11/8/2021 6:00:00 PM 7.65 45.77 0.186 7.63 53.44 4.5
11/8/2021 6:15:00 PM 7.65 45.77 0.186 7.63 55.44 3.53
11/8/2021 6:30:00 PM 7.65 45.77 0.186 7.63 53.8 4.14
11/8/2021 6:45:00 PM 7.65 45.77 0.188 7.63 55.21 4.11
11/8/2021 7:00:00 PM 7.66 45.788 0.187 7.63 54.46 3.12
11/8/2021 7:15:00 PM 7.66 45.788 0.187 7.63 54.87 3.15
11/8/2021 7:30:00 PM 7.66 45.788 0.187 7.63 54.83 2.99
11/8/2021 7:45:00 PM 7.67 45.806 0.188 7.63 53.93 4.32
11/8/2021 8:00:00 PM 7.67 45.806 0.187 7.63 55.57 4.32
11/8/2021 8:15:00 PM 7.67 45.806 0.188 7.62 53.62 3.83
11/8/2021 8:30:00 PM 7.67 45.806 0.188 7.63 53.48 2.73
11/8/2021 8:45:00 PM 7.68 45.824 0.186 7.62 54.78 2.77
11/8/2021 9:00:00 PM 7.68 45.824 0.188 7.62 53.49 4.04
11/8/2021 9:15:00 PM 7.68 45.824 0.188 7.62 53.91 3.72
11/8/2021 9:30:00 PM 7.68 45.824 0.189 7.62 55.19 2.99
11/8/2021 9:45:00 PM 7.67 45.806 0.188 7.62 55.43 2.56
11/8/2021 10:00:00 PM 7.67 45.806 0.189 7.62 53.11 4.78
11/8/2021 10:15:00 PM 7.67 45.806 0.188 7.62 53.58 2.52
11/8/2021 10:30:00 PM 7.67 45.806 0.189 7.62 54.23 2.69
11/8/2021 10:45:00 PM 7.67 45.806 0.189 7.62 53.51 2.54
11/8/2021 11:00:00 PM 7.67 45.806 0.189 7.62 55.3 2.68
11/8/2021 11:15:00 PM 7.67 45.806 0.189 7.62 55.69 3
11/8/2021 11:30:00 PM 7.67 45.806 0.189 7.61 55.16 3.44
11/8/2021 11:45:00 PM 7.67 45.806 0.189 7.62 54.65 3
11/9/2021 12:00:00 AM 7.67 45.806 0.189 7.62 54.55 4.49
11/9/2021 12:15:00 AM 7.67 45.806 0.189 7.62 55.19 3.62
11/9/2021 12:30:00 AM 7.68 45.824 0.19 7.62 56 3.75
11/9/2021 12:45:00 AM 7.68 45.824 0.189 7.62 54.92 2.5
11/9/2021 1:00:00 AM 7.68 45.824 0.19 7.6 54.28 3.1
11/9/2021 1:15:00 AM 7.68 45.824 0.189 7.61 56.12 2.78
11/9/2021 1:30:00 AM 7.68 45.824 0.19 7.62 55.43 3.15
11/9/2021 1:45:00 AM 7.67 45.806 0.189 7.62 54.64 2.58
11/9/2021 2:00:00 AM 7.67 45.806 0.189 7.62 54.12 3.17
11/9/2021 2:15:00 AM 7.66 45.788 0.189 7.62 54.52 2.47
11/9/2021 2:30:00 AM 7.66 45.788 0.19 7.62 54.47 2.34
11/9/2021 2:45:00 AM 7.66 45.788 0.19 7.62 53.79 2.05
11/9/2021 3:00:00 AM 7.65 45.77 0.19 7.62 52.65 2.65
11/9/2021 3:15:00 AM 7.64 45.752 0.19 7.62 52.71 2.55
11/9/2021 3:30:00 AM 7.63 45.734 0.19 7.62 52.45 2.35
11/9/2021 3:45:00 AM 7.62 45.716 0.19 7.62 51.02 2.13
11/9/2021 4:00:00 AM 7.61 45.698 0.19 7.62 51.91 2.31
11/9/2021 4:15:00 AM 7.6 45.68 0.19 7.62 51.59 2.49
11/9/2021 4:30:00 AM 7.59 45.662 0.19 7.6 53.1 2.23
11/9/2021 4:45:00 AM 7.58 45.644 0.19 7.6 52.37 2.07
11/9/2021 5:00:00 AM 7.56 45.608 0.19 7.61 55.11 1.9
11/9/2021 5:15:00 AM 7.55 45.59 0.19 7.6 52.32 2.23
11/9/2021 5:30:00 AM 7.53 45.554 0.188 7.61 52.48 2.56
11/9/2021 5:45:00 AM 7.52 45.536 0.191 7.61 51.98 2.05
11/9/2021 6:00:00 AM 7.51 45.518 0.19 7.59 56.59 3.02
11/9/2021 6:15:00 AM 7.49 45.482 0.19 7.61 51.15 2.08
11/9/2021 6:30:00 AM 7.48 45.464 0.19 7.6 56.45 2.13
11/9/2021 6:45:00 AM 7.46 45.428 0.191 7.61 46.04 1.88
11/9/2021 7:00:00 AM 7.45 45.41 0.191 7.61 49.15 2.06
11/9/2021 7:15:00 AM 7.44 45.392 0.191 7.6 51.79 1.75
11/9/2021 7:30:00 AM 7.43 45.374 0.191 7.61 48.18 2.19
11/9/2021 7:45:00 AM 7.42 45.356 0.19 7.61 49.31 1.5
11/9/2021 8:00:00 AM 7.41 45.338 0.191 7.61 48.81 1.74
11/9/2021 8:15:00 AM 7.41 45.338 0.191 7.61 47.42 1.55
11/9/2021 8:30:00 AM 7.41 45.338 0.192 7.59 46.09 1.76
11/9/2021 8:45:00 AM 7.42 45.356 0.192 7.61 46.94 1.23
11/9/2021 9:00:00 AM 7.43 45.374 0.191 7.61 47.83 1.56
11/9/2021 9:15:00 AM 7.45 45.41 0.192 7.6 48.79 1.2
11/9/2021 9:30:00 AM 7.48 45.464 0.192 7.62 49.08 2
11/9/2021 9:45:00 AM 7.5 45.5 0.192 7.62 49.46 1.21
11/9/2021 10:00:00 AM 7.54 45.572 0.192 7.62 48.16 2.04
11/9/2021 10:15:00 AM 7.57 45.626 0.191 7.62 48.97 1.15
11/9/2021 10:30:00 AM 7.61 45.698 0.193 7.6 47.49 1.26
11/9/2021 10:45:00 AM 7.66 45.788 0.192 7.63 51.99 1.98
11/9/2021 11:00:00 AM 7.7 45.86 0.193 7.62 47.89 1.87
11/9/2021 11:15:00 AM 7.75 45.95 0.192 7.63 50.43 1.4
11/9/2021 11:30:00 AM 7.79 46.022 0.191 7.63 49.26 0.86
11/9/2021 11:45:00 AM 7.84 46.112 0.193 7.63 48.26 0.99
11/9/2021 12:00:00 PM 7.89 46.202 0.193 7.64 50.08 1.28
11/9/2021 12:15:00 PM 7.95 46.31 0.192 7.64 48.98 1.42
11/9/2021 12:30:00 PM 8.01 46.418 0.193 7.64 48.56 0.89
11/9/2021 12:45:00 PM 8.08 46.544 0.193 7.65 49.02 0.73
11/9/2021 1:00:00 PM 8.14 46.652 0.196 7.65 45.73 1.17
11/9/2021 1:15:00 PM 8.21 46.778 0.195 7.65 47.02 0.91
11/9/2021 1:30:00 PM 8.26 46.868 0.195 7.66 47.36 0.96
11/9/2021 1:45:00 PM 8.32 46.976 0.195 7.66 46.58 1.27
11/9/2021 2:00:00 PM 8.37 47.066 0.195 7.66 49.12 0.84
11/9/2021 2:15:00 PM 8.41 47.138 0.193 7.66 49.35 0.99
11/9/2021 2:30:00 PM 8.44 47.192 0.195 7.66 48.16 0.85
11/9/2021 2:45:00 PM 8.47 47.246 0.195 7.65 49.23 0.84
11/9/2021 3:00:00 PM 8.49 47.282 0.195 7.67 49.47 1.42
11/9/2021 3:15:00 PM 8.5 47.3 0.195 7.67 49.96 2.04
11/9/2021 3:30:00 PM 8.51 47.318 0.196 7.67 48.02 1.16
11/9/2021 3:45:00 PM 8.52 47.336 0.196 7.67 48.4 0.96
11/9/2021 4:00:00 PM 8.53 47.354 0.195 7.67 49.4 1.39
11/9/2021 4:15:00 PM 8.55 47.39 0.197 7.67 48.49 1.37
11/9/2021 4:30:00 PM 8.56 47.408 0.197 7.67 48.63 0.81
11/9/2021 4:45:00 PM 8.57 47.426 0.197 7.66 50.88 0.93
11/9/2021 5:00:00 PM 8.57 47.426 0.197 7.67 48.97 0.98
11/9/2021 5:15:00 PM 8.57 47.426 0.197 7.66 49.7 0.79
11/9/2021 5:30:00 PM 8.56 47.408 0.197 7.66 56.95 1.1
11/9/2021 5:45:00 PM 8.55 47.39 0.197 7.66 54.42 1.25
11/9/2021 6:00:00 PM 8.55 47.39 0.198 7.66 143.01 1.18
11/9/2021 6:15:00 PM 8.54 47.372 0.198 7.66 61.45 1.25
11/9/2021 6:30:00 PM 8.54 47.372 0.197 7.66 62.06 1.4
11/9/2021 6:45:00 PM 8.53 47.354 0.198 7.65 61.89 1.3
11/9/2021 7:00:00 PM 8.53 47.354 0.199 7.65 55.44 1.31
11/9/2021 7:15:00 PM 8.53 47.354 0.2 7.65 58.57 1.43
11/9/2021 7:30:00 PM 8.52 47.336 0.199 7.65 59.54 1.29
11/9/2021 7:45:00 PM 8.51 47.318 0.196 7.65 53.47 1.38
11/9/2021 8:00:00 PM 8.51 47.318 0.196 7.65 102.4 1.14
11/9/2021 8:15:00 PM 8.5 47.3 0.197 7.65 61.18 1.21
11/9/2021 8:30:00 PM 8.49 47.282 0.198 7.65 59.67 0.98
11/9/2021 8:45:00 PM 8.48 47.264 0.198 7.65 61.06 0.95
11/9/2021 9:00:00 PM 8.47 47.246 0.199 7.64 60.81 1.16
11/9/2021 9:15:00 PM 8.46 47.228 0.199 7.64 66.25 0.97
11/9/2021 9:30:00 PM 8.46 47.228 0.199 7.62 60.57 0.92
11/9/2021 9:45:00 PM 8.45 47.21 0.199 7.64 61.41 0.86
11/9/2021 10:00:00 PM 8.46 47.228 0.2 7.64 61.29 1.03
11/9/2021 10:15:00 PM 8.46 47.228 0.2 7.64 60.38 0.96
11/9/2021 10:30:00 PM 8.46 47.228 0.199 7.64 60.85 1.19
11/9/2021 10:45:00 PM 8.47 47.246 0.2 7.64 60.32 1.2
11/9/2021 11:00:00 PM 8.48 47.264 0.2 7.64 61.92 1.08
11/9/2021 11:15:00 PM 8.49 47.282 0.2 7.64 62.07 1.3
11/9/2021 11:30:00 PM 8.5 47.3 0.2 7.63 61.24 1.18
11/9/2021 11:45:00 PM 8.51 47.318 0.2 7.63 62.27 1.09
11/10/2021 12:00:00 AM 8.52 47.336 0.201 7.63 57.89 1.02
11/10/2021 12:15:00 AM 8.53 47.354 0.2 7.63 61.91 0.98
11/10/2021 12:30:00 AM 8.54 47.372 0.199 7.63 63.58 1.16
11/10/2021 12:45:00 AM 8.55 47.39 0.2 7.63 64.15 1.53
11/10/2021 1:00:00 AM 8.56 47.408 0.201 7.63 65.81 1.03
11/10/2021 1:15:00 AM 8.57 47.426 0.202 7.63 62.37 0.92
11/10/2021 1:30:00 AM 8.58 47.444 0.201 7.63 63.43 0.97
11/10/2021 1:45:00 AM 8.59 47.462 0.202 7.63 64.52 0.95
11/10/2021 2:00:00 AM 8.6 47.48 0.203 7.63 63.86 0.87
11/10/2021 2:15:00 AM 8.61 47.498 0.202 7.62 62.17 0.99
11/10/2021 2:30:00 AM 8.62 47.516 0.203 7.63 64.26 0.92
11/10/2021 2:45:00 AM 8.63 47.534 0.201 7.63 65.91 0.99
11/10/2021 3:00:00 AM 8.64 47.552 0.204 7.63 63.8 1.12
11/10/2021 3:15:00 AM 8.66 47.588 0.202 7.63 64.94 1.15
11/10/2021 3:30:00 AM 8.67 47.606 0.202 7.63 62.2 1.02
11/10/2021 3:45:00 AM 8.69 47.642 0.202 7.62 64.57 0.84
11/10/2021 4:00:00 AM 8.7 47.66 0.202 7.63 64.2 0.91
11/10/2021 4:15:00 AM 8.72 47.696 0.202 7.62 67.97 0.71
11/10/2021 4:30:00 AM 8.73 47.714 0.202 7.63 62.37 0.8
11/10/2021 4:45:00 AM 8.75 47.75 0.201 7.63 63.83 0.78
11/10/2021 5:00:00 AM 8.76 47.768 0.203 7.63 64.27 0.93
11/10/2021 5:15:00 AM 8.77 47.786 0.203 7.63 64.71 0.94
11/10/2021 5:30:00 AM 8.79 47.822 0.203 7.63 62.5 0.75
11/10/2021 5:45:00 AM 8.8 47.84 0.204 7.63 64.11 1.07
11/10/2021 6:00:00 AM 8.81 47.858 0.203 7.63 64.67 1.12
11/10/2021 6:15:00 AM 8.82 47.876 0.204 7.63 63.11 0.93
11/10/2021 6:30:00 AM 8.83 47.894 0.205 7.63 65.67 1
11/10/2021 6:45:00 AM 8.84 47.912 0.205 7.63 65.34 0.91
11/10/2021 7:00:00 AM 8.84 47.912 0.206 7.63 65.74 0.95
11/10/2021 7:15:00 AM 8.85 47.93 0.205 7.63 67.5 1.32
11/10/2021 7:30:00 AM 8.86 47.948 0.206 7.63 67.34 1.04
11/10/2021 7:45:00 AM 8.86 47.948 0.205 7.61 66.45 1.03
11/10/2021 8:00:00 AM 8.86 47.948 0.205 7.63 66.21 1.02
11/10/2021 8:15:00 AM 8.86 47.948 0.204 7.63 61.38 1.03
11/10/2021 8:30:00 AM 8.86 47.948 0.205 7.63 59.69 0.86
11/10/2021 8:45:00 AM 8.88 47.984 0.205 7.63 59.73 0.97
11/10/2021 9:00:00 AM 8.91 48.038 0.205 7.64 59.7 1.16
11/10/2021 9:15:00 AM 8.94 48.092 0.205 7.64 59.61 1.18
11/10/2021 9:30:00 AM 8.97 48.146 0.206 7.64 58.33 0.88
11/10/2021 9:45:00 AM 9 48.2 0.206 7.65 59.33 0.98
11/10/2021 10:00:00 AM 9.03 48.254 0.205 7.65 59.34 1.14
11/10/2021 10:15:00 AM 9.06 48.308 0.208 7.65 58.61 1.05
11/10/2021 10:30:00 AM 9.1 48.38 0.209 7.65 58.51 0.93
11/10/2021 10:45:00 AM 9.13 48.434 0.209 7.66 59.06 0.82
11/10/2021 11:00:00 AM 9.16 48.488 0.21 7.66 59.08 0.91
11/10/2021 11:15:00 AM 9.2 48.56 0.206 7.66 57.41 0.96
11/10/2021 11:30:00 AM 9.24 48.632 0.212 7.66 58.36 1.2
11/10/2021 11:45:00 AM 9.28 48.704 0.213 7.66 58.95 1.06
11/10/2021 12:00:00 PM 9.32 48.776 0.212 7.67 58.56 0.94
11/10/2021 12:15:00 PM 9.36 48.848 0.217 7.67 58.93 0.87
11/10/2021 12:30:00 PM 9.4 48.92 0.216 7.67 58.41 1.04
11/10/2021 12:45:00 PM 9.42 48.956 0.213 7.68 57.89 0.87
11/10/2021 1:00:00 PM 9.44 48.992 0.216 7.68 56.2 1.02
11/10/2021 1:15:00 PM 9.46 49.028 0.217 7.68 58.1 0.94
11/10/2021 1:30:00 PM 9.47 49.046 0.217 7.68 59 1.19
11/10/2021 1:45:00 PM 9.48 49.064 0.216 7.68 59.44 0.92
11/10/2021 2:00:00 PM 9.49 49.082 0.218 7.69 58.67 1.06
11/10/2021 2:15:00 PM 9.5 49.1 0.216 7.69 56.96 1.15
11/10/2021 2:30:00 PM 9.51 49.118 0.215 7.7 61.58 1.19
11/10/2021 2:45:00 PM 9.53 49.154 0.217 7.69 57.9 1.29
11/10/2021 3:00:00 PM 9.55 49.19 0.217 7.69 57.74 1.16
11/10/2021 3:15:00 PM 9.56 49.208 0.219 7.7 56.49 1.08
11/10/2021 3:30:00 PM 9.57 49.226 0.218 7.7 56.31 1.11
11/10/2021 3:45:00 PM 9.57 49.226 0.22 7.7 58.31 1.19
11/10/2021 4:00:00 PM 9.57 49.226 0.218 7.69 57.71 0.94
11/10/2021 4:15:00 PM 9.57 49.226 0.219 7.7 56.72 0.86
11/10/2021 4:30:00 PM 9.56 49.208 0.222 7.7 55.56 1.02
11/10/2021 4:45:00 PM 9.54 49.172 0.222 7.7 56.15 1.18
11/10/2021 5:00:00 PM 9.53 49.154 0.222 7.7 56.77 1.69
11/10/2021 5:15:00 PM 9.51 49.118 0.22 7.69 56.13 1.25
11/10/2021 5:30:00 PM 9.5 49.1 0.22 7.69 57.87 1.15
11/10/2021 5:45:00 PM 9.48 49.064 0.222 7.7 56.7 1.17
11/10/2021 6:00:00 PM 9.47 49.046 0.22 7.69 56.04 1.31
11/10/2021 6:15:00 PM 9.45 49.01 0.22 7.69 60.01 1.17
11/10/2021 6:30:00 PM 9.44 48.992 0.219 7.69 54.68 1.12
11/10/2021 6:45:00 PM 9.42 48.956 0.221 7.68 54.38 1.17
11/10/2021 7:00:00 PM 9.41 48.938 0.221 7.69 66.32 1.2
11/10/2021 7:15:00 PM 9.4 48.92 0.22 7.69 59.45 1.17
11/10/2021 7:30:00 PM 9.39 48.902 0.222 7.69 57.23 1.16
11/10/2021 7:45:00 PM 9.38 48.884 0.222 7.69 57.33 1.21
11/10/2021 8:00:00 PM 9.37 48.866 0.222 7.69 55.7 1.17
11/10/2021 8:15:00 PM 9.36 48.848 0.223 7.69 59.38 1.13
11/10/2021 8:30:00 PM 9.35 48.83 0.223 7.69 60.06 1.23
11/10/2021 8:45:00 PM 9.34 48.812 0.221 7.69 58.01 1.04
11/10/2021 9:00:00 PM 9.33 48.794 0.224 7.69 57.36 1.16
11/10/2021 9:15:00 PM 9.32 48.776 0.223 7.7 57.81 1.49
11/10/2021 9:30:00 PM 9.31 48.758 0.224 7.69 61.01 1.3
11/10/2021 9:45:00 PM 9.3 48.74 0.224 7.69 58.62 1.41
11/10/2021 10:00:00 PM 9.28 48.704 0.225 7.69 56.61 1.39
11/10/2021 10:15:00 PM 9.27 48.686 0.224 7.69 57.97 1.41
11/10/2021 10:30:00 PM 9.25 48.65 0.223 7.69 62.16 1.33
11/10/2021 10:45:00 PM 9.23 48.614 0.224 7.69 70.33 1.34
11/10/2021 11:00:00 PM 9.21 48.578 0.223 7.69 60.43 1.44
11/10/2021 11:15:00 PM 9.19 48.542 0.224 7.69 64.18 1.43
11/10/2021 11:30:00 PM 9.17 48.506 0.224 7.69 60.01 1.28
11/10/2021 11:45:00 PM 9.15 48.47 0.224 7.69 62.71 1.29
11/11/2021 12:00:00 AM 9.12 48.416 0.225 7.69 64.55 1.42
11/11/2021 12:15:00 AM 9.1 48.38 0.225 7.69 67.2 1.47
11/11/2021 12:30:00 AM 9.08 48.344 0.222 7.69 64.5 1.23
11/11/2021 12:45:00 AM 9.05 48.29 0.225 7.69 63.94 1.39
11/11/2021 1:00:00 AM 9.03 48.254 0.225 7.68 63.23 1.3
11/11/2021 1:15:00 AM 9.01 48.218 0.225 7.68 63.5 1.27
11/11/2021 1:30:00 AM 8.98 48.164 0.223 7.68 68.91 1.32
11/11/2021 1:45:00 AM 8.96 48.128 0.223 7.68 63.13 1.14
11/11/2021 2:00:00 AM 8.94 48.092 0.226 7.68 63.28 1.41
11/11/2021 2:15:00 AM 8.91 48.038 0.225 7.68 63.97 1.4
11/11/2021 2:30:00 AM 8.88 47.984 0.225 7.68 61.93 1.17
11/11/2021 2:45:00 AM 8.86 47.948 0.224 7.68 62.65 1.2
11/11/2021 3:00:00 AM 8.84 47.912 0.225 7.68 62.93 1.41
11/11/2021 3:15:00 AM 8.81 47.858 0.225 7.68 62.1 1.19
11/11/2021 3:30:00 AM 8.79 47.822 0.225 7.68 60.31 1.58
11/11/2021 3:45:00 AM 8.76 47.768 0.225 7.68 73.83 1.37
11/11/2021 4:00:00 AM 8.73 47.714 0.225 7.68 61.89 1.27
11/11/2021 4:15:00 AM 8.71 47.678 0.227 7.68 61.83 1.33
11/11/2021 4:30:00 AM 8.68 47.624 0.226 7.68 60.78 1.32
11/11/2021 4:45:00 AM 8.65 47.57 0.227 7.68 61.56 1.46
11/11/2021 5:00:00 AM 8.63 47.534 0.223 7.68 66.92 1.37
11/11/2021 5:15:00 AM 8.6 47.48 0.228 7.68 68.43 1.46
11/11/2021 5:30:00 AM 8.57 47.426 0.227 7.67 62.62 1.29
11/11/2021 5:45:00 AM 8.54 47.372 0.229 7.68 62.85 1.31
11/11/2021 6:00:00 AM 8.51 47.318 0.227 7.67 65.12 1.2
11/11/2021 6:15:00 AM 8.48 47.264 0.227 7.68 62.49 1.23
11/11/2021 6:30:00 AM 8.45 47.21 0.226 7.67 64.91 1.37
11/11/2021 6:45:00 AM 8.42 47.156 0.224 7.67 65.68 1.1
11/11/2021 7:00:00 AM 8.4 47.12 0.222 7.68 62.96 1.15
11/11/2021 7:15:00 AM 8.38 47.084 0.226 7.67 61.81 1.47
11/11/2021 7:30:00 AM 8.36 47.048 0.225 7.67 59.34 1.47
11/11/2021 7:45:00 AM 8.34 47.012 0.226 7.68 60.81 1.35
11/11/2021 8:00:00 AM 8.33 46.994 0.226 7.67 60.44 1.48
11/11/2021 8:15:00 AM 8.31 46.958 0.228 7.67 112.34 1.32
11/11/2021 8:30:00 AM 8.3 46.94 0.227 7.67 61.7 1.42
11/11/2021 8:45:00 AM 8.29 46.922 0.229 7.68 63.05 1.65
11/11/2021 9:00:00 AM 8.28 46.904 0.23 7.68 63.73 1.49
11/11/2021 9:15:00 AM 8.28 46.904 0.228 7.68 61.37 1.52
11/11/2021 9:30:00 AM 8.28 46.904 0.228 7.68 61.85 1.58
11/11/2021 9:45:00 AM 8.29 46.922 0.227 7.68 61.27 1.57
11/11/2021 10:00:00 AM 8.3 46.94 0.228 7.69 68.69 1.54
11/11/2021 10:15:00 AM 8.32 46.976 0.227 7.69 59.84 1.44
11/11/2021 10:30:00 AM 8.33 46.994 0.228 7.69 60.41 1.56
11/11/2021 10:45:00 AM 8.34 47.012 0.227 7.7 60.57 1.74
11/11/2021 11:00:00 AM 8.35 47.03 0.227 7.7 62.34 1.63
11/11/2021 11:15:00 AM 8.37 47.066 0.227 7.7 62.9 1.57
11/11/2021 11:30:00 AM 8.39 47.102 0.227 7.7 60.91 1.69
11/11/2021 11:45:00 AM 8.41 47.138 0.226 7.7 64.57 1.73
11/11/2021 12:00:00 PM 8.42 47.156 0.225 7.7 61.65 1.71
11/11/2021 12:15:00 PM 8.44 47.192 0.225 7.71 60.9 1.73
11/11/2021 12:30:00 PM 8.46 47.228 0.225 7.71 59.26 1.8
11/11/2021 12:45:00 PM 8.48 47.264 0.226 7.71 58.81 1.82
11/11/2021 1:00:00 PM 8.5 47.3 0.225 7.71 61.76 1.87
11/11/2021 1:15:00 PM 8.52 47.336 0.227 7.72 58.27 1.85
11/11/2021 1:30:00 PM 8.54 47.372 0.223 7.72 61.63 1.95
11/11/2021 1:45:00 PM 8.56 47.408 0.226 7.72 60.01 2.02
11/11/2021 2:00:00 PM 8.58 47.444 0.226 7.73 58.89 1.88
11/11/2021 2:15:00 PM 8.6 47.48 0.226 7.73 57.85 1.85
11/11/2021 2:30:00 PM 8.62 47.516 0.226 7.73 59.98 1.89
11/11/2021 2:45:00 PM 8.63 47.534 0.226 7.73 57.21 1.85
11/11/2021 3:00:00 PM 8.64 47.552 0.224 7.73 60.87 1.92
11/11/2021 3:15:00 PM 8.64 47.552 0.226 7.73 57.98 1.99
11/11/2021 3:30:00 PM 8.64 47.552 0.224 7.73 57.46 1.76
11/11/2021 3:45:00 PM 8.64 47.552 0.225 7.73 58.95 1.68
11/11/2021 4:00:00 PM 8.64 47.552 0.225 7.74 58.49 1.47
11/11/2021 4:15:00 PM 8.63 47.534 0.228 7.73 59.04 1.5
11/11/2021 4:30:00 PM 8.63 47.534 0.228 7.73 58.79 1.51
11/11/2021 4:45:00 PM 8.61 47.498 0.228 7.73 57.78 1.43
11/11/2021 5:00:00 PM 8.6 47.48 0.227 7.73 56.24 1.54
11/11/2021 5:15:00 PM 8.59 47.462 0.228 7.73 56.44 1.46
11/11/2021 5:30:00 PM 8.57 47.426 0.229 7.73 59.78 1.44
11/11/2021 5:45:00 PM 8.56 47.408 0.229 7.73 56.57 1.49
11/11/2021 6:00:00 PM 8.55 47.39 0.229 7.72 57.02 1.59
11/11/2021 6:15:00 PM 8.53 47.354 0.229 7.73 59.47 1.54
11/11/2021 6:30:00 PM 8.52 47.336 0.229 7.72 59.65 1.6
11/11/2021 6:45:00 PM 8.51 47.318 0.229 7.72 58.68 1.62
11/11/2021 7:00:00 PM 8.5 47.3 0.228 7.72 58.67 1.59
11/11/2021 7:15:00 PM 8.49 47.282 0.226 7.72 57.31 1.59
11/11/2021 7:30:00 PM 8.49 47.282 0.228 7.72 58.93 1.68
11/11/2021 7:45:00 PM 8.48 47.264 0.232 7.72 59.26 1.53
11/11/2021 8:00:00 PM 8.48 47.264 0.23 7.72 58.05 1.43
11/11/2021 8:15:00 PM 8.47 47.246 0.229 7.72 47.2 1.48
11/11/2021 8:30:00 PM 8.47 47.246 0.23 7.72 57.83 1.61
11/11/2021 8:45:00 PM 8.47 47.246 0.227 7.72 56.3 1.43
11/11/2021 9:00:00 PM 8.48 47.264 0.232 7.71 54.99 1.46
11/11/2021 9:15:00 PM 8.48 47.264 0.232 7.71 55.8 1.66
11/11/2021 9:30:00 PM 8.48 47.264 0.23 7.71 54.78 1.66
11/11/2021 9:45:00 PM 8.49 47.282 0.231 7.72 56.39 1.42
11/11/2021 10:00:00 PM 8.49 47.282 0.229 7.71 55.44 1.56
11/11/2021 10:15:00 PM 8.5 47.3 0.23 7.71 58.66 1.4
11/11/2021 10:30:00 PM 8.51 47.318 0.231 7.71 110.15 1.54
11/11/2021 10:45:00 PM 8.52 47.336 0.229 7.71 60.26 1.33
11/11/2021 11:00:00 PM 8.53 47.354 0.229 7.71 60.92 1.5
11/11/2021 11:15:00 PM 8.54 47.372 0.231 7.71 55.85 1.43
11/11/2021 11:30:00 PM 8.54 47.372 0.229 7.71 56.3 1.36
11/11/2021 11:45:00 PM 8.56 47.408 0.228 7.71 54.92 1.51
11/12/2021 12:00:00 AM 8.57 47.426 0.229 7.71 60.67 1.5
11/12/2021 12:15:00 AM 8.58 47.444 0.228 7.71 56.85 1.54
11/12/2021 12:30:00 AM 8.6 47.48 0.23 7.71 54.97 1.48
11/12/2021 12:45:00 AM 8.62 47.516 0.229 7.71 55.27 1.55
11/12/2021 1:00:00 AM 8.64 47.552 0.231 7.71 54.92 1.48
11/12/2021 1:15:00 AM 8.65 47.57 0.229 7.71 57.53 1.57
11/12/2021 1:30:00 AM 8.67 47.606 0.229 7.7 58.22 1.43
11/12/2021 1:45:00 AM 8.68 47.624 0.229 7.71 60.29 1.51
11/12/2021 2:00:00 AM 8.69 47.642 0.232 7.71 55.57 1.63
11/12/2021 2:15:00 AM 8.71 47.678 0.235 7.7 55.17 1.46
11/12/2021 2:30:00 AM 8.72 47.696 0.235 7.7 53.54 1.54
11/12/2021 2:45:00 AM 8.74 47.732 0.237 7.7 52.64 1.54
11/12/2021 3:00:00 AM 8.76 47.768 0.238 7.7 94.31 1.46
11/12/2021 3:15:00 AM 8.78 47.804 0.238 7.7 48.87 1.41
11/12/2021 3:30:00 AM 8.8 47.84 0.239 7.7 50.65 1.55
11/12/2021 3:45:00 AM 8.82 47.876 0.239 7.7 46.82 1.56
11/12/2021 4:00:00 AM 8.84 47.912 0.238 7.7 47.51 1.51
11/12/2021 4:15:00 AM 8.86 47.948 0.24 7.7 52 1.45
11/12/2021 4:30:00 AM 8.88 47.984 0.24 7.7 48.38 1.34
11/12/2021 4:45:00 AM 8.91 48.038 0.24 7.71 53.14 1.32
11/12/2021 5:00:00 AM 8.93 48.074 0.24 7.7 57.19 1.43
11/12/2021 5:15:00 AM 8.95 48.11 0.241 7.7 56.29 1.55
11/12/2021 5:30:00 AM 8.98 48.164 0.24 7.7 65.63 1.37
11/12/2021 5:45:00 AM 8.99 48.182 0.237 7.69 74.92 1.52
11/12/2021 6:00:00 AM 9.01 48.218 0.237 7.68 138.66 1.53
11/12/2021 6:15:00 AM 9.05 48.29 0.238 7.66 214.54 1.55
11/12/2021 6:30:00 AM 9.09 48.362 0.238 7.64 200.35 1.42
11/12/2021 6:45:00 AM 9.11 48.398 0.235 7.65 143 1.53
11/12/2021 7:00:00 AM 9.12 48.416 0.236 7.65 131.09 1.58
11/12/2021 7:15:00 AM 9.12 48.416 0.235 7.65 105.39 1.52
11/12/2021 7:30:00 AM 9.12 48.416 0.235 7.64 97.26 1.26
11/12/2021 7:45:00 AM 9.11 48.398 0.236 7.65 85.42 1.28
11/12/2021 8:00:00 AM 9.11 48.398 0.238 7.65 83.37 1.18
11/12/2021 8:15:00 AM 9.1 48.38 0.238 7.64 76.26 1.09
11/12/2021 8:30:00 AM 9.11 48.398 0.241 7.64 78.66 0.96
11/12/2021 8:45:00 AM 9.11 48.398 0.24 7.64 76.08 0.96
11/12/2021 9:00:00 AM 9.12 48.416 0.24 7.63 74.94 1.03
11/12/2021 9:15:00 AM 9.14 48.452 0.241 7.64 72.25 1.02
11/12/2021 9:30:00 AM 9.15 48.47 0.241 7.64 72.61 1.19
11/12/2021 9:45:00 AM 9.18 48.524 0.242 7.64 72.3 0.96
11/12/2021 10:00:00 AM 9.21 48.578 0.242 7.63 67.98 0.95
11/12/2021 10:15:00 AM 9.25 48.65 0.242 7.66 67.32 0.97
11/12/2021 10:30:00 AM 9.29 48.722 0.242 7.66 65.03 1.03
11/12/2021 10:45:00 AM 9.34 48.812 0.242 7.66 62.92 0.84
11/12/2021 11:00:00 AM 9.4 48.92 0.241 7.66 61.99 0.82
11/12/2021 11:15:00 AM 9.45 49.01 0.241 7.66 61.59 0.93
11/12/2021 11:30:00 AM 9.5 49.1 0.241 7.67 61.02 1.13
11/12/2021 11:45:00 AM 9.55 49.19 0.241 7.66 63.84 1.1
11/12/2021 12:00:00 PM 9.59 49.262 0.241 7.67 64.25 1.41
11/12/2021 12:15:00 PM 9.61 49.298 0.24 7.67 61.04 1.53
11/12/2021 12:30:00 PM 9.62 49.316 0.241 7.66 63 1.57
11/12/2021 12:45:00 PM 9.63 49.334 0.237 7.68 60.32 1.78
11/12/2021 1:00:00 PM 9.65 49.37 0.237 7.69 62.25 1.77
11/12/2021 1:15:00 PM 9.68 49.424 0.237 7.69 97.9 1.73
11/12/2021 1:30:00 PM 9.71 49.478 0.237 7.69 64.12 1.81
11/12/2021 1:45:00 PM 9.74 49.532 0.237 7.69 59.81 1.86
11/12/2021 2:00:00 PM 9.76 49.568 0.237 7.69 381.55 1.82
11/12/2021 2:15:00 PM 9.77 49.586 0.237 7.69 54.11 1.81
11/12/2021 2:30:00 PM 9.78 49.604 0.237 7.68 67.69 1.58
11/12/2021 2:45:00 PM 9.79 49.622 0.236 7.68 148.15 1.64
11/12/2021 3:00:00 PM 9.8 49.64 0.234 7.68 66.52 2.06
11/12/2021 3:15:00 PM 9.81 49.658 0.235 7.67 74.19 2.08
11/12/2021 3:30:00 PM 9.8 49.64 0.234 7.65 73.95 2
11/12/2021 3:45:00 PM 9.79 49.622 0.233 7.65 88.19 1.97
11/12/2021 4:00:00 PM 9.79 49.622 0.233 7.66 77.65 2.08
11/12/2021 4:15:00 PM 9.79 49.622 0.234 7.66 72.37 2.01
11/12/2021 4:30:00 PM 9.79 49.622 0.234 7.66 72.88 1.98
11/12/2021 4:45:00 PM 9.79 49.622 0.234 7.66 78.67 2.04
11/12/2021 5:00:00 PM 9.78 49.604 0.234 7.62 144.09 1.77
11/12/2021 5:15:00 PM 9.79 49.622 0.233 7.64 456.49 2.43
11/12/2021 5:30:00 PM 9.79 49.622 0.233 7.64 565.35 2.29
11/12/2021 5:45:00 PM 9.8 49.64 0.234 7.62 549.3 2.37
11/12/2021 6:00:00 PM 9.81 49.658 0.235 7.62 449.55 2.29
11/12/2021 6:15:00 PM 9.83 49.694 0.235 7.61 568.21 2.86
11/12/2021 6:30:00 PM 9.84 49.712 0.238 7.6 706.51 3.07
11/12/2021 6:45:00 PM 9.86 49.748 0.238 7.59 710.99 2.89
11/12/2021 7:00:00 PM 9.86 49.748 0.237 7.58 118.18 2.97
11/12/2021 7:15:00 PM 9.86 49.748 0.236 7.57 126.34 2.7
11/12/2021 7:30:00 PM 9.85 49.73 0.231 7.56 911.11 2.68
11/12/2021 7:45:00 PM 9.84 49.712 0.233 7.54 1250.43 2.79
11/12/2021 8:00:00 PM 9.82 49.676 0.232 7.53 1496.44 2.95
11/12/2021 8:15:00 PM 9.81 49.658 0.233 7.53 1089.66 2.75
11/12/2021 8:30:00 PM 9.79 49.622 0.237 7.55 966.68 3.07
11/12/2021 8:45:00 PM 9.76 49.568 0.237 7.51 906.98 2.79
11/12/2021 9:00:00 PM 9.73 49.514 0.236 7.52 180.36 2.58
11/12/2021 9:15:00 PM 9.7 49.46 0.234 7.52 125.72 2.31
11/12/2021 9:30:00 PM 9.67 49.406 0.235 7.51 127.39 2.6
11/12/2021 9:45:00 PM 9.64 49.352 0.235 7.5 124.26 2.79
11/12/2021 10:00:00 PM 9.61 49.298 0.233 7.5 117.73 2.73
11/12/2021 10:15:00 PM 9.58 49.244 0.235 7.49 125.01 2.51
11/12/2021 10:30:00 PM 9.55 49.19 0.233 7.49 143.07 2.84
11/12/2021 10:45:00 PM 9.52 49.136 0.231 7.48 127.66 2.82
11/12/2021 11:00:00 PM 9.49 49.082 0.231 7.48 138.43 2.57
11/12/2021 11:15:00 PM 9.47 49.046 0.231 7.48 149.63 2.2
11/12/2021 11:30:00 PM 9.44 48.992 0.231 7.48 168.04 1.94
11/12/2021 11:45:00 PM 9.41 48.938 0.23 7.46 163.09 1.75
11/13/2021 12:00:00 AM 9.38 48.884 0.23 7.48 149.27 1.36
11/13/2021 12:15:00 AM 9.35 48.83 0.229 7.46 158.65 1.23
11/13/2021 12:30:00 AM 9.32 48.776 0.227 7.48 120.45 1.25
11/13/2021 12:45:00 AM 9.29 48.722 0.226 7.48 141.52 1.23
11/13/2021 1:00:00 AM 9.25 48.65 0.227 7.48 127.32 1.27
11/13/2021 1:15:00 AM 9.22 48.596 0.225 7.48 126.66 1.11
11/13/2021 1:30:00 AM 9.18 48.524 0.225 7.48 134.89 1.19
11/13/2021 1:45:00 AM 9.15 48.47 0.226 7.48 109.67 1.22
11/13/2021 2:00:00 AM 9.11 48.398 0.221 7.48 133.16 0.91
11/13/2021 2:15:00 AM 9.07 48.326 0.215 7.47 142.07 0.8
11/13/2021 2:30:00 AM 9.03 48.254 0.213 7.47 134.82 0.98
11/13/2021 2:45:00 AM 8.99 48.182 0.216 7.47 122.5 1.19
11/13/2021 3:00:00 AM 8.95 48.11 0.219 7.47 5968.18 1.03
11/13/2021 3:15:00 AM 8.91 48.038 0.222 7.44 266.99 1.35
11/13/2021 3:30:00 AM 8.87 47.966 0.217 7.47 95.39 1.3
11/13/2021 3:45:00 AM 8.83 47.894 0.216 7.46 296 1.18
11/13/2021 4:00:00 AM 8.79 47.822 0.215 7.47 84.43 1.07
11/13/2021 4:15:00 AM 8.75 47.75 0.216 7.47 87.05 1.1
11/13/2021 4:30:00 AM 8.71 47.678 0.216 7.47 83.21 1.11
11/13/2021 4:45:00 AM 8.68 47.624 0.215 7.47 73.95 1.25
11/13/2021 5:00:00 AM 8.65 47.57 0.213 7.47 83.89 1.16
11/13/2021 5:15:00 AM 8.62 47.516 0.215 7.47 78.59 1.27
11/13/2021 5:30:00 AM 8.59 47.462 0.218 7.47 77 1.42
11/13/2021 5:45:00 AM 8.57 47.426 0.218 7.47 281.01 1.28
11/13/2021 6:00:00 AM 8.54 47.372 0.215 7.47 72.08 1.18
11/13/2021 6:15:00 AM 8.52 47.336 0.215 7.47 71.29 1.17
11/13/2021 6:30:00 AM 8.49 47.282 0.213 7.48 74.82 1.23
11/13/2021 6:45:00 AM 8.47 47.246 0.216 7.48 71.65 1.23
11/13/2021 7:00:00 AM 8.45 47.21 0.215 7.48 71.84 1.14
11/13/2021 7:15:00 AM 8.42 47.156 0.216 7.48 66.12 1.11
11/13/2021 7:30:00 AM 8.4 47.12 0.217 7.48 68.41 1.12
11/13/2021 7:45:00 AM 8.39 47.102 0.217 7.48 63.02 1.13
11/13/2021 8:00:00 AM 8.37 47.066 0.217 7.47 66.04 1.12
11/13/2021 8:15:00 AM 8.35 47.03 0.217 7.49 78.55 1.17
11/13/2021 8:30:00 AM 8.34 47.012 0.217 7.48 70.39 1.21
11/13/2021 8:45:00 AM 8.33 46.994 0.215 7.49 66.57 1.15
11/13/2021 9:00:00 AM 8.33 46.994 0.214 7.49 63.18 1.13
11/13/2021 9:15:00 AM 8.33 46.994 0.211 7.49 77.17 1.13
11/13/2021 9:30:00 AM 8.32 46.976 0.208 7.49 86.04 1.09
11/13/2021 9:45:00 AM 8.32 46.976 0.206 7.5 85.37 1.12
11/13/2021 10:00:00 AM 8.32 46.976 0.207 7.5 94.08 1.02
11/13/2021 10:15:00 AM 8.32 46.976 0.208 7.5 88.51 1.01
11/13/2021 10:30:00 AM 8.32 46.976 0.207 7.5 92.54 1.08
11/13/2021 10:45:00 AM 8.33 46.994 0.206 7.5 90.65 1.02
11/13/2021 11:00:00 AM 8.33 46.994 0.206 7.51 93.74 1.03
11/13/2021 11:15:00 AM 8.34 47.012 0.209 7.51 95.36 0.97
11/13/2021 11:30:00 AM 8.34 47.012 0.206 7.51 158.44 1
11/13/2021 11:45:00 AM 8.34 47.012 0.207 7.51 89.2 1.06
11/13/2021 12:00:00 PM 8.33 46.994 0.209 7.51 101.14 1.03
11/13/2021 12:15:00 PM 8.33 46.994 0.209 7.52 103.76 1.02
11/13/2021 12:30:00 PM 8.33 46.994 0.21 7.52 77.89 0.98
11/13/2021 12:45:00 PM 8.32 46.976 0.211 7.52 79.87 0.98
11/13/2021 1:00:00 PM 8.32 46.976 0.213 7.52 69.76 0.99
11/13/2021 1:15:00 PM 8.32 46.976 0.213 7.52 63.77 1.01
11/13/2021 1:30:00 PM 8.32 46.976 0.214 7.52 63.78 0.99
11/13/2021 1:45:00 PM 8.32 46.976 0.213 7.52 62.96 0.95
11/13/2021 2:00:00 PM 8.33 46.994 0.213 7.52 58.44 0.96
11/13/2021 2:15:00 PM 8.33 46.994 0.211 7.52 81.49 0.93
11/13/2021 2:30:00 PM 8.34 47.012 0.209 7.53 66.64 0.98
11/13/2021 2:45:00 PM 8.33 46.994 0.207 7.53 71.74 0.96
11/13/2021 3:00:00 PM 8.33 46.994 0.208 7.53 75.46 0.98
11/13/2021 3:15:00 PM 8.33 46.994 0.207 7.52 84.86 0.89
11/13/2021 3:30:00 PM 8.33 46.994 0.206 7.52 87.47 0.93
11/13/2021 3:45:00 PM 8.31 46.958 0.204 7.52 126.04 0.92
11/13/2021 4:00:00 PM 8.29 46.922 0.202 7.52 107.91 0.92
11/13/2021 4:15:00 PM 8.28 46.904 0.201 7.52 146.89 0.98
11/13/2021 4:30:00 PM 8.26 46.868 0.2 7.52 139.21 0.9
11/13/2021 4:45:00 PM 8.25 46.85 0.199 7.52 141.99 0.93
11/13/2021 5:00:00 PM 8.23 46.814 0.198 7.52 110.9 0.99
11/13/2021 5:15:00 PM 8.21 46.778 0.197 7.52 128.24 0.97
11/13/2021 5:30:00 PM 8.19 46.742 0.196 7.51 108.08 1.03
11/13/2021 5:45:00 PM 8.17 46.706 0.195 7.51 117.05 1.08
11/13/2021 6:00:00 PM 8.15 46.67 0.195 7.51 96.97 1.08
11/13/2021 6:15:00 PM 8.13 46.634 0.195 7.51 150.67 1.11
11/13/2021 6:30:00 PM 8.12 46.616 0.194 7.51 152.35 1.12
11/13/2021 6:45:00 PM 8.1 46.58 0.193 7.51 136.26 1.08
11/13/2021 7:00:00 PM 8.09 46.562 0.194 7.51 143.06 1.1
11/13/2021 7:15:00 PM 8.07 46.526 0.191 7.51 147.41 1.1
11/13/2021 7:30:00 PM 8.06 46.508 0.192 7.5 103.79 1.14
11/13/2021 7:45:00 PM 8.05 46.49 0.191 7.5 104.86 1.08
11/13/2021 8:00:00 PM 8.04 46.472 0.191 7.5 98.34 1.05
11/13/2021 8:15:00 PM 8.03 46.454 0.19 7.5 139.02 1.09
11/13/2021 8:30:00 PM 8.02 46.436 0.19 7.5 152.06 1.11
11/13/2021 8:45:00 PM 8.01 46.418 0.19 7.5 132.12 1.09
11/13/2021 9:00:00 PM 8.01 46.418 0.188 7.5 173.44 1.09
11/13/2021 9:15:00 PM 8 46.4 0.188 7.5 191.51 1.1
11/13/2021 9:30:00 PM 7.99 46.382 0.188 7.5 226.86 1.1
11/13/2021 9:45:00 PM 7.98 46.364 0.188 7.49 175.78 1.1
11/13/2021 10:00:00 PM 7.97 46.346 0.187 7.5 160.61 1.08
11/13/2021 10:15:00 PM 7.96 46.328 0.187 7.5 154.61 1.08
11/13/2021 10:30:00 PM 7.95 46.31 0.187 7.5 144.6 1.06
11/13/2021 10:45:00 PM 7.94 46.292 0.186 7.5 128.05 1.09
11/13/2021 11:00:00 PM 7.93 46.274 0.185 7.5 121.3 1.08
11/13/2021 11:15:00 PM 7.92 46.256 0.185 7.51 107.99 1.04
11/13/2021 11:30:00 PM 7.91 46.238 0.185 7.51 85.12 1.07
11/13/2021 11:45:00 PM 7.9 46.22 0.186 7.51 78.09 1.08
11/14/2021 12:00:00 AM 7.89 46.202 0.186 7.51 77.78 1.06
11/14/2021 12:15:00 AM 7.88 46.184 0.186 7.52 77.96 1.07
11/14/2021 12:30:00 AM 7.87 46.166 0.186 7.51 78.78 1.04
11/14/2021 12:45:00 AM 7.86 46.148 0.187 7.52 73.13 1.08
11/14/2021 1:00:00 AM 7.85 46.13 0.185 7.52 71.69 1.07
11/14/2021 1:15:00 AM 7.84 46.112 0.186 7.52 71.93 1.05
11/14/2021 1:30:00 AM 7.83 46.094 0.185 7.53 82.29 1.07
11/14/2021 1:45:00 AM 7.82 46.076 0.185 7.53 68.49 1.05
11/14/2021 2:00:00 AM 7.81 46.058 0.185 7.53 72.94 1.05
11/14/2021 2:15:00 AM 7.79 46.022 0.185 7.53 67.09 1.07
11/14/2021 2:30:00 AM 7.78 46.004 0.184 7.53 66.25 1.09
11/14/2021 2:45:00 AM 7.77 45.986 0.183 7.54 64.15 1.1
11/14/2021 3:00:00 AM 7.76 45.968 0.183 7.54 64.54 1.08
11/14/2021 3:15:00 AM 7.75 45.95 0.182 7.54 66.01 1.07
11/14/2021 3:30:00 AM 7.74 45.932 0.182 7.54 68.29 1.04
11/14/2021 3:45:00 AM 7.73 45.914 0.182 7.54 69.89 1.04
11/14/2021 4:00:00 AM 7.71 45.878 0.183 7.54 72.97 1.04
11/14/2021 4:15:00 AM 7.7 45.86 0.179 7.54 66.02 1.05
11/14/2021 4:30:00 AM 7.69 45.842 0.184 7.54 64.87 1.04
11/14/2021 4:45:00 AM 7.68 45.824 0.185 7.54 66.42 1.04
11/14/2021 5:00:00 AM 7.67 45.806 0.185 7.54 63.63 1.03
11/14/2021 5:15:00 AM 7.66 45.788 0.185 7.54 67.4 1.03
11/14/2021 5:30:00 AM 7.65 45.77 0.184 7.54 63.18 1.05
11/14/2021 5:45:00 AM 7.64 45.752 0.182 7.55 64.11 1.04
11/14/2021 6:00:00 AM 7.63 45.734 0.182 7.54 69.62 1.06
11/14/2021 6:15:00 AM 7.62 45.716 0.182 7.55 61.11 1.1
11/14/2021 6:30:00 AM 7.61 45.698 0.182 7.54 77.98 1.1
11/14/2021 6:45:00 AM 7.6 45.68 0.182 7.54 67.72 1.1
11/14/2021 7:00:00 AM 7.59 45.662 0.182 7.55 64.97 1.11
11/14/2021 7:15:00 AM 7.58 45.644 0.183 7.55 62.32 1.11
11/14/2021 7:30:00 AM 7.57 45.626 0.183 7.55 61.32 1.1
11/14/2021 7:45:00 AM 7.56 45.608 0.184 7.54 60.56 1.09
11/14/2021 8:00:00 AM 7.55 45.59 0.183 7.52 57.17 1.1
11/14/2021 8:15:00 AM 7.55 45.59 0.183 7.54 61.52 1.11
11/14/2021 8:30:00 AM 7.54 45.572 0.183 7.55 56.89 1.12
11/14/2021 8:45:00 AM 7.54 45.572 0.182 7.55 61.68 1.11
11/14/2021 9:00:00 AM 7.54 45.572 0.183 7.55 57.82 1.1
11/14/2021 9:15:00 AM 7.54 45.572 0.183 7.55 56.09 1.09
11/14/2021 9:30:00 AM 7.53 45.554 0.184 7.56 57.94 1.09
11/14/2021 9:45:00 AM 7.53 45.554 0.184 7.55 55.89 1.1
11/14/2021 10:00:00 AM 7.53 45.554 0.185 7.56 53.43 1.11
11/14/2021 10:15:00 AM 7.54 45.572 0.184 7.56 53.58 1.1
11/14/2021 10:30:00 AM 7.55 45.59 0.183 7.56 55.58 1.09
11/14/2021 10:45:00 AM 7.56 45.608 0.185 7.56 60 1.09
11/14/2021 11:00:00 AM 7.58 45.644 0.185 7.57 54.42 1.08
11/14/2021 11:15:00 AM 7.61 45.698 0.184 7.57 61.44 1.08
11/14/2021 11:30:00 AM 7.63 45.734 0.184 7.57 59.75 1.08
11/14/2021 11:45:00 AM 7.65 45.77 0.184 7.57 57.81 1.09
11/14/2021 12:00:00 PM 7.67 45.806 0.184 7.58 56.12 1.09
11/14/2021 12:15:00 PM 7.69 45.842 0.185 7.58 55.1 1.11
11/14/2021 12:30:00 PM 7.71 45.878 0.185 7.56 61.06 1.1
11/14/2021 12:45:00 PM 7.73 45.914 0.185 7.58 64.33 1.09
11/14/2021 1:00:00 PM 7.74 45.932 0.185 7.59 57.59 1.09
11/14/2021 1:15:00 PM 7.75 45.95 0.185 7.59 63.58 1.09
11/14/2021 1:30:00 PM 7.75 45.95 0.185 7.59 64.52 1.08
11/14/2021 1:45:00 PM 7.75 45.95 0.183 7.59 59.29 1.07
11/14/2021 2:00:00 PM 7.75 45.95 0.184 7.59 59.84 1.07
11/14/2021 2:15:00 PM 7.75 45.95 0.184 7.59 60.46 1.06
11/14/2021 2:30:00 PM 7.75 45.95 0.184 7.59 55.03 1.09
11/14/2021 2:45:00 PM 7.75 45.95 0.184 7.6 54.51 1.09
11/14/2021 3:00:00 PM 7.74 45.932 0.184 7.6 55.48 1.1
11/14/2021 3:15:00 PM 7.72 45.896 0.184 7.59 55.68 1.08
11/14/2021 3:30:00 PM 7.71 45.878 0.185 7.59 59.55 1.04
11/14/2021 3:45:00 PM 7.7 45.86 0.184 7.59 56.99 1.06
11/14/2021 4:00:00 PM 7.69 45.842 0.184 7.59 57.35 1.02
11/14/2021 4:15:00 PM 7.68 45.824 0.185 7.6 54.37 1.06
11/14/2021 4:30:00 PM 7.67 45.806 0.185 7.6 54.56 1.05
11/14/2021 4:45:00 PM 7.66 45.788 0.184 7.59 54.45 1.03
11/14/2021 5:00:00 PM 7.64 45.752 0.185 7.59 54.9 1.05
11/14/2021 5:15:00 PM 7.63 45.734 0.185 7.59 56.76 1.04
11/14/2021 5:30:00 PM 7.62 45.716 0.185 7.59 53.97 1.04
11/14/2021 5:45:00 PM 7.61 45.698 0.185 7.59 49.98 1.04
11/14/2021 6:00:00 PM 7.61 45.698 0.185 7.59 50.71 1.02
11/14/2021 6:15:00 PM 7.6 45.68 0.184 7.59 50.82 1.02
11/14/2021 6:30:00 PM 7.59 45.662 0.184 7.59 51.72 1.01
11/14/2021 6:45:00 PM 7.58 45.644 0.185 7.59 65.29 1.02
11/14/2021 7:00:00 PM 7.57 45.626 0.186 7.58 113.49 1.01
11/14/2021 7:15:00 PM 7.56 45.608 0.185 7.59 62.25 1.03
11/14/2021 7:30:00 PM 7.55 45.59 0.185 7.58 62.3 1.02
11/14/2021 7:45:00 PM 7.54 45.572 0.185 7.58 63.61 1.01
11/14/2021 8:00:00 PM 7.53 45.554 0.186 7.58 64.21 1.02
11/14/2021 8:15:00 PM 7.52 45.536 0.185 7.58 60.86 1.03
11/14/2021 8:30:00 PM 7.51 45.518 0.184 7.58 62.57 1.03
11/14/2021 8:45:00 PM 7.51 45.518 0.185 7.58 62.8 1.06
11/14/2021 9:00:00 PM 7.5 45.5 0.186 7.58 64.3 1.06
11/14/2021 9:15:00 PM 7.49 45.482 0.184 7.56 73.82 1.03
11/14/2021 9:30:00 PM 7.49 45.482 0.184 7.58 64.84 1.04
11/14/2021 9:45:00 PM 7.48 45.464 0.185 7.57 63 1.05
11/14/2021 10:00:00 PM 7.47 45.446 0.185 7.56 59.57 1.03
11/14/2021 10:15:00 PM 7.46 45.428 0.184 7.57 61.6 1.03
11/14/2021 10:30:00 PM 7.45 45.41 0.184 7.58 56.55 1.03
11/14/2021 10:45:00 PM 7.45 45.41 0.183 7.58 59.41 1.05
11/14/2021 11:00:00 PM 7.44 45.392 0.185 7.58 57.62 1.03
11/14/2021 11:15:00 PM 7.43 45.374 0.184 7.58 55.45 1.03
11/14/2021 11:30:00 PM 7.43 45.374 0.184 7.58 58.16 1
11/14/2021 11:45:00 PM 7.42 45.356 0.184 7.58 60.45 1
11/15/2021 12:00:00 AM 7.41 45.338 0.184 7.58 55.52 1
11/15/2021 12:15:00 AM 7.4 45.32 0.184 7.58 54.43 0.99
11/15/2021 12:30:00 AM 7.39 45.302 0.183 7.57 55.93 0.97
11/15/2021 12:45:00 AM 7.38 45.284 0.184 7.58 57.02 0.99
11/15/2021 1:00:00 AM 7.37 45.266 0.183 7.58 54.8 1.01
11/15/2021 1:15:00 AM 7.36 45.248 0.182 7.58 54.24 1.03
11/15/2021 1:30:00 AM 7.34 45.212 0.182 7.58 55.73 1.01
11/15/2021 1:45:00 AM 7.32 45.176 0.183 7.58 55.1 0.98
11/15/2021 2:00:00 AM 7.31 45.158 0.186 7.58 55.44 0.98
11/15/2021 2:15:00 AM 7.29 45.122 0.186 7.58 57.96 0.97
11/15/2021 2:30:00 AM 7.28 45.104 0.186 7.58 60.61 0.97
11/15/2021 2:45:00 AM 7.27 45.086 0.186 7.58 55.01 0.95
11/15/2021 3:00:00 AM 7.26 45.068 0.186 7.58 53.65 0.95
11/15/2021 3:15:00 AM 7.25 45.05 0.186 7.58 57.02 0.95
11/15/2021 3:30:00 AM 7.24 45.032 0.185 7.58 54.85 0.97
11/15/2021 3:45:00 AM 7.23 45.014 0.187 7.58 54.93 0.96
11/15/2021 4:00:00 AM 7.22 44.996 0.187 7.58 57.36 0.96
11/15/2021 4:15:00 AM 7.2 44.96 0.188 7.57 84.94 0.96
11/15/2021 4:30:00 AM 7.2 44.96 0.187 7.58 58.64 0.95
11/15/2021 4:45:00 AM 7.19 44.942 0.188 7.58 58.63 0.94
11/15/2021 5:00:00 AM 7.18 44.924 0.187 7.58 54.94 0.95
11/15/2021 5:15:00 AM 7.17 44.906 0.187 7.58 54.61 0.95
11/15/2021 5:30:00 AM 7.16 44.888 0.191 7.58 55.78 0.94
11/15/2021 5:45:00 AM 7.15 44.87 0.189 7.58 56.23 0.96
11/15/2021 6:00:00 AM 7.14 44.852 0.19 7.58 56.09 0.95
11/15/2021 6:15:00 AM 7.12 44.816 0.191 7.58 52.91 0.93
11/15/2021 6:30:00 AM 7.1 44.78 0.191 7.58 52.22 0.93
11/15/2021 6:45:00 AM 7.09 44.762 0.19 7.58 54.39 0.94
11/15/2021 7:00:00 AM 7.08 44.744 0.192 7.58 52.9 0.93
11/15/2021 7:15:00 AM 7.07 44.726 0.192 7.58 53.78 0.94
11/15/2021 7:30:00 AM 7.06 44.708 0.189 7.58 54.83 0.93